<?xml version="1.0" encoding="UTF-8" standalone="no" ?>
<gpx xmlns="http://www.topografix.com/GPX/1/1" xmlns:xsi="http://www.w3.org/2001/XMLSchema-instance" xsi:schemaLocation="http://www.topografix.com/GPX/1/1 http://www.topografix.com/GPX/1/1/gpx.xsd" version="1.1" creator="VisuGPX - https://www.visugpx.com">
  <metadata>
    <name>J2 (ANCIEN) Refuge du Nant du Beurre &amp;gt; Refuge des Arolles</name>
    <desc><![CDATA[caches
7.94
12.14
12.98]]></desc>
  </metadata>
  <wpt lat="45.62642" lon="6.60252">
    <ele>1915.1</ele>
  </wpt>
  <wpt lat="45.64245" lon="6.58291">
    <ele>1563.5</ele>
  </wpt>
  <wpt lat="45.64157" lon="6.5758">
    <ele>1568.1</ele>
  </wpt>
  <trk>
    <name><![CDATA[J2 Refuge du Nant du Beurre &gt; Refuge des Arolles]]></name>
    <extensions>
      <line xmlns="http://www.topografix.com/GPX/gpx_style/0/2">
        <color>0000FF</color>
        <width>4</width>
      </line>
    </extensions>
    <trkseg>
      <trkpt lat="45.58305" lon="6.56099">
        <ele>2077.18</ele>
        <time>2024-03-25T18:51:27.000Z</time>
      </trkpt>
      <trkpt lat="45.58305" lon="6.56099">
        <ele>2077.38</ele>
        <time>2024-03-25T18:51:27.000Z</time>
      </trkpt>
      <trkpt lat="45.58308" lon="6.56102">
        <ele>2077.67</ele>
        <time>2024-03-25T18:51:27.001Z</time>
      </trkpt>
      <trkpt lat="45.58321" lon="6.56096">
        <ele>2078.21</ele>
        <time>2024-03-25T18:51:27.007Z</time>
      </trkpt>
      <trkpt lat="45.58323" lon="6.56099">
        <ele>2078.46</ele>
        <time>2024-03-25T18:51:27.014Z</time>
      </trkpt>
      <trkpt lat="45.5833" lon="6.56104">
        <ele>2078.73</ele>
        <time>2024-03-25T18:51:27.023Z</time>
      </trkpt>
      <trkpt lat="45.5833" lon="6.56103">
        <ele>2078.86</ele>
        <time>2024-03-25T18:51:27.032Z</time>
      </trkpt>
      <trkpt lat="45.5833" lon="6.56104">
        <ele>2079.63</ele>
        <time>2024-03-25T18:51:27.041Z</time>
      </trkpt>
      <trkpt lat="45.58337" lon="6.56108">
        <ele>2080.86</ele>
        <time>2024-03-25T18:51:27.053Z</time>
      </trkpt>
      <trkpt lat="45.58345" lon="6.56125">
        <ele>2079.6</ele>
      </trkpt>
      <trkpt lat="45.58354" lon="6.56135">
        <ele>2082.71</ele>
        <time>2024-03-25T18:51:27.073Z</time>
      </trkpt>
      <trkpt lat="45.5838" lon="6.56155">
        <ele>2085.33</ele>
        <time>2024-03-25T18:51:27.103Z</time>
      </trkpt>
      <trkpt lat="45.58429" lon="6.56214">
        <ele>2088.19</ele>
        <time>2024-03-25T18:51:27.155Z</time>
      </trkpt>
      <trkpt lat="45.58429" lon="6.56214">
        <ele>2088.2</ele>
        <time>2024-03-25T18:51:27.207Z</time>
      </trkpt>
      <trkpt lat="45.58429" lon="6.56225">
        <ele>2091.4</ele>
        <time>2024-03-25T18:51:27.261Z</time>
      </trkpt>
      <trkpt lat="45.58438" lon="6.56234">
        <ele>2092.22</ele>
        <time>2024-03-25T18:51:27.319Z</time>
      </trkpt>
      <trkpt lat="45.58442" lon="6.56239">
        <ele>2093.12</ele>
        <time>2024-03-25T18:51:27.379Z</time>
      </trkpt>
      <trkpt lat="45.58467" lon="6.56244">
        <ele>2094.58</ele>
        <time>2024-03-25T18:51:27.447Z</time>
      </trkpt>
      <trkpt lat="45.58474" lon="6.56253">
        <ele>2095.98</ele>
        <time>2024-03-25T18:51:27.518Z</time>
      </trkpt>
      <trkpt lat="45.58495" lon="6.56256">
        <ele>2097.78</ele>
        <time>2024-03-25T18:51:27.596Z</time>
      </trkpt>
      <trkpt lat="45.585" lon="6.56255">
        <ele>2099.29</ele>
        <time>2024-03-25T18:51:27.676Z</time>
      </trkpt>
      <trkpt lat="45.58508" lon="6.56261">
        <ele>2100.87</ele>
        <time>2024-03-25T18:51:27.759Z</time>
      </trkpt>
      <trkpt lat="45.58512" lon="6.56269">
        <ele>2102.38</ele>
        <time>2024-03-25T18:51:27.844Z</time>
      </trkpt>
      <trkpt lat="45.58517" lon="6.56267">
        <ele>2103.72</ele>
        <time>2024-03-25T18:51:27.931Z</time>
      </trkpt>
      <trkpt lat="45.58517" lon="6.56272">
        <ele>2105.05</ele>
        <time>2024-03-25T18:51:28.019Z</time>
      </trkpt>
      <trkpt lat="45.58523" lon="6.56279">
        <ele>2106.46</ele>
        <time>2024-03-25T18:51:28.109Z</time>
      </trkpt>
      <trkpt lat="45.58524" lon="6.56294">
        <ele>2108.01</ele>
        <time>2024-03-25T18:51:28.203Z</time>
      </trkpt>
      <trkpt lat="45.58522" lon="6.56303">
        <ele>2109.52</ele>
        <time>2024-03-25T18:51:28.299Z</time>
      </trkpt>
      <trkpt lat="45.58524" lon="6.56308">
        <ele>2111.07</ele>
        <time>2024-03-25T18:51:28.397Z</time>
      </trkpt>
      <trkpt lat="45.5853" lon="6.56309">
        <ele>2112.68</ele>
        <time>2024-03-25T18:51:28.497Z</time>
      </trkpt>
      <trkpt lat="45.58533" lon="6.56305">
        <ele>2114.27</ele>
        <time>2024-03-25T18:51:28.598Z</time>
      </trkpt>
      <trkpt lat="45.58538" lon="6.56308">
        <ele>2116.01</ele>
        <time>2024-03-25T18:51:28.701Z</time>
      </trkpt>
      <trkpt lat="45.58545" lon="6.56322">
        <ele>2118.07</ele>
        <time>2024-03-25T18:51:28.808Z</time>
      </trkpt>
      <trkpt lat="45.58552" lon="6.56328">
        <ele>2120.2</ele>
        <time>2024-03-25T18:51:28.917Z</time>
      </trkpt>
      <trkpt lat="45.58554" lon="6.56337">
        <ele>2122.53</ele>
        <time>2024-03-25T18:51:29.028Z</time>
      </trkpt>
      <trkpt lat="45.58561" lon="6.56347">
        <ele>2125.07</ele>
        <time>2024-03-25T18:51:29.143Z</time>
      </trkpt>
      <trkpt lat="45.58581" lon="6.56358">
        <ele>2127.83</ele>
        <time>2024-03-25T18:51:29.265Z</time>
      </trkpt>
      <trkpt lat="45.58592" lon="6.56372">
        <ele>2130.81</ele>
        <time>2024-03-25T18:51:29.392Z</time>
      </trkpt>
      <trkpt lat="45.58642" lon="6.56407">
        <ele>2134.69</ele>
        <time>2024-03-25T18:51:29.537Z</time>
      </trkpt>
      <trkpt lat="45.58672" lon="6.5644">
        <ele>2138.27</ele>
        <time>2024-03-25T18:51:29.695Z</time>
      </trkpt>
      <trkpt lat="45.58675" lon="6.56443">
        <ele>2144.3</ele>
        <time>2024-03-25T18:51:29.854Z</time>
      </trkpt>
      <trkpt lat="45.58692" lon="6.56466">
        <ele>2144.88</ele>
        <time>2024-03-25T18:51:30.022Z</time>
      </trkpt>
      <trkpt lat="45.58707" lon="6.56482">
        <ele>2148.2</ele>
        <time>2024-03-25T18:51:30.196Z</time>
      </trkpt>
      <trkpt lat="45.58733" lon="6.56496">
        <ele>2151.54</ele>
        <time>2024-03-25T18:51:30.379Z</time>
      </trkpt>
      <trkpt lat="45.5874" lon="6.56506">
        <ele>2154.69</ele>
        <time>2024-03-25T18:51:30.565Z</time>
      </trkpt>
      <trkpt lat="45.5875" lon="6.56526">
        <ele>2157.93</ele>
        <time>2024-03-25T18:51:30.757Z</time>
      </trkpt>
      <trkpt lat="45.58754" lon="6.56545">
        <ele>2161.03</ele>
        <time>2024-03-25T18:51:30.954Z</time>
      </trkpt>
      <trkpt lat="45.58774" lon="6.56575">
        <ele>2164.19</ele>
        <time>2024-03-25T18:51:31.160Z</time>
      </trkpt>
      <trkpt lat="45.58795" lon="6.56585">
        <ele>2167.17</ele>
        <time>2024-03-25T18:51:31.374Z</time>
      </trkpt>
      <trkpt lat="45.588" lon="6.56586">
        <ele>2173</ele>
        <time>2024-03-25T18:51:31.590Z</time>
      </trkpt>
      <trkpt lat="45.58807" lon="6.56584">
        <ele>2173.3</ele>
      </trkpt>
      <trkpt lat="45.58815" lon="6.56586">
        <ele>2174.6</ele>
      </trkpt>
      <trkpt lat="45.58821" lon="6.56586">
        <ele>2175.2</ele>
      </trkpt>
      <trkpt lat="45.5883" lon="6.56588">
        <ele>2176.8</ele>
        <time>2024-03-25T18:51:31.815Z</time>
      </trkpt>
      <trkpt lat="45.58835" lon="6.56591">
        <ele>2178.2</ele>
      </trkpt>
      <trkpt lat="45.58844" lon="6.56594">
        <ele>2180.3</ele>
        <time>2024-03-25T18:51:32.045Z</time>
      </trkpt>
      <trkpt lat="45.58843" lon="6.56588">
        <ele>2179.3</ele>
        <time>2024-03-25T18:51:32.279Z</time>
      </trkpt>
      <trkpt lat="45.5884" lon="6.56575">
        <ele>2177.7</ele>
        <time>2024-03-25T18:51:32.517Z</time>
      </trkpt>
      <trkpt lat="45.58845" lon="6.56569">
        <ele>2178.5</ele>
      </trkpt>
      <trkpt lat="45.58851" lon="6.56566">
        <ele>2183.48</ele>
        <time>2024-03-25T18:51:32.757Z</time>
      </trkpt>
      <trkpt lat="45.58856" lon="6.56567">
        <ele>2186.32</ele>
        <time>2024-03-25T18:51:32.999Z</time>
      </trkpt>
      <trkpt lat="45.58866" lon="6.56584">
        <ele>2189.39</ele>
        <time>2024-03-25T18:51:33.246Z</time>
      </trkpt>
      <trkpt lat="45.5889" lon="6.56605">
        <ele>2192.96</ele>
        <time>2024-03-25T18:51:33.502Z</time>
      </trkpt>
      <trkpt lat="45.58898" lon="6.56646">
        <ele>2192.2</ele>
        <time>2024-03-25T18:51:33.768Z</time>
      </trkpt>
      <trkpt lat="45.58929" lon="6.5669">
        <ele>2200.38</ele>
        <time>2024-03-25T18:51:34.049Z</time>
      </trkpt>
      <trkpt lat="45.58937" lon="6.56695">
        <ele>2201.6</ele>
        <time>2024-03-25T18:51:34.334Z</time>
      </trkpt>
      <trkpt lat="45.58941" lon="6.5671">
        <ele>2203.8</ele>
      </trkpt>
      <trkpt lat="45.5895" lon="6.5672">
        <ele>2206.6</ele>
        <time>2024-03-25T18:51:34.625Z</time>
      </trkpt>
      <trkpt lat="45.58958" lon="6.56728">
        <ele>2209.6</ele>
      </trkpt>
      <trkpt lat="45.58965" lon="6.5673">
        <ele>2211.7</ele>
      </trkpt>
      <trkpt lat="45.58967" lon="6.56708">
        <ele>2212.8</ele>
        <time>2024-03-25T18:51:34.920Z</time>
      </trkpt>
      <trkpt lat="45.58969" lon="6.56701">
        <ele>2213.9</ele>
      </trkpt>
      <trkpt lat="45.58977" lon="6.56691">
        <ele>2217.3</ele>
        <time>2024-03-25T18:51:35.221Z</time>
      </trkpt>
      <trkpt lat="45.58978" lon="6.56702">
        <ele>2217.6</ele>
      </trkpt>
      <trkpt lat="45.58981" lon="6.5671">
        <ele>2218</ele>
      </trkpt>
      <trkpt lat="45.58983" lon="6.56708">
        <ele>2217.09</ele>
        <time>2024-03-25T18:51:35.526Z</time>
      </trkpt>
      <trkpt lat="45.58985" lon="6.56699">
        <ele>2220.9</ele>
      </trkpt>
      <trkpt lat="45.58991" lon="6.5669">
        <ele>2220.1</ele>
        <time>2024-03-25T18:51:35.836Z</time>
      </trkpt>
      <trkpt lat="45.58993" lon="6.56705">
        <ele>2223.3</ele>
        <time>2024-03-25T18:51:36.149Z</time>
      </trkpt>
      <trkpt lat="45.58996" lon="6.56708">
        <ele>2223.9</ele>
        <time>2024-03-25T18:51:36.464Z</time>
      </trkpt>
      <trkpt lat="45.58998" lon="6.56699">
        <ele>2226.2</ele>
      </trkpt>
      <trkpt lat="45.59002" lon="6.56694">
        <ele>2228.6</ele>
      </trkpt>
      <trkpt lat="45.59008" lon="6.567">
        <ele>2228.49</ele>
        <time>2024-03-25T18:51:36.782Z</time>
      </trkpt>
      <trkpt lat="45.59009" lon="6.56704">
        <ele>2229.4</ele>
      </trkpt>
      <trkpt lat="45.59032" lon="6.56737">
        <ele>2234.1</ele>
        <time>2024-03-25T18:51:37.110Z</time>
      </trkpt>
      <trkpt lat="45.59049" lon="6.56771">
        <ele>2236.3</ele>
        <time>2024-03-25T18:51:37.451Z</time>
      </trkpt>
      <trkpt lat="45.59052" lon="6.56799">
        <ele>2237.9</ele>
        <time>2024-03-25T18:51:37.794Z</time>
      </trkpt>
      <trkpt lat="45.59058" lon="6.5682">
        <ele>2238.9</ele>
      </trkpt>
      <trkpt lat="45.5906" lon="6.56818">
        <ele>2236.47</ele>
        <time>2024-03-25T18:51:38.147Z</time>
      </trkpt>
      <trkpt lat="45.59076" lon="6.56843">
        <ele>2237.55</ele>
        <time>2024-03-25T18:51:38.508Z</time>
      </trkpt>
      <trkpt lat="45.59101" lon="6.56875">
        <ele>2238.28</ele>
        <time>2024-03-25T18:51:38.880Z</time>
      </trkpt>
      <trkpt lat="45.59102" lon="6.56877">
        <ele>2238.66</ele>
        <time>2024-03-25T18:51:39.252Z</time>
      </trkpt>
      <trkpt lat="45.59108" lon="6.56888">
        <ele>2238.79</ele>
        <time>2024-03-25T18:51:39.628Z</time>
      </trkpt>
      <trkpt lat="45.59127" lon="6.56949">
        <ele>2238.54</ele>
        <time>2024-03-25T18:51:40.019Z</time>
      </trkpt>
      <trkpt lat="45.59134" lon="6.56983">
        <ele>2238.13</ele>
        <time>2024-03-25T18:51:40.419Z</time>
      </trkpt>
      <trkpt lat="45.59133" lon="6.57003">
        <ele>2237.68</ele>
        <time>2024-03-25T18:51:40.823Z</time>
      </trkpt>
      <trkpt lat="45.59105" lon="6.5703">
        <ele>2237.49</ele>
        <time>2024-03-25T18:51:41.238Z</time>
      </trkpt>
      <trkpt lat="45.59107" lon="6.57045">
        <ele>2236.74</ele>
        <time>2024-03-25T18:51:41.657Z</time>
      </trkpt>
      <trkpt lat="45.59093" lon="6.57069">
        <ele>2236.35</ele>
        <time>2024-03-25T18:51:42.083Z</time>
      </trkpt>
      <trkpt lat="45.5909" lon="6.57097">
        <ele>2235.93</ele>
        <time>2024-03-25T18:51:42.516Z</time>
      </trkpt>
      <trkpt lat="45.59097" lon="6.57146">
        <ele>2235.6</ele>
        <time>2024-03-25T18:51:42.961Z</time>
      </trkpt>
      <trkpt lat="45.59091" lon="6.57156">
        <ele>2235.7</ele>
        <time>2024-03-25T18:51:43.409Z</time>
      </trkpt>
      <trkpt lat="45.59099" lon="6.57171">
        <ele>2235.48</ele>
        <time>2024-03-25T18:51:43.861Z</time>
      </trkpt>
      <trkpt lat="45.59097" lon="6.57203">
        <ele>2235.85</ele>
        <time>2024-03-25T18:51:44.321Z</time>
      </trkpt>
      <trkpt lat="45.59106" lon="6.57254">
        <ele>2236.32</ele>
        <time>2024-03-25T18:51:44.793Z</time>
      </trkpt>
      <trkpt lat="45.59122" lon="6.5729">
        <ele>2237.06</ele>
        <time>2024-03-25T18:51:45.275Z</time>
      </trkpt>
      <trkpt lat="45.59126" lon="6.57312">
        <ele>2237.94</ele>
        <time>2024-03-25T18:51:45.762Z</time>
      </trkpt>
      <trkpt lat="45.59136" lon="6.57339">
        <ele>2238.86</ele>
        <time>2024-03-25T18:51:46.256Z</time>
      </trkpt>
      <trkpt lat="45.59152" lon="6.57368">
        <ele>2239.67</ele>
        <time>2024-03-25T18:51:46.759Z</time>
      </trkpt>
      <trkpt lat="45.59211" lon="6.57416">
        <ele>2239.89</ele>
        <time>2024-03-25T18:51:47.285Z</time>
      </trkpt>
      <trkpt lat="45.59225" lon="6.57457">
        <ele>2241</ele>
        <time>2024-03-25T18:51:47.821Z</time>
      </trkpt>
      <trkpt lat="45.59256" lon="6.57467">
        <ele>2239.8</ele>
        <time>2024-03-25T18:51:48.367Z</time>
      </trkpt>
      <trkpt lat="45.59292" lon="6.57467">
        <ele>2242.46</ele>
        <time>2024-03-25T18:51:48.924Z</time>
      </trkpt>
      <trkpt lat="45.593" lon="6.57472">
        <ele>2243.65</ele>
        <time>2024-03-25T18:51:49.484Z</time>
      </trkpt>
      <trkpt lat="45.59334" lon="6.57475">
        <ele>2244.74</ele>
        <time>2024-03-25T18:51:50.056Z</time>
      </trkpt>
      <trkpt lat="45.59358" lon="6.57482">
        <ele>2245.82</ele>
        <time>2024-03-25T18:51:50.636Z</time>
      </trkpt>
      <trkpt lat="45.59384" lon="6.57519">
        <ele>2247.52</ele>
        <time>2024-03-25T18:51:51.228Z</time>
      </trkpt>
      <trkpt lat="45.59397" lon="6.57521">
        <ele>2249.6</ele>
        <time>2024-03-25T18:51:51.827Z</time>
      </trkpt>
      <trkpt lat="45.59406" lon="6.57526">
        <ele>2250.1</ele>
      </trkpt>
      <trkpt lat="45.5941" lon="6.57528">
        <ele>2250.3</ele>
        <time>2024-03-25T18:51:52.426Z</time>
      </trkpt>
      <trkpt lat="45.59424" lon="6.57549">
        <ele>2253.6</ele>
        <time>2024-03-25T18:51:53.033Z</time>
      </trkpt>
      <trkpt lat="45.59434" lon="6.57562">
        <ele>2254.5</ele>
        <time>2024-03-25T18:51:53.642Z</time>
      </trkpt>
      <trkpt lat="45.59455" lon="6.57607">
        <ele>2259.9</ele>
        <time>2024-03-25T18:51:54.267Z</time>
      </trkpt>
      <trkpt lat="45.59456" lon="6.57629">
        <ele>2263.6</ele>
        <time>2024-03-25T18:51:54.894Z</time>
      </trkpt>
      <trkpt lat="45.59465" lon="6.57696">
        <ele>2272.64</ele>
        <time>2024-03-25T18:51:55.538Z</time>
      </trkpt>
      <trkpt lat="45.59474" lon="6.57708">
        <ele>2277.57</ele>
        <time>2024-03-25T18:51:56.187Z</time>
      </trkpt>
      <trkpt lat="45.59487" lon="6.57737">
        <ele>2282.76</ele>
        <time>2024-03-25T18:51:56.844Z</time>
      </trkpt>
      <trkpt lat="45.59486" lon="6.5775">
        <ele>2287.63</ele>
        <time>2024-03-25T18:51:57.504Z</time>
      </trkpt>
      <trkpt lat="45.59514" lon="6.57813">
        <ele>2292.01</ele>
        <time>2024-03-25T18:51:58.181Z</time>
      </trkpt>
      <trkpt lat="45.59518" lon="6.57844">
        <ele>2296.33</ele>
        <time>2024-03-25T18:51:58.866Z</time>
      </trkpt>
      <trkpt lat="45.59505" lon="6.57888">
        <ele>2301.2</ele>
        <time>2024-03-25T18:51:59.562Z</time>
      </trkpt>
      <trkpt lat="45.59491" lon="6.57914">
        <ele>2305.85</ele>
        <time>2024-03-25T18:52:00.265Z</time>
      </trkpt>
      <trkpt lat="45.5947" lon="6.57924">
        <ele>2310.06</ele>
        <time>2024-03-25T18:52:00.976Z</time>
      </trkpt>
      <trkpt lat="45.59498" lon="6.57943">
        <ele>2313.96</ele>
        <time>2024-03-25T18:52:01.697Z</time>
      </trkpt>
      <trkpt lat="45.59475" lon="6.57969">
        <ele>2317.43</ele>
        <time>2024-03-25T18:52:02.428Z</time>
      </trkpt>
      <trkpt lat="45.59487" lon="6.57996">
        <ele>2310.9</ele>
      </trkpt>
      <trkpt lat="45.59503" lon="6.58012">
        <ele>2321.39</ele>
        <time>2024-03-25T18:52:03.173Z</time>
      </trkpt>
      <trkpt lat="45.59548" lon="6.57995">
        <ele>2325.94</ele>
        <time>2024-03-25T18:52:03.933Z</time>
      </trkpt>
      <trkpt lat="45.59535" lon="6.58051">
        <ele>2325.9</ele>
        <time>2024-03-25T18:52:04.706Z</time>
      </trkpt>
      <trkpt lat="45.59535" lon="6.58091">
        <ele>2332.9</ele>
        <time>2024-03-25T18:52:05.489Z</time>
      </trkpt>
      <trkpt lat="45.5954" lon="6.5811">
        <ele>2329.6</ele>
      </trkpt>
      <trkpt lat="45.59553" lon="6.58127">
        <ele>2336.17</ele>
        <time>2024-03-25T18:52:06.283Z</time>
      </trkpt>
      <trkpt lat="45.5959" lon="6.5816">
        <ele>2339.91</ele>
        <time>2024-03-25T18:52:07.091Z</time>
      </trkpt>
      <trkpt lat="45.5961" lon="6.58166">
        <ele>2342.99</ele>
        <time>2024-03-25T18:52:07.906Z</time>
      </trkpt>
      <trkpt lat="45.59646" lon="6.58179">
        <ele>2345.87</ele>
        <time>2024-03-25T18:52:08.734Z</time>
      </trkpt>
      <trkpt lat="45.59675" lon="6.58212">
        <ele>2348.1</ele>
        <time>2024-03-25T18:52:09.574Z</time>
      </trkpt>
      <trkpt lat="45.59694" lon="6.58223">
        <ele>2350.25</ele>
        <time>2024-03-25T18:52:10.421Z</time>
      </trkpt>
      <trkpt lat="45.59718" lon="6.58248">
        <ele>2351.92</ele>
        <time>2024-03-25T18:52:11.278Z</time>
      </trkpt>
      <trkpt lat="45.59764" lon="6.58288">
        <ele>2353.34</ele>
        <time>2024-03-25T18:52:12.153Z</time>
      </trkpt>
      <trkpt lat="45.59786" lon="6.58328">
        <ele>2353.93</ele>
        <time>2024-03-25T18:52:13.040Z</time>
      </trkpt>
      <trkpt lat="45.598" lon="6.58391">
        <ele>2353.53</ele>
        <time>2024-03-25T18:52:13.942Z</time>
      </trkpt>
      <trkpt lat="45.59833" lon="6.58432">
        <ele>2352.99</ele>
        <time>2024-03-25T18:52:14.859Z</time>
      </trkpt>
      <trkpt lat="45.59839" lon="6.58455">
        <ele>2352.05</ele>
        <time>2024-03-25T18:52:15.782Z</time>
      </trkpt>
      <trkpt lat="45.59853" lon="6.58466">
        <ele>2350.82</ele>
        <time>2024-03-25T18:52:16.710Z</time>
      </trkpt>
      <trkpt lat="45.5986" lon="6.58467">
        <ele>2349.12</ele>
        <time>2024-03-25T18:52:17.640Z</time>
      </trkpt>
      <trkpt lat="45.59908" lon="6.58501">
        <ele>2346.68</ele>
        <time>2024-03-25T18:52:18.588Z</time>
      </trkpt>
      <trkpt lat="45.59921" lon="6.58514">
        <ele>2344.03</ele>
        <time>2024-03-25T18:52:19.541Z</time>
      </trkpt>
      <trkpt lat="45.59968" lon="6.58552">
        <ele>2340.43</ele>
        <time>2024-03-25T18:52:20.512Z</time>
      </trkpt>
      <trkpt lat="45.59972" lon="6.5855">
        <ele>2337.79</ele>
        <time>2024-03-25T18:52:21.485Z</time>
      </trkpt>
      <trkpt lat="45.59992" lon="6.58566">
        <ele>2334.94</ele>
        <time>2024-03-25T18:52:22.466Z</time>
      </trkpt>
      <trkpt lat="45.60009" lon="6.58583">
        <ele>2332.28</ele>
        <time>2024-03-25T18:52:23.453Z</time>
      </trkpt>
      <trkpt lat="45.60026" lon="6.58638">
        <ele>2330.01</ele>
        <time>2024-03-25T18:52:24.454Z</time>
      </trkpt>
      <trkpt lat="45.60035" lon="6.58655">
        <ele>2328.04</ele>
        <time>2024-03-25T18:52:25.460Z</time>
      </trkpt>
      <trkpt lat="45.60054" lon="6.58681">
        <ele>2319.2</ele>
        <time>2024-03-25T18:52:26.476Z</time>
      </trkpt>
      <trkpt lat="45.60065" lon="6.58685">
        <ele>2318.9</ele>
      </trkpt>
      <trkpt lat="45.60081" lon="6.58704">
        <ele>2320.2</ele>
        <time>2024-03-25T18:52:27.499Z</time>
      </trkpt>
      <trkpt lat="45.60089" lon="6.58727">
        <ele>2323.88</ele>
        <time>2024-03-25T18:52:28.530Z</time>
      </trkpt>
      <trkpt lat="45.60103" lon="6.58733">
        <ele>2323.04</ele>
        <time>2024-03-25T18:52:29.566Z</time>
      </trkpt>
      <trkpt lat="45.60115" lon="6.58745">
        <ele>2322.67</ele>
        <time>2024-03-25T18:52:30.607Z</time>
      </trkpt>
      <trkpt lat="45.60125" lon="6.5877">
        <ele>2322.71</ele>
        <time>2024-03-25T18:52:31.655Z</time>
      </trkpt>
      <trkpt lat="45.60152" lon="6.58787">
        <ele>2322.38</ele>
        <time>2024-03-25T18:52:32.713Z</time>
      </trkpt>
      <trkpt lat="45.60188" lon="6.58826">
        <ele>2322.81</ele>
        <time>2024-03-25T18:52:33.786Z</time>
      </trkpt>
      <trkpt lat="45.60197" lon="6.58842">
        <ele>2323.31</ele>
        <time>2024-03-25T18:52:34.864Z</time>
      </trkpt>
      <trkpt lat="45.60209" lon="6.58846">
        <ele>2324.4</ele>
      </trkpt>
      <trkpt lat="45.6022" lon="6.58864">
        <ele>2326.9</ele>
        <time>2024-03-25T18:52:35.951Z</time>
      </trkpt>
      <trkpt lat="45.60232" lon="6.58866">
        <ele>2325.6</ele>
        <time>2024-03-25T18:52:37.041Z</time>
      </trkpt>
      <trkpt lat="45.60242" lon="6.58878">
        <ele>2324.48</ele>
        <time>2024-03-25T18:52:38.136Z</time>
      </trkpt>
      <trkpt lat="45.60263" lon="6.5891">
        <ele>2325.44</ele>
        <time>2024-03-25T18:52:39.241Z</time>
      </trkpt>
      <trkpt lat="45.60278" lon="6.58923">
        <ele>2325.94</ele>
        <time>2024-03-25T18:52:40.352Z</time>
      </trkpt>
      <trkpt lat="45.60295" lon="6.58929">
        <ele>2326.38</ele>
        <time>2024-03-25T18:52:41.469Z</time>
      </trkpt>
      <trkpt lat="45.60303" lon="6.58934">
        <ele>2326.94</ele>
        <time>2024-03-25T18:52:42.589Z</time>
      </trkpt>
      <trkpt lat="45.60303" lon="6.58934">
        <ele>2326.95</ele>
        <time>2024-03-25T18:52:43.709Z</time>
      </trkpt>
      <trkpt lat="45.60339" lon="6.58961">
        <ele>2336.26</ele>
        <time>2024-03-25T18:52:44.843Z</time>
      </trkpt>
      <trkpt lat="45.60354" lon="6.5896">
        <ele>2338.41</ele>
        <time>2024-03-25T18:52:45.982Z</time>
      </trkpt>
      <trkpt lat="45.6036" lon="6.58969">
        <ele>2340.77</ele>
        <time>2024-03-25T18:52:47.124Z</time>
      </trkpt>
      <trkpt lat="45.60393" lon="6.58981">
        <ele>2342.95</ele>
        <time>2024-03-25T18:52:48.277Z</time>
      </trkpt>
      <trkpt lat="45.60415" lon="6.58975">
        <ele>2344.62</ele>
        <time>2024-03-25T18:52:49.437Z</time>
      </trkpt>
      <trkpt lat="45.60436" lon="6.5898">
        <ele>2346.49</ele>
        <time>2024-03-25T18:52:50.604Z</time>
      </trkpt>
      <trkpt lat="45.60505" lon="6.58987">
        <ele>2349.06</ele>
        <time>2024-03-25T18:52:51.795Z</time>
      </trkpt>
      <trkpt lat="45.60526" lon="6.58994">
        <ele>2350.87</ele>
        <time>2024-03-25T18:52:52.993Z</time>
      </trkpt>
      <trkpt lat="45.60546" lon="6.58982">
        <ele>2351.6</ele>
        <time>2024-03-25T18:52:54.198Z</time>
      </trkpt>
      <trkpt lat="45.60563" lon="6.58978">
        <ele>2352.29</ele>
        <time>2024-03-25T18:52:55.409Z</time>
      </trkpt>
      <trkpt lat="45.60561" lon="6.58977">
        <ele>2352.72</ele>
        <time>2024-03-25T18:52:56.621Z</time>
      </trkpt>
      <trkpt lat="45.60571" lon="6.58976">
        <ele>2353.09</ele>
        <time>2024-03-25T18:52:57.836Z</time>
      </trkpt>
      <trkpt lat="45.60586" lon="6.58966">
        <ele>2353.21</ele>
        <time>2024-03-25T18:52:59.056Z</time>
      </trkpt>
      <trkpt lat="45.6062" lon="6.58968">
        <ele>2353.38</ele>
        <time>2024-03-25T18:53:00.288Z</time>
      </trkpt>
      <trkpt lat="45.6062" lon="6.58968">
        <ele>2353.36</ele>
        <time>2024-03-25T18:53:01.520Z</time>
      </trkpt>
      <trkpt lat="45.60632" lon="6.58967">
        <ele>2353.23</ele>
        <time>2024-03-25T18:53:02.756Z</time>
      </trkpt>
      <trkpt lat="45.60632" lon="6.58974">
        <ele>2353.24</ele>
        <time>2024-03-25T18:53:03.993Z</time>
      </trkpt>
      <trkpt lat="45.60632" lon="6.58974">
        <ele>2353.24</ele>
        <time>2024-03-25T18:53:05.230Z</time>
      </trkpt>
      <trkpt lat="45.60632" lon="6.58974">
        <ele>2351.76</ele>
        <time>2024-03-25T18:53:06.467Z</time>
      </trkpt>
      <trkpt lat="45.60631" lon="6.58993">
        <ele>2349.31</ele>
        <time>2024-03-25T18:53:07.709Z</time>
      </trkpt>
      <trkpt lat="45.60643" lon="6.59032">
        <ele>2345.97</ele>
        <time>2024-03-25T18:53:08.961Z</time>
      </trkpt>
      <trkpt lat="45.60652" lon="6.59102">
        <ele>2342.16</ele>
        <time>2024-03-25T18:53:10.229Z</time>
      </trkpt>
      <trkpt lat="45.60663" lon="6.59121">
        <ele>2337.76</ele>
        <time>2024-03-25T18:53:11.503Z</time>
      </trkpt>
      <trkpt lat="45.60673" lon="6.59142">
        <ele>2332.74</ele>
        <time>2024-03-25T18:53:12.783Z</time>
      </trkpt>
      <trkpt lat="45.60684" lon="6.59153">
        <ele>2327.84</ele>
        <time>2024-03-25T18:53:14.068Z</time>
      </trkpt>
      <trkpt lat="45.60687" lon="6.59171">
        <ele>2322.97</ele>
        <time>2024-03-25T18:53:15.357Z</time>
      </trkpt>
      <trkpt lat="45.60693" lon="6.59179">
        <ele>2318.34</ele>
        <time>2024-03-25T18:53:16.649Z</time>
      </trkpt>
      <trkpt lat="45.60694" lon="6.59189">
        <ele>2313.87</ele>
        <time>2024-03-25T18:53:17.943Z</time>
      </trkpt>
      <trkpt lat="45.60713" lon="6.59223">
        <ele>2309.03</ele>
        <time>2024-03-25T18:53:19.247Z</time>
      </trkpt>
      <trkpt lat="45.60716" lon="6.59237">
        <ele>2304.48</ele>
        <time>2024-03-25T18:53:20.555Z</time>
      </trkpt>
      <trkpt lat="45.60725" lon="6.59274">
        <ele>2299.35</ele>
        <time>2024-03-25T18:53:21.872Z</time>
      </trkpt>
      <trkpt lat="45.60724" lon="6.59279">
        <ele>2294.84</ele>
        <time>2024-03-25T18:53:23.190Z</time>
      </trkpt>
      <trkpt lat="45.6072" lon="6.59282">
        <ele>2290.58</ele>
        <time>2024-03-25T18:53:24.510Z</time>
      </trkpt>
      <trkpt lat="45.6072" lon="6.59286">
        <ele>2286.28</ele>
        <time>2024-03-25T18:53:25.831Z</time>
      </trkpt>
      <trkpt lat="45.60726" lon="6.59307">
        <ele>2281.34</ele>
        <time>2024-03-25T18:53:27.157Z</time>
      </trkpt>
      <trkpt lat="45.60726" lon="6.59332">
        <ele>2276.41</ele>
        <time>2024-03-25T18:53:28.489Z</time>
      </trkpt>
      <trkpt lat="45.60739" lon="6.59431">
        <ele>2270.27</ele>
        <time>2024-03-25T18:53:29.845Z</time>
      </trkpt>
      <trkpt lat="45.60743" lon="6.5944">
        <ele>2265.1</ele>
        <time>2024-03-25T18:53:31.203Z</time>
      </trkpt>
      <trkpt lat="45.60743" lon="6.5945">
        <ele>2260.12</ele>
        <time>2024-03-25T18:53:32.564Z</time>
      </trkpt>
      <trkpt lat="45.6074" lon="6.59466">
        <ele>2255.22</ele>
        <time>2024-03-25T18:53:33.929Z</time>
      </trkpt>
      <trkpt lat="45.60743" lon="6.59499">
        <ele>2250.02</ele>
        <time>2024-03-25T18:53:35.301Z</time>
      </trkpt>
      <trkpt lat="45.60743" lon="6.59537">
        <ele>2244.59</ele>
        <time>2024-03-25T18:53:36.682Z</time>
      </trkpt>
      <trkpt lat="45.60747" lon="6.59564">
        <ele>2239.49</ele>
        <time>2024-03-25T18:53:38.070Z</time>
      </trkpt>
      <trkpt lat="45.60764" lon="6.5963">
        <ele>2234.17</ele>
        <time>2024-03-25T18:53:39.474Z</time>
      </trkpt>
      <trkpt lat="45.6079" lon="6.59679">
        <ele>2229.2</ele>
        <time>2024-03-25T18:53:40.892Z</time>
      </trkpt>
      <trkpt lat="45.60804" lon="6.59688">
        <ele>2224.76</ele>
        <time>2024-03-25T18:53:42.315Z</time>
      </trkpt>
      <trkpt lat="45.60823" lon="6.59685">
        <ele>2220.76</ele>
        <time>2024-03-25T18:53:43.745Z</time>
      </trkpt>
      <trkpt lat="45.60836" lon="6.5973">
        <ele>2216.75</ele>
        <time>2024-03-25T18:53:45.186Z</time>
      </trkpt>
      <trkpt lat="45.60863" lon="6.59801">
        <ele>2212.61</ele>
        <time>2024-03-25T18:53:46.646Z</time>
      </trkpt>
      <trkpt lat="45.60881" lon="6.59861">
        <ele>2208.94</ele>
        <time>2024-03-25T18:53:48.121Z</time>
      </trkpt>
      <trkpt lat="45.60912" lon="6.5995">
        <ele>2205.78</ele>
        <time>2024-03-25T18:53:49.620Z</time>
      </trkpt>
      <trkpt lat="45.60929" lon="6.5997">
        <ele>2202.69</ele>
        <time>2024-03-25T18:53:51.126Z</time>
      </trkpt>
      <trkpt lat="45.60966" lon="6.59994">
        <ele>2199.46</ele>
        <time>2024-03-25T18:53:52.646Z</time>
      </trkpt>
      <trkpt lat="45.60978" lon="6.60013">
        <ele>2196.54</ele>
        <time>2024-03-25T18:53:54.172Z</time>
      </trkpt>
      <trkpt lat="45.60983" lon="6.60039">
        <ele>2193.88</ele>
        <time>2024-03-25T18:53:55.704Z</time>
      </trkpt>
      <trkpt lat="45.61011" lon="6.60076">
        <ele>2190.98</ele>
        <time>2024-03-25T18:53:57.249Z</time>
      </trkpt>
      <trkpt lat="45.61029" lon="6.60102">
        <ele>2187.91</ele>
        <time>2024-03-25T18:53:58.802Z</time>
      </trkpt>
      <trkpt lat="45.61052" lon="6.60149">
        <ele>2184.85</ele>
        <time>2024-03-25T18:54:00.369Z</time>
      </trkpt>
      <trkpt lat="45.61067" lon="6.60211">
        <ele>2181.94</ele>
        <time>2024-03-25T18:54:01.951Z</time>
      </trkpt>
      <trkpt lat="45.61096" lon="6.60263">
        <ele>2178.42</ele>
        <time>2024-03-25T18:54:03.549Z</time>
      </trkpt>
      <trkpt lat="45.61102" lon="6.60291">
        <ele>2175.06</ele>
        <time>2024-03-25T18:54:05.154Z</time>
      </trkpt>
      <trkpt lat="45.61101" lon="6.60332">
        <ele>2171.6</ele>
        <time>2024-03-25T18:54:06.768Z</time>
      </trkpt>
      <trkpt lat="45.61139" lon="6.60474">
        <ele>2166.6</ele>
        <time>2024-03-25T18:54:08.418Z</time>
      </trkpt>
      <trkpt lat="45.61146" lon="6.60481">
        <ele>2163.03</ele>
        <time>2024-03-25T18:54:10.070Z</time>
      </trkpt>
      <trkpt lat="45.61159" lon="6.60481">
        <ele>2159.46</ele>
        <time>2024-03-25T18:54:11.727Z</time>
      </trkpt>
      <trkpt lat="45.61177" lon="6.60485">
        <ele>2155.88</ele>
        <time>2024-03-25T18:54:13.390Z</time>
      </trkpt>
      <trkpt lat="45.6119" lon="6.60496">
        <ele>2152.47</ele>
        <time>2024-03-25T18:54:15.058Z</time>
      </trkpt>
      <trkpt lat="45.612" lon="6.60519">
        <ele>2149.12</ele>
        <time>2024-03-25T18:54:16.732Z</time>
      </trkpt>
      <trkpt lat="45.61203" lon="6.60536">
        <ele>2146.17</ele>
        <time>2024-03-25T18:54:18.410Z</time>
      </trkpt>
      <trkpt lat="45.61199" lon="6.6055">
        <ele>2143.54</ele>
        <time>2024-03-25T18:54:20.092Z</time>
      </trkpt>
      <trkpt lat="45.6119" lon="6.60566">
        <ele>2141.25</ele>
        <time>2024-03-25T18:54:21.779Z</time>
      </trkpt>
      <trkpt lat="45.61185" lon="6.60578">
        <ele>2139.13</ele>
        <time>2024-03-25T18:54:23.469Z</time>
      </trkpt>
      <trkpt lat="45.61195" lon="6.60578">
        <ele>2137.06</ele>
        <time>2024-03-25T18:54:25.162Z</time>
      </trkpt>
      <trkpt lat="45.61211" lon="6.60587">
        <ele>2135.18</ele>
        <time>2024-03-25T18:54:26.861Z</time>
      </trkpt>
      <trkpt lat="45.61221" lon="6.60591">
        <ele>2133.63</ele>
        <time>2024-03-25T18:54:28.563Z</time>
      </trkpt>
      <trkpt lat="45.61226" lon="6.60586">
        <ele>2132.39</ele>
        <time>2024-03-25T18:54:30.267Z</time>
      </trkpt>
      <trkpt lat="45.61236" lon="6.60543">
        <ele>2131.34</ele>
        <time>2024-03-25T18:54:31.982Z</time>
      </trkpt>
      <trkpt lat="45.61243" lon="6.60522">
        <ele>2130.39</ele>
        <time>2024-03-25T18:54:33.702Z</time>
      </trkpt>
      <trkpt lat="45.61252" lon="6.60482">
        <ele>2129.79</ele>
        <time>2024-03-25T18:54:35.432Z</time>
      </trkpt>
      <trkpt lat="45.61255" lon="6.60475">
        <ele>2129.28</ele>
        <time>2024-03-25T18:54:37.164Z</time>
      </trkpt>
      <trkpt lat="45.61266" lon="6.6047">
        <ele>2128.78</ele>
        <time>2024-03-25T18:54:38.900Z</time>
      </trkpt>
      <trkpt lat="45.61298" lon="6.6048">
        <ele>2128.14</ele>
        <time>2024-03-25T18:54:40.647Z</time>
      </trkpt>
      <trkpt lat="45.61307" lon="6.60479">
        <ele>2128.05</ele>
        <time>2024-03-25T18:54:42.397Z</time>
      </trkpt>
      <trkpt lat="45.61313" lon="6.60475">
        <ele>2128.1</ele>
        <time>2024-03-25T18:54:44.149Z</time>
      </trkpt>
      <trkpt lat="45.6132" lon="6.6045">
        <ele>2128.44</ele>
        <time>2024-03-25T18:54:45.907Z</time>
      </trkpt>
      <trkpt lat="45.61324" lon="6.60439">
        <ele>2128.66</ele>
        <time>2024-03-25T18:54:47.668Z</time>
      </trkpt>
      <trkpt lat="45.61324" lon="6.60439">
        <ele>2128.73</ele>
        <time>2024-03-25T18:54:49.429Z</time>
      </trkpt>
      <trkpt lat="45.6133" lon="6.60435">
        <ele>2128.76</ele>
        <time>2024-03-25T18:54:51.192Z</time>
      </trkpt>
      <trkpt lat="45.61352" lon="6.60436">
        <ele>2128.58</ele>
        <time>2024-03-25T18:54:52.963Z</time>
      </trkpt>
      <trkpt lat="45.61361" lon="6.60431">
        <ele>2128.45</ele>
        <time>2024-03-25T18:54:54.737Z</time>
      </trkpt>
      <trkpt lat="45.61369" lon="6.6042">
        <ele>2128.23</ele>
        <time>2024-03-25T18:54:56.515Z</time>
      </trkpt>
      <trkpt lat="45.61401" lon="6.60385">
        <ele>2127.78</ele>
        <time>2024-03-25T18:54:58.306Z</time>
      </trkpt>
      <trkpt lat="45.61417" lon="6.6038">
        <ele>2126.97</ele>
        <time>2024-03-25T18:55:00.103Z</time>
      </trkpt>
      <trkpt lat="45.6143" lon="6.60372">
        <ele>2125.86</ele>
        <time>2024-03-25T18:55:01.904Z</time>
      </trkpt>
      <trkpt lat="45.61442" lon="6.6037">
        <ele>2124.52</ele>
        <time>2024-03-25T18:55:03.709Z</time>
      </trkpt>
      <trkpt lat="45.615" lon="6.60377">
        <ele>2122.57</ele>
        <time>2024-03-25T18:55:05.534Z</time>
      </trkpt>
      <trkpt lat="45.61541" lon="6.6039">
        <ele>2120.66</ele>
        <time>2024-03-25T18:55:07.373Z</time>
      </trkpt>
      <trkpt lat="45.61555" lon="6.60387">
        <ele>2118.66</ele>
        <time>2024-03-25T18:55:09.216Z</time>
      </trkpt>
      <trkpt lat="45.61609" lon="6.60383">
        <ele>2116.06</ele>
        <time>2024-03-25T18:55:11.078Z</time>
      </trkpt>
      <trkpt lat="45.61649" lon="6.60351">
        <ele>2113.37</ele>
        <time>2024-03-25T18:55:12.955Z</time>
      </trkpt>
      <trkpt lat="45.61723" lon="6.603">
        <ele>2110.99</ele>
        <time>2024-03-25T18:55:14.859Z</time>
      </trkpt>
      <trkpt lat="45.61712" lon="6.60277">
        <ele>2108.23</ele>
        <time>2024-03-25T18:55:16.770Z</time>
      </trkpt>
      <trkpt lat="45.61711" lon="6.6027">
        <ele>2105.33</ele>
        <time>2024-03-25T18:55:18.683Z</time>
      </trkpt>
      <trkpt lat="45.61714" lon="6.60262">
        <ele>2102.14</ele>
        <time>2024-03-25T18:55:20.598Z</time>
      </trkpt>
      <trkpt lat="45.61777" lon="6.60176">
        <ele>2098.47</ele>
        <time>2024-03-25T18:55:22.541Z</time>
      </trkpt>
      <trkpt lat="45.618" lon="6.60132">
        <ele>2094.57</ele>
        <time>2024-03-25T18:55:24.497Z</time>
      </trkpt>
      <trkpt lat="45.61811" lon="6.60101">
        <ele>2090.37</ele>
        <time>2024-03-25T18:55:26.462Z</time>
      </trkpt>
      <trkpt lat="45.61823" lon="6.60077">
        <ele>2086.43</ele>
        <time>2024-03-25T18:55:28.434Z</time>
      </trkpt>
      <trkpt lat="45.61855" lon="6.60025">
        <ele>2082.12</ele>
        <time>2024-03-25T18:55:30.422Z</time>
      </trkpt>
      <trkpt lat="45.61866" lon="6.60013">
        <ele>2078.34</ele>
        <time>2024-03-25T18:55:32.414Z</time>
      </trkpt>
      <trkpt lat="45.61877" lon="6.60005">
        <ele>2074.6</ele>
        <time>2024-03-25T18:55:34.411Z</time>
      </trkpt>
      <trkpt lat="45.61931" lon="6.59966">
        <ele>2068.5</ele>
        <time>2024-03-25T18:55:36.426Z</time>
      </trkpt>
      <trkpt lat="45.61957" lon="6.59934">
        <ele>2055.5</ele>
        <time>2024-03-25T18:55:38.450Z</time>
      </trkpt>
      <trkpt lat="45.61969" lon="6.59941">
        <ele>2058.2</ele>
        <time>2024-03-25T18:55:40.476Z</time>
      </trkpt>
      <trkpt lat="45.61972" lon="6.59951">
        <ele>2062</ele>
        <time>2024-03-25T18:55:42.506Z</time>
      </trkpt>
      <trkpt lat="45.61972" lon="6.59961">
        <ele>2057.9</ele>
        <time>2024-03-25T18:55:44.537Z</time>
      </trkpt>
      <trkpt lat="45.61975" lon="6.59967">
        <ele>2055.79</ele>
        <time>2024-03-25T18:55:46.570Z</time>
      </trkpt>
      <trkpt lat="45.61974" lon="6.59976">
        <ele>2053.82</ele>
        <time>2024-03-25T18:55:48.605Z</time>
      </trkpt>
      <trkpt lat="45.6197" lon="6.59994">
        <ele>2051.67</ele>
        <time>2024-03-25T18:55:50.645Z</time>
      </trkpt>
      <trkpt lat="45.61982" lon="6.59995">
        <ele>2048.63</ele>
        <time>2024-03-25T18:55:52.689Z</time>
      </trkpt>
      <trkpt lat="45.61997" lon="6.59988">
        <ele>2045.55</ele>
        <time>2024-03-25T18:55:54.738Z</time>
      </trkpt>
      <trkpt lat="45.62002" lon="6.60009">
        <ele>2043.01</ele>
        <time>2024-03-25T18:55:56.792Z</time>
      </trkpt>
      <trkpt lat="45.62013" lon="6.59999">
        <ele>2039.7</ele>
        <time>2024-03-25T18:55:58.850Z</time>
      </trkpt>
      <trkpt lat="45.62015" lon="6.60017">
        <ele>2037.07</ele>
        <time>2024-03-25T18:56:00.913Z</time>
      </trkpt>
      <trkpt lat="45.6204" lon="6.60004">
        <ele>2033.56</ele>
        <time>2024-03-25T18:56:02.984Z</time>
      </trkpt>
      <trkpt lat="45.6204" lon="6.60004">
        <ele>2033.56</ele>
        <time>2024-03-25T18:56:05.055Z</time>
      </trkpt>
      <trkpt lat="45.62042" lon="6.60004">
        <ele>2023.16</ele>
        <time>2024-03-25T18:56:07.127Z</time>
      </trkpt>
      <trkpt lat="45.62077" lon="6.60008">
        <ele>2018</ele>
        <time>2024-03-25T18:56:09.211Z</time>
      </trkpt>
      <trkpt lat="45.62105" lon="6.5999">
        <ele>2012.38</ele>
        <time>2024-03-25T18:56:11.305Z</time>
      </trkpt>
      <trkpt lat="45.62108" lon="6.59999">
        <ele>2008.2</ele>
        <time>2024-03-25T18:56:13.402Z</time>
      </trkpt>
      <trkpt lat="45.62096" lon="6.60024">
        <ele>2005.48</ele>
        <time>2024-03-25T18:56:15.506Z</time>
      </trkpt>
      <trkpt lat="45.62119" lon="6.60017">
        <ele>2001.73</ele>
        <time>2024-03-25T18:56:17.617Z</time>
      </trkpt>
      <trkpt lat="45.62121" lon="6.60027">
        <ele>1998.96</ele>
        <time>2024-03-25T18:56:19.731Z</time>
      </trkpt>
      <trkpt lat="45.62151" lon="6.60034">
        <ele>1995.43</ele>
        <time>2024-03-25T18:56:21.855Z</time>
      </trkpt>
      <trkpt lat="45.6216" lon="6.60041">
        <ele>1992.65</ele>
        <time>2024-03-25T18:56:23.982Z</time>
      </trkpt>
      <trkpt lat="45.62164" lon="6.60037">
        <ele>1990.03</ele>
        <time>2024-03-25T18:56:26.111Z</time>
      </trkpt>
      <trkpt lat="45.62163" lon="6.60013">
        <ele>1987.56</ele>
        <time>2024-03-25T18:56:28.246Z</time>
      </trkpt>
      <trkpt lat="45.62181" lon="6.60007">
        <ele>1984.82</ele>
        <time>2024-03-25T18:56:30.387Z</time>
      </trkpt>
      <trkpt lat="45.62192" lon="6.59993">
        <ele>1982.14</ele>
        <time>2024-03-25T18:56:32.533Z</time>
      </trkpt>
      <trkpt lat="45.62199" lon="6.59998">
        <ele>1979.69</ele>
        <time>2024-03-25T18:56:34.682Z</time>
      </trkpt>
      <trkpt lat="45.62211" lon="6.5998">
        <ele>1976.86</ele>
        <time>2024-03-25T18:56:36.836Z</time>
      </trkpt>
      <trkpt lat="45.62224" lon="6.59973">
        <ele>1974</ele>
        <time>2024-03-25T18:56:38.995Z</time>
      </trkpt>
      <trkpt lat="45.62228" lon="6.59961">
        <ele>1971.2</ele>
        <time>2024-03-25T18:56:41.157Z</time>
      </trkpt>
      <trkpt lat="45.62247" lon="6.59953">
        <ele>1968.1</ele>
        <time>2024-03-25T18:56:43.325Z</time>
      </trkpt>
      <trkpt lat="45.62258" lon="6.5996">
        <ele>1965.32</ele>
        <time>2024-03-25T18:56:45.498Z</time>
      </trkpt>
      <trkpt lat="45.62266" lon="6.59938">
        <ele>1962.41</ele>
        <time>2024-03-25T18:56:47.676Z</time>
      </trkpt>
      <trkpt lat="45.62279" lon="6.59931">
        <ele>1959.6</ele>
        <time>2024-03-25T18:56:49.859Z</time>
      </trkpt>
      <trkpt lat="45.62286" lon="6.59937">
        <ele>1957.03</ele>
        <time>2024-03-25T18:56:52.045Z</time>
      </trkpt>
      <trkpt lat="45.62288" lon="6.59951">
        <ele>1954.68</ele>
        <time>2024-03-25T18:56:54.234Z</time>
      </trkpt>
      <trkpt lat="45.62298" lon="6.59958">
        <ele>1952.19</ele>
        <time>2024-03-25T18:56:56.427Z</time>
      </trkpt>
      <trkpt lat="45.62329" lon="6.59963">
        <ele>1949.29</ele>
        <time>2024-03-25T18:56:58.630Z</time>
      </trkpt>
      <trkpt lat="45.62351" lon="6.59956">
        <ele>1946.59</ele>
        <time>2024-03-25T18:57:00.840Z</time>
      </trkpt>
      <trkpt lat="45.62356" lon="6.59967">
        <ele>1944.25</ele>
        <time>2024-03-25T18:57:03.054Z</time>
      </trkpt>
      <trkpt lat="45.62371" lon="6.59966">
        <ele>1941.71</ele>
        <time>2024-03-25T18:57:05.273Z</time>
      </trkpt>
      <trkpt lat="45.62399" lon="6.59931">
        <ele>1938.74</ele>
        <time>2024-03-25T18:57:07.504Z</time>
      </trkpt>
      <trkpt lat="45.62411" lon="6.59924">
        <ele>1936.16</ele>
        <time>2024-03-25T18:57:09.739Z</time>
      </trkpt>
      <trkpt lat="45.62427" lon="6.59941">
        <ele>1933.73</ele>
        <time>2024-03-25T18:57:11.981Z</time>
      </trkpt>
      <trkpt lat="45.62435" lon="6.59941">
        <ele>1931.29</ele>
        <time>2024-03-25T18:57:14.226Z</time>
      </trkpt>
      <trkpt lat="45.62448" lon="6.59966">
        <ele>1928.91</ele>
        <time>2024-03-25T18:57:16.478Z</time>
      </trkpt>
      <trkpt lat="45.62454" lon="6.59969">
        <ele>1926.68</ele>
        <time>2024-03-25T18:57:18.732Z</time>
      </trkpt>
      <trkpt lat="45.62461" lon="6.59964">
        <ele>1924.43</ele>
        <time>2024-03-25T18:57:20.989Z</time>
      </trkpt>
      <trkpt lat="45.62465" lon="6.59976">
        <ele>1922.32</ele>
        <time>2024-03-25T18:57:23.249Z</time>
      </trkpt>
      <trkpt lat="45.62502" lon="6.60008">
        <ele>1920.04</ele>
        <time>2024-03-25T18:57:25.523Z</time>
      </trkpt>
      <trkpt lat="45.62537" lon="6.60013">
        <ele>1917.6</ele>
        <time>2024-03-25T18:57:27.809Z</time>
      </trkpt>
      <trkpt lat="45.62556" lon="6.60036">
        <ele>1915.51</ele>
        <time>2024-03-25T18:57:30.103Z</time>
      </trkpt>
      <trkpt lat="45.62572" lon="6.6004">
        <ele>1913.59</ele>
        <time>2024-03-25T18:57:32.403Z</time>
      </trkpt>
      <trkpt lat="45.62577" lon="6.60048">
        <ele>1911.91</ele>
        <time>2024-03-25T18:57:34.705Z</time>
      </trkpt>
      <trkpt lat="45.62589" lon="6.6009">
        <ele>1910.8</ele>
      </trkpt>
      <trkpt lat="45.62573" lon="6.60134">
        <ele>1911.6</ele>
      </trkpt>
      <trkpt lat="45.62594" lon="6.60169">
        <ele>1909.9</ele>
      </trkpt>
      <trkpt lat="45.62611" lon="6.60179">
        <ele>1905</ele>
      </trkpt>
      <trkpt lat="45.6264" lon="6.60253">
        <ele>1915.6</ele>
      </trkpt>
      <trkpt lat="45.62663" lon="6.60236">
        <ele>1908.9</ele>
      </trkpt>
      <trkpt lat="45.62686" lon="6.60212">
        <ele>1906.4</ele>
      </trkpt>
      <trkpt lat="45.62707" lon="6.60133">
        <ele>1902.1</ele>
      </trkpt>
      <trkpt lat="45.6272" lon="6.60059">
        <ele>1894.95</ele>
        <time>2024-03-25T18:58:05.132Z</time>
      </trkpt>
      <trkpt lat="45.62719" lon="6.6004">
        <ele>1894.28</ele>
        <time>2024-03-25T18:58:07.506Z</time>
      </trkpt>
      <trkpt lat="45.62719" lon="6.6004">
        <ele>1894.28</ele>
        <time>2024-03-25T18:58:09.880Z</time>
      </trkpt>
      <trkpt lat="45.62719" lon="6.6004">
        <ele>1892.44</ele>
        <time>2024-03-25T18:58:12.254Z</time>
      </trkpt>
      <trkpt lat="45.62719" lon="6.60028">
        <ele>1890.6</ele>
        <time>2024-03-25T18:58:14.631Z</time>
      </trkpt>
      <trkpt lat="45.62714" lon="6.60021">
        <ele>1888.56</ele>
        <time>2024-03-25T18:58:17.010Z</time>
      </trkpt>
      <trkpt lat="45.62715" lon="6.59989">
        <ele>1885.58</ele>
        <time>2024-03-25T18:58:19.396Z</time>
      </trkpt>
      <trkpt lat="45.62712" lon="6.59976">
        <ele>1882.67</ele>
        <time>2024-03-25T18:58:21.786Z</time>
      </trkpt>
      <trkpt lat="45.627" lon="6.59951">
        <ele>1878.98</ele>
        <time>2024-03-25T18:58:24.183Z</time>
      </trkpt>
      <trkpt lat="45.6269" lon="6.59945">
        <ele>1875.79</ele>
        <time>2024-03-25T18:58:26.583Z</time>
      </trkpt>
      <trkpt lat="45.62683" lon="6.59943">
        <ele>1872.95</ele>
        <time>2024-03-25T18:58:28.986Z</time>
      </trkpt>
      <trkpt lat="45.62681" lon="6.59937">
        <ele>1870.22</ele>
        <time>2024-03-25T18:58:31.390Z</time>
      </trkpt>
      <trkpt lat="45.62684" lon="6.59919">
        <ele>1867.09</ele>
        <time>2024-03-25T18:58:33.798Z</time>
      </trkpt>
      <trkpt lat="45.62688" lon="6.59915">
        <ele>1864.57</ele>
        <time>2024-03-25T18:58:36.208Z</time>
      </trkpt>
      <trkpt lat="45.62686" lon="6.5991">
        <ele>1862.31</ele>
        <time>2024-03-25T18:58:38.619Z</time>
      </trkpt>
      <trkpt lat="45.62681" lon="6.59902">
        <ele>1860.2</ele>
        <time>2024-03-25T18:58:41.033Z</time>
      </trkpt>
      <trkpt lat="45.62677" lon="6.59902">
        <ele>1858.42</ele>
        <time>2024-03-25T18:58:43.448Z</time>
      </trkpt>
      <trkpt lat="45.62676" lon="6.59897">
        <ele>1856.73</ele>
        <time>2024-03-25T18:58:45.864Z</time>
      </trkpt>
      <trkpt lat="45.6268" lon="6.59885">
        <ele>1855.01</ele>
        <time>2024-03-25T18:58:48.283Z</time>
      </trkpt>
      <trkpt lat="45.62697" lon="6.59871">
        <ele>1853.17</ele>
        <time>2024-03-25T18:58:50.709Z</time>
      </trkpt>
      <trkpt lat="45.62699" lon="6.59859">
        <ele>1851.56</ele>
        <time>2024-03-25T18:58:53.138Z</time>
      </trkpt>
      <trkpt lat="45.62708" lon="6.59838">
        <ele>1849.83</ele>
        <time>2024-03-25T18:58:55.573Z</time>
      </trkpt>
      <trkpt lat="45.62706" lon="6.59812">
        <ele>1848.27</ele>
        <time>2024-03-25T18:58:58.014Z</time>
      </trkpt>
      <trkpt lat="45.62708" lon="6.59807">
        <ele>1847.13</ele>
        <time>2024-03-25T18:59:00.456Z</time>
      </trkpt>
      <trkpt lat="45.62714" lon="6.59804">
        <ele>1846.17</ele>
        <time>2024-03-25T18:59:02.900Z</time>
      </trkpt>
      <trkpt lat="45.62708" lon="6.59796">
        <ele>1845.53</ele>
        <time>2024-03-25T18:59:05.347Z</time>
      </trkpt>
      <trkpt lat="45.62698" lon="6.59774">
        <ele>1845.04</ele>
        <time>2024-03-25T18:59:07.800Z</time>
      </trkpt>
      <trkpt lat="45.62685" lon="6.59755">
        <ele>1844.93</ele>
        <time>2024-03-25T18:59:10.259Z</time>
      </trkpt>
      <trkpt lat="45.62607" lon="6.59678">
        <ele>1845.74</ele>
        <time>2024-03-25T18:59:12.750Z</time>
      </trkpt>
      <trkpt lat="45.62595" lon="6.59657">
        <ele>1845.93</ele>
        <time>2024-03-25T18:59:15.247Z</time>
      </trkpt>
      <trkpt lat="45.62582" lon="6.59643">
        <ele>1846.22</ele>
        <time>2024-03-25T18:59:17.750Z</time>
      </trkpt>
      <trkpt lat="45.62572" lon="6.59623">
        <ele>1846.43</ele>
        <time>2024-03-25T18:59:20.259Z</time>
      </trkpt>
      <trkpt lat="45.62544" lon="6.59609">
        <ele>1846.89</ele>
        <time>2024-03-25T18:59:22.778Z</time>
      </trkpt>
      <trkpt lat="45.62542" lon="6.59585">
        <ele>1847.11</ele>
        <time>2024-03-25T18:59:25.302Z</time>
      </trkpt>
      <trkpt lat="45.62536" lon="6.59579">
        <ele>1847.59</ele>
        <time>2024-03-25T18:59:27.829Z</time>
      </trkpt>
      <trkpt lat="45.62521" lon="6.59581">
        <ele>1848.23</ele>
        <time>2024-03-25T18:59:30.361Z</time>
      </trkpt>
      <trkpt lat="45.62512" lon="6.59592">
        <ele>1848.95</ele>
        <time>2024-03-25T18:59:32.897Z</time>
      </trkpt>
      <trkpt lat="45.62497" lon="6.59593">
        <ele>1849.58</ele>
        <time>2024-03-25T18:59:35.438Z</time>
      </trkpt>
      <trkpt lat="45.62482" lon="6.59579">
        <ele>1850.19</ele>
        <time>2024-03-25T18:59:37.985Z</time>
      </trkpt>
      <trkpt lat="45.62475" lon="6.59563">
        <ele>1850.74</ele>
        <time>2024-03-25T18:59:40.536Z</time>
      </trkpt>
      <trkpt lat="45.62469" lon="6.59542">
        <ele>1851.2</ele>
        <time>2024-03-25T18:59:43.092Z</time>
      </trkpt>
      <trkpt lat="45.62441" lon="6.59497">
        <ele>1851.74</ele>
        <time>2024-03-25T18:59:45.662Z</time>
      </trkpt>
      <trkpt lat="45.6243" lon="6.59478">
        <ele>1852.17</ele>
        <time>2024-03-25T18:59:48.238Z</time>
      </trkpt>
      <trkpt lat="45.62434" lon="6.59463">
        <ele>1852.12</ele>
        <time>2024-03-25T18:59:50.818Z</time>
      </trkpt>
      <trkpt lat="45.62465" lon="6.59431">
        <ele>1852.17</ele>
        <time>2024-03-25T18:59:53.411Z</time>
      </trkpt>
      <trkpt lat="45.6248" lon="6.59422">
        <ele>1852.22</ele>
        <time>2024-03-25T18:59:56.009Z</time>
      </trkpt>
      <trkpt lat="45.6249" lon="6.59426">
        <ele>1852.12</ele>
        <time>2024-03-25T18:59:58.610Z</time>
      </trkpt>
      <trkpt lat="45.62519" lon="6.59449">
        <ele>1851.83</ele>
        <time>2024-03-25T19:00:01.222Z</time>
      </trkpt>
      <trkpt lat="45.62544" lon="6.5946">
        <ele>1851.58</ele>
        <time>2024-03-25T19:00:03.843Z</time>
      </trkpt>
      <trkpt lat="45.62553" lon="6.59459">
        <ele>1851.52</ele>
        <time>2024-03-25T19:00:06.467Z</time>
      </trkpt>
      <trkpt lat="45.62573" lon="6.59434">
        <ele>1851.71</ele>
        <time>2024-03-25T19:00:09.100Z</time>
      </trkpt>
      <trkpt lat="45.62608" lon="6.59409">
        <ele>1851.76</ele>
        <time>2024-03-25T19:00:11.746Z</time>
      </trkpt>
      <trkpt lat="45.62621" lon="6.59404">
        <ele>1851.77</ele>
        <time>2024-03-25T19:00:14.396Z</time>
      </trkpt>
      <trkpt lat="45.62637" lon="6.59405">
        <ele>1851.74</ele>
        <time>2024-03-25T19:00:17.052Z</time>
      </trkpt>
      <trkpt lat="45.62653" lon="6.59393">
        <ele>1852.09</ele>
        <time>2024-03-25T19:00:19.714Z</time>
      </trkpt>
      <trkpt lat="45.62672" lon="6.59373">
        <ele>1852.61</ele>
        <time>2024-03-25T19:00:22.384Z</time>
      </trkpt>
      <trkpt lat="45.62693" lon="6.59334">
        <ele>1853.08</ele>
        <time>2024-03-25T19:00:25.065Z</time>
      </trkpt>
      <trkpt lat="45.62711" lon="6.59326">
        <ele>1852.84</ele>
        <time>2024-03-25T19:00:27.753Z</time>
      </trkpt>
      <trkpt lat="45.62723" lon="6.59315">
        <ele>1852.99</ele>
        <time>2024-03-25T19:00:30.445Z</time>
      </trkpt>
      <trkpt lat="45.62733" lon="6.593">
        <ele>1853.58</ele>
        <time>2024-03-25T19:00:33.142Z</time>
      </trkpt>
      <trkpt lat="45.62735" lon="6.59288">
        <ele>1854.48</ele>
        <time>2024-03-25T19:00:35.842Z</time>
      </trkpt>
      <trkpt lat="45.62725" lon="6.59277">
        <ele>1855.67</ele>
        <time>2024-03-25T19:00:38.546Z</time>
      </trkpt>
      <trkpt lat="45.62719" lon="6.59271">
        <ele>1856.94</ele>
        <time>2024-03-25T19:00:41.253Z</time>
      </trkpt>
      <trkpt lat="45.62712" lon="6.59207">
        <ele>1858.76</ele>
        <time>2024-03-25T19:00:43.975Z</time>
      </trkpt>
      <trkpt lat="45.62727" lon="6.59158">
        <ele>1859.7</ele>
        <time>2024-03-25T19:00:46.709Z</time>
      </trkpt>
      <trkpt lat="45.62732" lon="6.59135">
        <ele>1860.88</ele>
        <time>2024-03-25T19:00:49.449Z</time>
      </trkpt>
      <trkpt lat="45.62732" lon="6.59108">
        <ele>1862.53</ele>
        <time>2024-03-25T19:00:52.195Z</time>
      </trkpt>
      <trkpt lat="45.62724" lon="6.59083">
        <ele>1865</ele>
        <time>2024-03-25T19:00:54.947Z</time>
      </trkpt>
      <trkpt lat="45.62708" lon="6.59061">
        <ele>1868.45</ele>
        <time>2024-03-25T19:00:57.707Z</time>
      </trkpt>
      <trkpt lat="45.62698" lon="6.59035">
        <ele>1871.35</ele>
        <time>2024-03-25T19:01:00.474Z</time>
      </trkpt>
      <trkpt lat="45.62703" lon="6.58975">
        <ele>1873.14</ele>
        <time>2024-03-25T19:01:03.255Z</time>
      </trkpt>
      <trkpt lat="45.62703" lon="6.58949">
        <ele>1875.08</ele>
        <time>2024-03-25T19:01:06.042Z</time>
      </trkpt>
      <trkpt lat="45.62715" lon="6.58929">
        <ele>1876.33</ele>
        <time>2024-03-25T19:01:08.835Z</time>
      </trkpt>
      <trkpt lat="45.62718" lon="6.58915">
        <ele>1878.86</ele>
        <time>2024-03-25T19:01:11.632Z</time>
      </trkpt>
      <trkpt lat="45.6272" lon="6.58871">
        <ele>1881.88</ele>
        <time>2024-03-25T19:01:14.439Z</time>
      </trkpt>
      <trkpt lat="45.62715" lon="6.58808">
        <ele>1884.22</ele>
        <time>2024-03-25T19:01:17.261Z</time>
      </trkpt>
      <trkpt lat="45.62715" lon="6.58808">
        <ele>1884.23</ele>
        <time>2024-03-25T19:01:20.083Z</time>
      </trkpt>
      <trkpt lat="45.62714" lon="6.58803">
        <ele>1886.72</ele>
        <time>2024-03-25T19:01:22.906Z</time>
      </trkpt>
      <trkpt lat="45.62713" lon="6.58784">
        <ele>1888.5</ele>
        <time>2024-03-25T19:01:25.731Z</time>
      </trkpt>
      <trkpt lat="45.62752" lon="6.5878">
        <ele>1879.22</ele>
        <time>2024-03-25T19:01:28.570Z</time>
      </trkpt>
      <trkpt lat="45.62775" lon="6.58776">
        <ele>1874.9</ele>
        <time>2024-03-25T19:01:31.416Z</time>
      </trkpt>
      <trkpt lat="45.62791" lon="6.58769">
        <ele>1870.36</ele>
        <time>2024-03-25T19:01:34.268Z</time>
      </trkpt>
      <trkpt lat="45.6283" lon="6.58737">
        <ele>1864.65</ele>
        <time>2024-03-25T19:01:37.135Z</time>
      </trkpt>
      <trkpt lat="45.6284" lon="6.58718">
        <ele>1858.97</ele>
        <time>2024-03-25T19:01:40.007Z</time>
      </trkpt>
      <trkpt lat="45.62853" lon="6.58709">
        <ele>1853.16</ele>
        <time>2024-03-25T19:01:42.884Z</time>
      </trkpt>
      <trkpt lat="45.62874" lon="6.58707">
        <ele>1847.28</ele>
        <time>2024-03-25T19:01:45.768Z</time>
      </trkpt>
      <trkpt lat="45.62886" lon="6.58699">
        <ele>1841.88</ele>
        <time>2024-03-25T19:01:48.657Z</time>
      </trkpt>
      <trkpt lat="45.62913" lon="6.5869">
        <ele>1836.12</ele>
        <time>2024-03-25T19:01:51.555Z</time>
      </trkpt>
      <trkpt lat="45.62951" lon="6.58671">
        <ele>1830.2</ele>
        <time>2024-03-25T19:01:54.467Z</time>
      </trkpt>
      <trkpt lat="45.63002" lon="6.58634">
        <ele>1823.95</ele>
        <time>2024-03-25T19:01:57.397Z</time>
      </trkpt>
      <trkpt lat="45.63002" lon="6.58627">
        <ele>1818.75</ele>
        <time>2024-03-25T19:02:00.329Z</time>
      </trkpt>
      <trkpt lat="45.62997" lon="6.58607">
        <ele>1813.51</ele>
        <time>2024-03-25T19:02:03.266Z</time>
      </trkpt>
      <trkpt lat="45.62989" lon="6.58597">
        <ele>1808.84</ele>
        <time>2024-03-25T19:02:06.206Z</time>
      </trkpt>
      <trkpt lat="45.62986" lon="6.5859">
        <ele>1804.49</ele>
        <time>2024-03-25T19:02:09.149Z</time>
      </trkpt>
      <trkpt lat="45.63019" lon="6.58555">
        <ele>1799.33</ele>
        <time>2024-03-25T19:02:12.105Z</time>
      </trkpt>
      <trkpt lat="45.63005" lon="6.58545">
        <ele>1795.38</ele>
        <time>2024-03-25T19:02:15.066Z</time>
      </trkpt>
      <trkpt lat="45.63007" lon="6.5854">
        <ele>1791.72</ele>
        <time>2024-03-25T19:02:18.029Z</time>
      </trkpt>
      <trkpt lat="45.6302" lon="6.58532">
        <ele>1788.05</ele>
        <time>2024-03-25T19:02:20.996Z</time>
      </trkpt>
      <trkpt lat="45.6302" lon="6.58528">
        <ele>1784.87</ele>
        <time>2024-03-25T19:02:23.964Z</time>
      </trkpt>
      <trkpt lat="45.62994" lon="6.58479">
        <ele>1781.32</ele>
        <time>2024-03-25T19:02:26.947Z</time>
      </trkpt>
      <trkpt lat="45.63006" lon="6.58463">
        <ele>1778.35</ele>
        <time>2024-03-25T19:02:29.935Z</time>
      </trkpt>
      <trkpt lat="45.63013" lon="6.58449">
        <ele>1775.49</ele>
        <time>2024-03-25T19:02:32.927Z</time>
      </trkpt>
      <trkpt lat="45.63019" lon="6.58418">
        <ele>1772.43</ele>
        <time>2024-03-25T19:02:35.927Z</time>
      </trkpt>
      <trkpt lat="45.63019" lon="6.58394">
        <ele>1769.49</ele>
        <time>2024-03-25T19:02:38.932Z</time>
      </trkpt>
      <trkpt lat="45.63017" lon="6.58384">
        <ele>1766.88</ele>
        <time>2024-03-25T19:02:41.940Z</time>
      </trkpt>
      <trkpt lat="45.63003" lon="6.58375">
        <ele>1764.53</ele>
        <time>2024-03-25T19:02:44.953Z</time>
      </trkpt>
      <trkpt lat="45.62998" lon="6.58376">
        <ele>1762.34</ele>
        <time>2024-03-25T19:02:47.968Z</time>
      </trkpt>
      <trkpt lat="45.62992" lon="6.5837">
        <ele>1759.95</ele>
        <time>2024-03-25T19:02:50.985Z</time>
      </trkpt>
      <trkpt lat="45.62985" lon="6.58355">
        <ele>1757.31</ele>
        <time>2024-03-25T19:02:54.006Z</time>
      </trkpt>
      <trkpt lat="45.62987" lon="6.58351">
        <ele>1754.93</ele>
        <time>2024-03-25T19:02:57.028Z</time>
      </trkpt>
      <trkpt lat="45.62999" lon="6.58351">
        <ele>1752.5</ele>
        <time>2024-03-25T19:03:00.054Z</time>
      </trkpt>
      <trkpt lat="45.63006" lon="6.58345">
        <ele>1749.76</ele>
        <time>2024-03-25T19:03:03.083Z</time>
      </trkpt>
      <trkpt lat="45.63018" lon="6.58348">
        <ele>1747.11</ele>
        <time>2024-03-25T19:03:06.116Z</time>
      </trkpt>
      <trkpt lat="45.63062" lon="6.58348">
        <ele>1743.48</ele>
        <time>2024-03-25T19:03:09.164Z</time>
      </trkpt>
      <trkpt lat="45.6308" lon="6.58356">
        <ele>1740.49</ele>
        <time>2024-03-25T19:03:12.218Z</time>
      </trkpt>
      <trkpt lat="45.63091" lon="6.58366">
        <ele>1737.75</ele>
        <time>2024-03-25T19:03:15.276Z</time>
      </trkpt>
      <trkpt lat="45.631" lon="6.58371">
        <ele>1734.72</ele>
        <time>2024-03-25T19:03:18.337Z</time>
      </trkpt>
      <trkpt lat="45.63118" lon="6.58389">
        <ele>1731.58</ele>
        <time>2024-03-25T19:03:21.406Z</time>
      </trkpt>
      <trkpt lat="45.63139" lon="6.58387">
        <ele>1727.63</ele>
        <time>2024-03-25T19:03:24.482Z</time>
      </trkpt>
      <trkpt lat="45.63159" lon="6.58396">
        <ele>1724.44</ele>
        <time>2024-03-25T19:03:27.565Z</time>
      </trkpt>
      <trkpt lat="45.63171" lon="6.58406">
        <ele>1721.43</ele>
        <time>2024-03-25T19:03:30.653Z</time>
      </trkpt>
      <trkpt lat="45.63189" lon="6.58414">
        <ele>1718.22</ele>
        <time>2024-03-25T19:03:33.747Z</time>
      </trkpt>
      <trkpt lat="45.632" lon="6.58412">
        <ele>1714.6</ele>
        <time>2024-03-25T19:03:36.845Z</time>
      </trkpt>
      <trkpt lat="45.63213" lon="6.58415">
        <ele>1710.9</ele>
        <time>2024-03-25T19:03:39.947Z</time>
      </trkpt>
      <trkpt lat="45.63228" lon="6.58407">
        <ele>1706.76</ele>
        <time>2024-03-25T19:03:43.054Z</time>
      </trkpt>
      <trkpt lat="45.63239" lon="6.58408">
        <ele>1703.16</ele>
        <time>2024-03-25T19:03:46.165Z</time>
      </trkpt>
      <trkpt lat="45.63251" lon="6.58416">
        <ele>1699.86</ele>
        <time>2024-03-25T19:03:49.280Z</time>
      </trkpt>
      <trkpt lat="45.63274" lon="6.5844">
        <ele>1696.63</ele>
        <time>2024-03-25T19:03:52.405Z</time>
      </trkpt>
      <trkpt lat="45.63285" lon="6.5844">
        <ele>1693.36</ele>
        <time>2024-03-25T19:03:55.534Z</time>
      </trkpt>
      <trkpt lat="45.63296" lon="6.58443">
        <ele>1690.28</ele>
        <time>2024-03-25T19:03:58.666Z</time>
      </trkpt>
      <trkpt lat="45.63316" lon="6.58459">
        <ele>1687.37</ele>
        <time>2024-03-25T19:04:01.806Z</time>
      </trkpt>
      <trkpt lat="45.63338" lon="6.58468">
        <ele>1684.6</ele>
        <time>2024-03-25T19:04:04.954Z</time>
      </trkpt>
      <trkpt lat="45.63358" lon="6.58482">
        <ele>1682.28</ele>
        <time>2024-03-25T19:04:08.109Z</time>
      </trkpt>
      <trkpt lat="45.63373" lon="6.58499">
        <ele>1680.37</ele>
        <time>2024-03-25T19:04:11.270Z</time>
      </trkpt>
      <trkpt lat="45.63373" lon="6.58499">
        <ele>1680.37</ele>
        <time>2024-03-25T19:04:14.431Z</time>
      </trkpt>
      <trkpt lat="45.63381" lon="6.58508">
        <ele>1668.43</ele>
        <time>2024-03-25T19:04:17.596Z</time>
      </trkpt>
      <trkpt lat="45.63396" lon="6.58514">
        <ele>1664.91</ele>
        <time>2024-03-25T19:04:20.766Z</time>
      </trkpt>
      <trkpt lat="45.63404" lon="6.58523">
        <ele>1661.27</ele>
        <time>2024-03-25T19:04:23.939Z</time>
      </trkpt>
      <trkpt lat="45.63426" lon="6.58531">
        <ele>1656.85</ele>
        <time>2024-03-25T19:04:27.120Z</time>
      </trkpt>
      <trkpt lat="45.63436" lon="6.58527">
        <ele>1652.82</ele>
        <time>2024-03-25T19:04:30.304Z</time>
      </trkpt>
      <trkpt lat="45.6346" lon="6.58542">
        <ele>1648.59</ele>
        <time>2024-03-25T19:04:33.497Z</time>
      </trkpt>
      <trkpt lat="45.63487" lon="6.58551">
        <ele>1644.1</ele>
        <time>2024-03-25T19:04:36.699Z</time>
      </trkpt>
      <trkpt lat="45.63528" lon="6.5861">
        <ele>1639.6</ele>
        <time>2024-03-25T19:04:39.921Z</time>
      </trkpt>
      <trkpt lat="45.63546" lon="6.58611">
        <ele>1635.99</ele>
        <time>2024-03-25T19:04:43.149Z</time>
      </trkpt>
      <trkpt lat="45.63565" lon="6.58604">
        <ele>1632.92</ele>
        <time>2024-03-25T19:04:46.383Z</time>
      </trkpt>
      <trkpt lat="45.63574" lon="6.58614">
        <ele>1630.59</ele>
        <time>2024-03-25T19:04:49.621Z</time>
      </trkpt>
      <trkpt lat="45.63593" lon="6.58628">
        <ele>1628.68</ele>
        <time>2024-03-25T19:04:52.866Z</time>
      </trkpt>
      <trkpt lat="45.63599" lon="6.58607">
        <ele>1627.54</ele>
        <time>2024-03-25T19:04:56.117Z</time>
      </trkpt>
      <trkpt lat="45.63608" lon="6.58606">
        <ele>1626.87</ele>
        <time>2024-03-25T19:04:59.371Z</time>
      </trkpt>
      <trkpt lat="45.63621" lon="6.58607">
        <ele>1626.61</ele>
        <time>2024-03-25T19:05:02.629Z</time>
      </trkpt>
      <trkpt lat="45.63621" lon="6.58615">
        <ele>1626.74</ele>
        <time>2024-03-25T19:05:05.889Z</time>
      </trkpt>
      <trkpt lat="45.63622" lon="6.58624">
        <ele>1627.17</ele>
        <time>2024-03-25T19:05:09.151Z</time>
      </trkpt>
      <trkpt lat="45.63627" lon="6.58639">
        <ele>1627.79</ele>
        <time>2024-03-25T19:05:12.417Z</time>
      </trkpt>
      <trkpt lat="45.63633" lon="6.58644">
        <ele>1628.56</ele>
        <time>2024-03-25T19:05:15.685Z</time>
      </trkpt>
      <trkpt lat="45.63658" lon="6.58653">
        <ele>1629.39</ele>
        <time>2024-03-25T19:05:18.962Z</time>
      </trkpt>
      <trkpt lat="45.63686" lon="6.58667">
        <ele>1630.45</ele>
        <time>2024-03-25T19:05:22.249Z</time>
      </trkpt>
      <trkpt lat="45.63713" lon="6.58685">
        <ele>1631.62</ele>
        <time>2024-03-25T19:05:25.546Z</time>
      </trkpt>
      <trkpt lat="45.63723" lon="6.58697">
        <ele>1632.39</ele>
        <time>2024-03-25T19:05:28.847Z</time>
      </trkpt>
      <trkpt lat="45.63738" lon="6.58747">
        <ele>1633.08</ele>
        <time>2024-03-25T19:05:32.161Z</time>
      </trkpt>
      <trkpt lat="45.63745" lon="6.58762">
        <ele>1633.1</ele>
        <time>2024-03-25T19:05:35.479Z</time>
      </trkpt>
      <trkpt lat="45.63753" lon="6.5877">
        <ele>1632.56</ele>
        <time>2024-03-25T19:05:38.800Z</time>
      </trkpt>
      <trkpt lat="45.63763" lon="6.5877">
        <ele>1631.47</ele>
        <time>2024-03-25T19:05:42.124Z</time>
      </trkpt>
      <trkpt lat="45.63773" lon="6.58768">
        <ele>1629.81</ele>
        <time>2024-03-25T19:05:45.452Z</time>
      </trkpt>
      <trkpt lat="45.63773" lon="6.58745">
        <ele>1627.17</ele>
        <time>2024-03-25T19:05:48.785Z</time>
      </trkpt>
      <trkpt lat="45.63794" lon="6.58707">
        <ele>1623.66</ele>
        <time>2024-03-25T19:05:52.130Z</time>
      </trkpt>
      <trkpt lat="45.63818" lon="6.58675">
        <ele>1619.9</ele>
        <time>2024-03-25T19:05:55.486Z</time>
      </trkpt>
      <trkpt lat="45.63913" lon="6.58629">
        <ele>1616.25</ele>
        <time>2024-03-25T19:05:58.875Z</time>
      </trkpt>
      <trkpt lat="45.64009" lon="6.58561">
        <ele>1612.18</ele>
        <time>2024-03-25T19:06:02.300Z</time>
      </trkpt>
      <trkpt lat="45.64031" lon="6.58568">
        <ele>1595.4</ele>
        <time>2024-03-25T19:06:05.732Z</time>
      </trkpt>
      <trkpt lat="45.64042" lon="6.58568">
        <ele>1596.5</ele>
        <time>2024-03-25T19:06:09.167Z</time>
      </trkpt>
      <trkpt lat="45.64058" lon="6.58528">
        <ele>1592.5</ele>
        <time>2024-03-25T19:06:12.613Z</time>
      </trkpt>
      <trkpt lat="45.64075" lon="6.58503">
        <ele>1589.4</ele>
      </trkpt>
      <trkpt lat="45.64103" lon="6.58487">
        <ele>1592.6</ele>
        <time>2024-03-25T19:06:16.074Z</time>
      </trkpt>
      <trkpt lat="45.64109" lon="6.58454">
        <ele>1597.47</ele>
        <time>2024-03-25T19:06:19.543Z</time>
      </trkpt>
      <trkpt lat="45.64126" lon="6.58443">
        <ele>1595.3</ele>
        <time>2024-03-25T19:06:23.018Z</time>
      </trkpt>
      <trkpt lat="45.64149" lon="6.58434">
        <ele>1593.25</ele>
        <time>2024-03-25T19:06:26.501Z</time>
      </trkpt>
      <trkpt lat="45.64157" lon="6.58438">
        <ele>1591.11</ele>
        <time>2024-03-25T19:06:29.987Z</time>
      </trkpt>
      <trkpt lat="45.64185" lon="6.58407">
        <ele>1588.67</ele>
        <time>2024-03-25T19:06:33.485Z</time>
      </trkpt>
      <trkpt lat="45.64185" lon="6.58376">
        <ele>1586.06</ele>
        <time>2024-03-25T19:06:36.990Z</time>
      </trkpt>
      <trkpt lat="45.64199" lon="6.58363">
        <ele>1583.87</ele>
        <time>2024-03-25T19:06:40.501Z</time>
      </trkpt>
      <trkpt lat="45.64208" lon="6.58359">
        <ele>1582.25</ele>
        <time>2024-03-25T19:06:44.015Z</time>
      </trkpt>
      <trkpt lat="45.64221" lon="6.58361">
        <ele>1580.89</ele>
        <time>2024-03-25T19:06:47.533Z</time>
      </trkpt>
      <trkpt lat="45.6423" lon="6.58355">
        <ele>1579.22</ele>
        <time>2024-03-25T19:06:51.055Z</time>
      </trkpt>
      <trkpt lat="45.64234" lon="6.58339">
        <ele>1577.25</ele>
        <time>2024-03-25T19:06:54.581Z</time>
      </trkpt>
      <trkpt lat="45.64241" lon="6.58329">
        <ele>1575.98</ele>
        <time>2024-03-25T19:06:58.110Z</time>
      </trkpt>
      <trkpt lat="45.64251" lon="6.58326">
        <ele>1574.93</ele>
        <time>2024-03-25T19:07:01.642Z</time>
      </trkpt>
      <trkpt lat="45.64275" lon="6.58328">
        <ele>1574.2</ele>
        <time>2024-03-25T19:07:05.182Z</time>
      </trkpt>
      <trkpt lat="45.6428" lon="6.58324">
        <ele>1572.16</ele>
        <time>2024-03-25T19:07:08.724Z</time>
      </trkpt>
      <trkpt lat="45.6427" lon="6.58321">
        <ele>1569.62</ele>
        <time>2024-03-25T19:07:12.269Z</time>
      </trkpt>
      <trkpt lat="45.64252" lon="6.58307">
        <ele>1566.83</ele>
        <time>2024-03-25T19:07:15.821Z</time>
      </trkpt>
      <trkpt lat="45.64258" lon="6.58307">
        <ele>1566.2</ele>
        <time>2024-03-25T19:07:19.375Z</time>
      </trkpt>
      <trkpt lat="45.64258" lon="6.58307">
        <ele>1566.2</ele>
        <time>2024-03-25T19:07:22.929Z</time>
      </trkpt>
      <trkpt lat="45.6426" lon="6.58307">
        <ele>1567.68</ele>
        <time>2024-03-25T19:07:26.484Z</time>
      </trkpt>
      <trkpt lat="45.64271" lon="6.58312">
        <ele>1568.8</ele>
        <time>2024-03-25T19:07:30.043Z</time>
      </trkpt>
      <trkpt lat="45.64274" lon="6.58311">
        <ele>1569.56</ele>
        <time>2024-03-25T19:07:33.603Z</time>
      </trkpt>
      <trkpt lat="45.64265" lon="6.58302">
        <ele>1568.9</ele>
        <time>2024-03-25T19:07:37.167Z</time>
      </trkpt>
      <trkpt lat="45.64244" lon="6.58292">
        <ele>1567.27</ele>
        <time>2024-03-25T19:07:40.738Z</time>
      </trkpt>
      <trkpt lat="45.64177" lon="6.58222">
        <ele>1565.8</ele>
        <time>2024-03-25T19:07:44.337Z</time>
      </trkpt>
      <trkpt lat="45.64163" lon="6.58143">
        <ele>1567.4</ele>
        <time>2024-03-25T19:07:47.955Z</time>
      </trkpt>
      <trkpt lat="45.64166" lon="6.58109">
        <ele>1570.93</ele>
        <time>2024-03-25T19:07:51.581Z</time>
      </trkpt>
      <trkpt lat="45.64173" lon="6.5808">
        <ele>1571.1</ele>
        <time>2024-03-25T19:07:55.214Z</time>
      </trkpt>
      <trkpt lat="45.64197" lon="6.5804">
        <ele>1569.9</ele>
        <time>2024-03-25T19:07:58.859Z</time>
      </trkpt>
      <trkpt lat="45.64205" lon="6.58019">
        <ele>1569.08</ele>
        <time>2024-03-25T19:08:02.510Z</time>
      </trkpt>
      <trkpt lat="45.64201" lon="6.57998">
        <ele>1568.59</ele>
        <time>2024-03-25T19:08:06.166Z</time>
      </trkpt>
      <trkpt lat="45.64194" lon="6.57969">
        <ele>1568.21</ele>
        <time>2024-03-25T19:08:09.829Z</time>
      </trkpt>
      <trkpt lat="45.64199" lon="6.57945">
        <ele>1567.12</ele>
        <time>2024-03-25T19:08:13.498Z</time>
      </trkpt>
      <trkpt lat="45.64185" lon="6.57908">
        <ele>1566.62</ele>
        <time>2024-03-25T19:08:17.177Z</time>
      </trkpt>
      <trkpt lat="45.64181" lon="6.57869">
        <ele>1565.95</ele>
        <time>2024-03-25T19:08:20.865Z</time>
      </trkpt>
      <trkpt lat="45.64167" lon="6.57829">
        <ele>1566.42</ele>
        <time>2024-03-25T19:08:24.564Z</time>
      </trkpt>
      <trkpt lat="45.64161" lon="6.57794">
        <ele>1566.47</ele>
        <time>2024-03-25T19:08:28.271Z</time>
      </trkpt>
      <trkpt lat="45.64149" lon="6.57767">
        <ele>1566.68</ele>
        <time>2024-03-25T19:08:31.985Z</time>
      </trkpt>
      <trkpt lat="45.64146" lon="6.57708">
        <ele>1566.03</ele>
        <time>2024-03-25T19:08:35.713Z</time>
      </trkpt>
      <trkpt lat="45.64138" lon="6.57692">
        <ele>1565.95</ele>
        <time>2024-03-25T19:08:39.446Z</time>
      </trkpt>
      <trkpt lat="45.64104" lon="6.57668">
        <ele>1567</ele>
        <time>2024-03-25T19:08:43.192Z</time>
      </trkpt>
      <trkpt lat="45.64083" lon="6.57648">
        <ele>1567.76</ele>
        <time>2024-03-25T19:08:46.946Z</time>
      </trkpt>
      <trkpt lat="45.64072" lon="6.57624">
        <ele>1568.09</ele>
        <time>2024-03-25T19:08:50.707Z</time>
      </trkpt>
      <trkpt lat="45.64065" lon="6.57579">
        <ele>1567.68</ele>
        <time>2024-03-25T19:08:54.478Z</time>
      </trkpt>
      <trkpt lat="45.64066" lon="6.57564">
        <ele>1567.62</ele>
        <time>2024-03-25T19:08:58.253Z</time>
      </trkpt>
      <trkpt lat="45.6407" lon="6.57556">
        <ele>1567.68</ele>
        <time>2024-03-25T19:09:02.030Z</time>
      </trkpt>
      <trkpt lat="45.64077" lon="6.5755">
        <ele>1567.76</ele>
        <time>2024-03-25T19:09:05.810Z</time>
      </trkpt>
      <trkpt lat="45.6409" lon="6.5756">
        <ele>1567.94</ele>
        <time>2024-03-25T19:09:09.595Z</time>
      </trkpt>
      <trkpt lat="45.6411" lon="6.57583">
        <ele>1568.19</ele>
        <time>2024-03-25T19:09:13.388Z</time>
      </trkpt>
      <trkpt lat="45.64133" lon="6.57591">
        <ele>1568.67</ele>
        <time>2024-03-25T19:09:17.189Z</time>
      </trkpt>
      <trkpt lat="45.64145" lon="6.57596">
        <ele>1563.8</ele>
        <time>2024-03-25T19:09:20.998Z</time>
      </trkpt>
      <trkpt lat="45.64161" lon="6.57592">
        <ele>1565.2</ele>
      </trkpt>
      <trkpt lat="45.64173" lon="6.57583">
        <ele>1567.3</ele>
        <time>2024-03-25T19:09:24.809Z</time>
      </trkpt>
      <trkpt lat="45.64155" lon="6.57583">
        <ele>1567.2</ele>
      </trkpt>
      <trkpt lat="45.64138" lon="6.57557">
        <ele>1575.3</ele>
      </trkpt>
      <trkpt lat="45.64139" lon="6.57543">
        <ele>1577.9</ele>
      </trkpt>
      <trkpt lat="45.64131" lon="6.57529">
        <ele>1577.6</ele>
        <time>2024-03-25T19:09:28.631Z</time>
      </trkpt>
      <trkpt lat="45.64129" lon="6.57521">
        <ele>1578.3</ele>
        <time>2024-03-25T19:09:32.459Z</time>
      </trkpt>
      <trkpt lat="45.64116" lon="6.57509">
        <ele>1577.8</ele>
        <time>2024-03-25T19:09:36.290Z</time>
      </trkpt>
      <trkpt lat="45.64103" lon="6.57501">
        <ele>1577.8</ele>
      </trkpt>
      <trkpt lat="45.64098" lon="6.57486">
        <ele>1579.9</ele>
      </trkpt>
      <trkpt lat="45.64081" lon="6.57475">
        <ele>1579.4</ele>
      </trkpt>
      <trkpt lat="45.64064" lon="6.57468">
        <ele>1579.37</ele>
        <time>2024-03-25T19:09:40.129Z</time>
      </trkpt>
      <trkpt lat="45.64034" lon="6.57438">
        <ele>1582.46</ele>
        <time>2024-03-25T19:09:43.980Z</time>
      </trkpt>
      <trkpt lat="45.64028" lon="6.57435">
        <ele>1585.26</ele>
        <time>2024-03-25T19:09:47.833Z</time>
      </trkpt>
      <trkpt lat="45.64018" lon="6.57435">
        <ele>1588.14</ele>
        <time>2024-03-25T19:09:51.689Z</time>
      </trkpt>
      <trkpt lat="45.64008" lon="6.57423">
        <ele>1591.21</ele>
        <time>2024-03-25T19:09:55.550Z</time>
      </trkpt>
      <trkpt lat="45.64008" lon="6.57404">
        <ele>1594.45</ele>
        <time>2024-03-25T19:09:59.415Z</time>
      </trkpt>
      <trkpt lat="45.64002" lon="6.57382">
        <ele>1597.82</ele>
        <time>2024-03-25T19:10:03.286Z</time>
      </trkpt>
      <trkpt lat="45.63959" lon="6.5735">
        <ele>1601.33</ele>
        <time>2024-03-25T19:10:07.173Z</time>
      </trkpt>
      <trkpt lat="45.63945" lon="6.57347">
        <ele>1604.63</ele>
        <time>2024-03-25T19:10:11.065Z</time>
      </trkpt>
      <trkpt lat="45.63931" lon="6.57338">
        <ele>1607.93</ele>
        <time>2024-03-25T19:10:14.962Z</time>
      </trkpt>
      <trkpt lat="45.63911" lon="6.57291">
        <ele>1611.56</ele>
        <time>2024-03-25T19:10:18.872Z</time>
      </trkpt>
      <trkpt lat="45.63888" lon="6.57251">
        <ele>1614.97</ele>
        <time>2024-03-25T19:10:22.794Z</time>
      </trkpt>
      <trkpt lat="45.63861" lon="6.5721">
        <ele>1618.55</ele>
        <time>2024-03-25T19:10:26.729Z</time>
      </trkpt>
      <trkpt lat="45.63834" lon="6.57191">
        <ele>1621.69</ele>
        <time>2024-03-25T19:10:30.674Z</time>
      </trkpt>
      <trkpt lat="45.63828" lon="6.57163">
        <ele>1624.9</ele>
        <time>2024-03-25T19:10:34.626Z</time>
      </trkpt>
      <trkpt lat="45.63797" lon="6.57152">
        <ele>1627.74</ele>
        <time>2024-03-25T19:10:38.588Z</time>
      </trkpt>
      <trkpt lat="45.63793" lon="6.57141">
        <ele>1630.36</ele>
        <time>2024-03-25T19:10:42.553Z</time>
      </trkpt>
      <trkpt lat="45.63794" lon="6.57126">
        <ele>1632.73</ele>
        <time>2024-03-25T19:10:46.522Z</time>
      </trkpt>
      <trkpt lat="45.63789" lon="6.57119">
        <ele>1634.91</ele>
        <time>2024-03-25T19:10:50.493Z</time>
      </trkpt>
      <trkpt lat="45.63789" lon="6.57112">
        <ele>1636.89</ele>
        <time>2024-03-25T19:10:54.466Z</time>
      </trkpt>
      <trkpt lat="45.63783" lon="6.57105">
        <ele>1638.69</ele>
        <time>2024-03-25T19:10:58.441Z</time>
      </trkpt>
      <trkpt lat="45.63781" lon="6.57095">
        <ele>1640.36</ele>
        <time>2024-03-25T19:11:02.419Z</time>
      </trkpt>
      <trkpt lat="45.63773" lon="6.57096">
        <ele>1641.84</ele>
        <time>2024-03-25T19:11:06.399Z</time>
      </trkpt>
      <trkpt lat="45.63773" lon="6.57112">
        <ele>1642.96</ele>
        <time>2024-03-25T19:11:10.383Z</time>
      </trkpt>
      <trkpt lat="45.63769" lon="6.57112">
        <ele>1644.15</ele>
        <time>2024-03-25T19:11:14.368Z</time>
      </trkpt>
      <trkpt lat="45.63765" lon="6.57109">
        <ele>1645.25</ele>
        <time>2024-03-25T19:11:18.355Z</time>
      </trkpt>
      <trkpt lat="45.63765" lon="6.571">
        <ele>1646.23</ele>
        <time>2024-03-25T19:11:22.344Z</time>
      </trkpt>
      <trkpt lat="45.6376" lon="6.57102">
        <ele>1647.12</ele>
        <time>2024-03-25T19:11:26.335Z</time>
      </trkpt>
      <trkpt lat="45.63756" lon="6.57089">
        <ele>1648.04</ele>
        <time>2024-03-25T19:11:30.329Z</time>
      </trkpt>
      <trkpt lat="45.63754" lon="6.57086">
        <ele>1648.8</ele>
        <time>2024-03-25T19:11:34.324Z</time>
      </trkpt>
      <trkpt lat="45.63749" lon="6.57091">
        <ele>1649.55</ele>
        <time>2024-03-25T19:11:38.321Z</time>
      </trkpt>
      <trkpt lat="45.63745" lon="6.57086">
        <ele>1650.29</ele>
        <time>2024-03-25T19:11:42.319Z</time>
      </trkpt>
      <trkpt lat="45.63743" lon="6.5708">
        <ele>1650.96</ele>
        <time>2024-03-25T19:11:46.319Z</time>
      </trkpt>
      <trkpt lat="45.6374" lon="6.5708">
        <ele>1651.64</ele>
        <time>2024-03-25T19:11:50.320Z</time>
      </trkpt>
      <trkpt lat="45.63738" lon="6.57085">
        <ele>1652.31</ele>
        <time>2024-03-25T19:11:54.322Z</time>
      </trkpt>
      <trkpt lat="45.63735" lon="6.57086">
        <ele>1653.01</ele>
        <time>2024-03-25T19:11:58.326Z</time>
      </trkpt>
      <trkpt lat="45.63733" lon="6.57084">
        <ele>1653.73</ele>
        <time>2024-03-25T19:12:02.330Z</time>
      </trkpt>
      <trkpt lat="45.63733" lon="6.57077">
        <ele>1654.45</ele>
        <time>2024-03-25T19:12:06.336Z</time>
      </trkpt>
      <trkpt lat="45.6373" lon="6.57076">
        <ele>1655.28</ele>
        <time>2024-03-25T19:12:10.343Z</time>
      </trkpt>
      <trkpt lat="45.63729" lon="6.5708">
        <ele>1656.16</ele>
        <time>2024-03-25T19:12:14.351Z</time>
      </trkpt>
      <trkpt lat="45.63726" lon="6.57083">
        <ele>1657.16</ele>
        <time>2024-03-25T19:12:18.360Z</time>
      </trkpt>
      <trkpt lat="45.6372" lon="6.57081">
        <ele>1658.34</ele>
        <time>2024-03-25T19:12:22.372Z</time>
      </trkpt>
      <trkpt lat="45.63716" lon="6.57077">
        <ele>1659.49</ele>
        <time>2024-03-25T19:12:26.385Z</time>
      </trkpt>
      <trkpt lat="45.63706" lon="6.57068">
        <ele>1660.92</ele>
        <time>2024-03-25T19:12:30.402Z</time>
      </trkpt>
      <trkpt lat="45.63706" lon="6.57058">
        <ele>1662.1</ele>
        <time>2024-03-25T19:12:34.422Z</time>
      </trkpt>
      <trkpt lat="45.63704" lon="6.57055">
        <ele>1663.45</ele>
        <time>2024-03-25T19:12:38.442Z</time>
      </trkpt>
      <trkpt lat="45.63701" lon="6.57059">
        <ele>1664.89</ele>
        <time>2024-03-25T19:12:42.464Z</time>
      </trkpt>
      <trkpt lat="45.63697" lon="6.57059">
        <ele>1666.49</ele>
        <time>2024-03-25T19:12:46.487Z</time>
      </trkpt>
      <trkpt lat="45.63692" lon="6.57053">
        <ele>1668.18</ele>
        <time>2024-03-25T19:12:50.512Z</time>
      </trkpt>
      <trkpt lat="45.63687" lon="6.57062">
        <ele>1669.92</ele>
        <time>2024-03-25T19:12:54.540Z</time>
      </trkpt>
      <trkpt lat="45.63676" lon="6.5707">
        <ele>1671.9</ele>
        <time>2024-03-25T19:12:58.572Z</time>
      </trkpt>
      <trkpt lat="45.63673" lon="6.57069">
        <ele>1673.63</ele>
        <time>2024-03-25T19:13:02.605Z</time>
      </trkpt>
      <trkpt lat="45.6367" lon="6.57063">
        <ele>1675.46</ele>
        <time>2024-03-25T19:13:06.640Z</time>
      </trkpt>
      <trkpt lat="45.63666" lon="6.57061">
        <ele>1677.39</ele>
        <time>2024-03-25T19:13:10.676Z</time>
      </trkpt>
      <trkpt lat="45.63661" lon="6.57062">
        <ele>1679.4</ele>
        <time>2024-03-25T19:13:14.714Z</time>
      </trkpt>
      <trkpt lat="45.63654" lon="6.5706">
        <ele>1681.46</ele>
        <time>2024-03-25T19:13:18.754Z</time>
      </trkpt>
      <trkpt lat="45.6364" lon="6.57041">
        <ele>1683.72</ele>
        <time>2024-03-25T19:13:22.800Z</time>
      </trkpt>
      <trkpt lat="45.63621" lon="6.57035">
        <ele>1685.85</ele>
        <time>2024-03-25T19:13:26.853Z</time>
      </trkpt>
      <trkpt lat="45.6362" lon="6.5703">
        <ele>1687.62</ele>
        <time>2024-03-25T19:13:30.907Z</time>
      </trkpt>
      <trkpt lat="45.63626" lon="6.57026">
        <ele>1689.34</ele>
        <time>2024-03-25T19:13:34.964Z</time>
      </trkpt>
      <trkpt lat="45.63636" lon="6.57009">
        <ele>1691.13</ele>
        <time>2024-03-25T19:13:39.026Z</time>
      </trkpt>
      <trkpt lat="45.63633" lon="6.56996">
        <ele>1693.37</ele>
        <time>2024-03-25T19:13:43.091Z</time>
      </trkpt>
      <trkpt lat="45.6362" lon="6.56972">
        <ele>1695.85</ele>
        <time>2024-03-25T19:13:47.163Z</time>
      </trkpt>
      <trkpt lat="45.63588" lon="6.56937">
        <ele>1698.58</ele>
        <time>2024-03-25T19:13:51.249Z</time>
      </trkpt>
      <trkpt lat="45.63582" lon="6.56919">
        <ele>1700.87</ele>
        <time>2024-03-25T19:13:55.339Z</time>
      </trkpt>
      <trkpt lat="45.63572" lon="6.56913">
        <ele>1703.46</ele>
        <time>2024-03-25T19:13:59.433Z</time>
      </trkpt>
      <trkpt lat="45.63557" lon="6.56915">
        <ele>1706.24</ele>
        <time>2024-03-25T19:14:03.532Z</time>
      </trkpt>
      <trkpt lat="45.6354" lon="6.56908">
        <ele>1708.99</ele>
        <time>2024-03-25T19:14:07.637Z</time>
      </trkpt>
      <trkpt lat="45.63528" lon="6.56892">
        <ele>1711.46</ele>
        <time>2024-03-25T19:14:11.747Z</time>
      </trkpt>
      <trkpt lat="45.63521" lon="6.56876">
        <ele>1713.6</ele>
        <time>2024-03-25T19:14:15.862Z</time>
      </trkpt>
      <trkpt lat="45.63509" lon="6.56855">
        <ele>1715.76</ele>
        <time>2024-03-25T19:14:19.983Z</time>
      </trkpt>
      <trkpt lat="45.63491" lon="6.56843">
        <ele>1717.92</ele>
        <time>2024-03-25T19:14:24.111Z</time>
      </trkpt>
      <trkpt lat="45.63479" lon="6.5683">
        <ele>1719.76</ele>
        <time>2024-03-25T19:14:28.244Z</time>
      </trkpt>
      <trkpt lat="45.63483" lon="6.56806">
        <ele>1721.17</ele>
        <time>2024-03-25T19:14:32.382Z</time>
      </trkpt>
      <trkpt lat="45.63468" lon="6.56779">
        <ele>1723.15</ele>
        <time>2024-03-25T19:14:36.529Z</time>
      </trkpt>
      <trkpt lat="45.63456" lon="6.5676">
        <ele>1724.89</ele>
        <time>2024-03-25T19:14:40.681Z</time>
      </trkpt>
      <trkpt lat="45.63444" lon="6.56753">
        <ele>1726.71</ele>
        <time>2024-03-25T19:14:44.838Z</time>
      </trkpt>
      <trkpt lat="45.63436" lon="6.56731">
        <ele>1728.16</ele>
        <time>2024-03-25T19:14:49.000Z</time>
      </trkpt>
      <trkpt lat="45.63415" lon="6.56692">
        <ele>1730.07</ele>
        <time>2024-03-25T19:14:53.174Z</time>
      </trkpt>
      <trkpt lat="45.63403" lon="6.56685">
        <ele>1731.58</ele>
        <time>2024-03-25T19:14:57.352Z</time>
      </trkpt>
      <trkpt lat="45.63398" lon="6.56665">
        <ele>1732.49</ele>
        <time>2024-03-25T19:15:01.535Z</time>
      </trkpt>
      <trkpt lat="45.63413" lon="6.56663">
        <ele>1732.76</ele>
        <time>2024-03-25T19:15:05.723Z</time>
      </trkpt>
      <trkpt lat="45.63413" lon="6.56663">
        <ele>1732.77</ele>
        <time>2024-03-25T19:15:09.911Z</time>
      </trkpt>
      <trkpt lat="45.63413" lon="6.56659">
        <ele>1734.02</ele>
        <time>2024-03-25T19:15:14.100Z</time>
      </trkpt>
      <trkpt lat="45.63402" lon="6.56635">
        <ele>1735.98</ele>
        <time>2024-03-25T19:15:18.296Z</time>
      </trkpt>
      <trkpt lat="45.63406" lon="6.56629">
        <ele>1737.72</ele>
        <time>2024-03-25T19:15:22.494Z</time>
      </trkpt>
      <trkpt lat="45.63405" lon="6.56622">
        <ele>1739.7</ele>
        <time>2024-03-25T19:15:26.694Z</time>
      </trkpt>
      <trkpt lat="45.6341" lon="6.56618">
        <ele>1741.68</ele>
        <time>2024-03-25T19:15:30.895Z</time>
      </trkpt>
      <trkpt lat="45.63407" lon="6.56613">
        <ele>1743.75</ele>
        <time>2024-03-25T19:15:35.098Z</time>
      </trkpt>
      <trkpt lat="45.63398" lon="6.56598">
        <ele>1746.61</ele>
        <time>2024-03-25T19:15:39.305Z</time>
      </trkpt>
      <trkpt lat="45.63384" lon="6.56595">
        <ele>1749.2</ele>
        <time>2024-03-25T19:15:43.517Z</time>
      </trkpt>
      <trkpt lat="45.63374" lon="6.56582">
        <ele>1752.17</ele>
        <time>2024-03-25T19:15:47.733Z</time>
      </trkpt>
      <trkpt lat="45.63345" lon="6.56564">
        <ele>1755.58</ele>
        <time>2024-03-25T19:15:51.960Z</time>
      </trkpt>
      <trkpt lat="45.63341" lon="6.5656">
        <ele>1758.44</ele>
        <time>2024-03-25T19:15:56.189Z</time>
      </trkpt>
      <trkpt lat="45.63339" lon="6.56552">
        <ele>1761.02</ele>
        <time>2024-03-25T19:16:00.420Z</time>
      </trkpt>
      <trkpt lat="45.63336" lon="6.5655">
        <ele>1763.31</ele>
        <time>2024-03-25T19:16:04.652Z</time>
      </trkpt>
      <trkpt lat="45.63325" lon="6.56554">
        <ele>1765.65</ele>
        <time>2024-03-25T19:16:08.888Z</time>
      </trkpt>
      <trkpt lat="45.63321" lon="6.56554">
        <ele>1767.69</ele>
        <time>2024-03-25T19:16:13.125Z</time>
      </trkpt>
      <trkpt lat="45.63317" lon="6.56551">
        <ele>1769.53</ele>
        <time>2024-03-25T19:16:17.363Z</time>
      </trkpt>
      <trkpt lat="45.63312" lon="6.56553">
        <ele>1771.3</ele>
        <time>2024-03-25T19:16:21.603Z</time>
      </trkpt>
      <trkpt lat="45.63305" lon="6.56575">
        <ele>1772.86</ele>
        <time>2024-03-25T19:16:25.849Z</time>
      </trkpt>
      <trkpt lat="45.63303" lon="6.56579">
        <ele>1774.29</ele>
        <time>2024-03-25T19:16:30.096Z</time>
      </trkpt>
      <trkpt lat="45.633" lon="6.5658">
        <ele>1775.7</ele>
        <time>2024-03-25T19:16:34.344Z</time>
      </trkpt>
      <trkpt lat="45.63296" lon="6.56578">
        <ele>1777.16</ele>
        <time>2024-03-25T19:16:38.594Z</time>
      </trkpt>
      <trkpt lat="45.63294" lon="6.56569">
        <ele>1778.69</ele>
        <time>2024-03-25T19:16:42.846Z</time>
      </trkpt>
      <trkpt lat="45.63296" lon="6.56565">
        <ele>1780.05</ele>
        <time>2024-03-25T19:16:47.099Z</time>
      </trkpt>
      <trkpt lat="45.63288" lon="6.56564">
        <ele>1781.71</ele>
        <time>2024-03-25T19:16:51.354Z</time>
      </trkpt>
      <trkpt lat="45.63284" lon="6.56559">
        <ele>1783.43</ele>
        <time>2024-03-25T19:16:55.611Z</time>
      </trkpt>
      <trkpt lat="45.63279" lon="6.56548">
        <ele>1785.11</ele>
        <time>2024-03-25T19:16:59.871Z</time>
      </trkpt>
      <trkpt lat="45.63274" lon="6.56548">
        <ele>1786.87</ele>
        <time>2024-03-25T19:17:04.133Z</time>
      </trkpt>
      <trkpt lat="45.63267" lon="6.56538">
        <ele>1788.69</ele>
        <time>2024-03-25T19:17:08.398Z</time>
      </trkpt>
      <trkpt lat="45.63264" lon="6.56536">
        <ele>1790.57</ele>
        <time>2024-03-25T19:17:12.664Z</time>
      </trkpt>
      <trkpt lat="45.63244" lon="6.56541">
        <ele>1792.7</ele>
        <time>2024-03-25T19:17:16.937Z</time>
      </trkpt>
      <trkpt lat="45.6324" lon="6.56536">
        <ele>1794.89</ele>
        <time>2024-03-25T19:17:21.212Z</time>
      </trkpt>
      <trkpt lat="45.63239" lon="6.56529">
        <ele>1797.16</ele>
        <time>2024-03-25T19:17:25.489Z</time>
      </trkpt>
      <trkpt lat="45.63229" lon="6.56512">
        <ele>1799.84</ele>
        <time>2024-03-25T19:17:29.771Z</time>
      </trkpt>
      <trkpt lat="45.63224" lon="6.56505">
        <ele>1802.52</ele>
        <time>2024-03-25T19:17:34.055Z</time>
      </trkpt>
      <trkpt lat="45.63214" lon="6.56496">
        <ele>1805.47</ele>
        <time>2024-03-25T19:17:38.343Z</time>
      </trkpt>
      <trkpt lat="45.63215" lon="6.5648">
        <ele>1808.25</ele>
        <time>2024-03-25T19:17:42.635Z</time>
      </trkpt>
      <trkpt lat="45.63212" lon="6.5647">
        <ele>1811.12</ele>
        <time>2024-03-25T19:17:46.929Z</time>
      </trkpt>
      <trkpt lat="45.63207" lon="6.56471">
        <ele>1814.02</ele>
        <time>2024-03-25T19:17:51.225Z</time>
      </trkpt>
      <trkpt lat="45.63199" lon="6.56469">
        <ele>1817.02</ele>
        <time>2024-03-25T19:17:55.524Z</time>
      </trkpt>
      <trkpt lat="45.63198" lon="6.56461">
        <ele>1819.84</ele>
        <time>2024-03-25T19:17:59.825Z</time>
      </trkpt>
      <trkpt lat="45.63183" lon="6.56455">
        <ele>1822.97</ele>
        <time>2024-03-25T19:18:04.131Z</time>
      </trkpt>
      <trkpt lat="45.63163" lon="6.56433">
        <ele>1826.3</ele>
        <time>2024-03-25T19:18:08.445Z</time>
      </trkpt>
      <trkpt lat="45.63156" lon="6.5641">
        <ele>1829.3</ele>
        <time>2024-03-25T19:18:12.765Z</time>
      </trkpt>
      <trkpt lat="45.6315" lon="6.56393">
        <ele>1832.25</ele>
        <time>2024-03-25T19:18:17.089Z</time>
      </trkpt>
      <trkpt lat="45.63143" lon="6.56366">
        <ele>1835.23</ele>
        <time>2024-03-25T19:18:21.420Z</time>
      </trkpt>
      <trkpt lat="45.6314" lon="6.56359">
        <ele>1837.96</ele>
        <time>2024-03-25T19:18:25.753Z</time>
      </trkpt>
      <trkpt lat="45.63137" lon="6.56338">
        <ele>1840.54</ele>
        <time>2024-03-25T19:18:30.091Z</time>
      </trkpt>
      <trkpt lat="45.63134" lon="6.56332">
        <ele>1843.05</ele>
        <time>2024-03-25T19:18:34.431Z</time>
      </trkpt>
      <trkpt lat="45.6313" lon="6.56313">
        <ele>1845.66</ele>
        <time>2024-03-25T19:18:38.776Z</time>
      </trkpt>
      <trkpt lat="45.63122" lon="6.56312">
        <ele>1848.09</ele>
        <time>2024-03-25T19:18:43.123Z</time>
      </trkpt>
      <trkpt lat="45.63117" lon="6.56305">
        <ele>1850.44</ele>
        <time>2024-03-25T19:18:47.473Z</time>
      </trkpt>
      <trkpt lat="45.63113" lon="6.56295">
        <ele>1852.67</ele>
        <time>2024-03-25T19:18:51.825Z</time>
      </trkpt>
      <trkpt lat="45.63109" lon="6.56293">
        <ele>1854.76</ele>
        <time>2024-03-25T19:18:56.179Z</time>
      </trkpt>
      <trkpt lat="45.63106" lon="6.56298">
        <ele>1856.66</ele>
        <time>2024-03-25T19:19:00.534Z</time>
      </trkpt>
      <trkpt lat="45.63103" lon="6.56295">
        <ele>1858.54</ele>
        <time>2024-03-25T19:19:04.891Z</time>
      </trkpt>
      <trkpt lat="45.63096" lon="6.56286">
        <ele>1860.47</ele>
        <time>2024-03-25T19:19:09.251Z</time>
      </trkpt>
      <trkpt lat="45.63093" lon="6.56274">
        <ele>1862.33</ele>
        <time>2024-03-25T19:19:13.614Z</time>
      </trkpt>
      <trkpt lat="45.63089" lon="6.56285">
        <ele>1863.94</ele>
        <time>2024-03-25T19:19:17.980Z</time>
      </trkpt>
      <trkpt lat="45.63084" lon="6.56281">
        <ele>1865.62</ele>
        <time>2024-03-25T19:19:22.347Z</time>
      </trkpt>
      <trkpt lat="45.63084" lon="6.56273">
        <ele>1867.24</ele>
        <time>2024-03-25T19:19:26.716Z</time>
      </trkpt>
      <trkpt lat="45.63082" lon="6.56269">
        <ele>1868.85</ele>
        <time>2024-03-25T19:19:31.086Z</time>
      </trkpt>
      <trkpt lat="45.63078" lon="6.56276">
        <ele>1870.36</ele>
        <time>2024-03-25T19:19:35.459Z</time>
      </trkpt>
      <trkpt lat="45.63065" lon="6.56268">
        <ele>1872.15</ele>
        <time>2024-03-25T19:19:39.836Z</time>
      </trkpt>
      <trkpt lat="45.63058" lon="6.56273">
        <ele>1873.82</ele>
        <time>2024-03-25T19:19:44.216Z</time>
      </trkpt>
      <trkpt lat="45.63054" lon="6.56263">
        <ele>1875.57</ele>
        <time>2024-03-25T19:19:48.599Z</time>
      </trkpt>
      <trkpt lat="45.63048" lon="6.56261">
        <ele>1877.36</ele>
        <time>2024-03-25T19:19:52.984Z</time>
      </trkpt>
      <trkpt lat="45.63045" lon="6.56255">
        <ele>1879.18</ele>
        <time>2024-03-25T19:19:57.371Z</time>
      </trkpt>
      <trkpt lat="45.63038" lon="6.56255">
        <ele>1881.09</ele>
        <time>2024-03-25T19:20:01.760Z</time>
      </trkpt>
      <trkpt lat="45.63033" lon="6.5625">
        <ele>1883.1</ele>
        <time>2024-03-25T19:20:06.151Z</time>
      </trkpt>
      <trkpt lat="45.63033" lon="6.56243">
        <ele>1885.12</ele>
        <time>2024-03-25T19:20:10.544Z</time>
      </trkpt>
      <trkpt lat="45.63029" lon="6.56243">
        <ele>1887.25</ele>
        <time>2024-03-25T19:20:14.938Z</time>
      </trkpt>
      <trkpt lat="45.63027" lon="6.56236">
        <ele>1889.52</ele>
        <time>2024-03-25T19:20:19.334Z</time>
      </trkpt>
      <trkpt lat="45.63021" lon="6.56234">
        <ele>1891.9</ele>
        <time>2024-03-25T19:20:23.732Z</time>
      </trkpt>
      <trkpt lat="45.63019" lon="6.56232">
        <ele>1894.3</ele>
        <time>2024-03-25T19:20:28.131Z</time>
      </trkpt>
      <trkpt lat="45.63015" lon="6.56224">
        <ele>1896.92</ele>
        <time>2024-03-25T19:20:32.532Z</time>
      </trkpt>
      <trkpt lat="45.6301" lon="6.5621">
        <ele>1899.8</ele>
        <time>2024-03-25T19:20:36.937Z</time>
      </trkpt>
      <trkpt lat="45.63012" lon="6.56201">
        <ele>1902.58</ele>
        <time>2024-03-25T19:20:41.344Z</time>
      </trkpt>
      <trkpt lat="45.63" lon="6.56186">
        <ele>1905.7</ele>
        <time>2024-03-25T19:20:45.756Z</time>
      </trkpt>
      <trkpt lat="45.62995" lon="6.56178">
        <ele>1908.62</ele>
        <time>2024-03-25T19:20:50.170Z</time>
      </trkpt>
      <trkpt lat="45.62997" lon="6.5617">
        <ele>1911.6</ele>
        <time>2024-03-25T19:20:54.586Z</time>
      </trkpt>
      <trkpt lat="45.6299" lon="6.56166">
        <ele>1914.59</ele>
        <time>2024-03-25T19:20:59.005Z</time>
      </trkpt>
      <trkpt lat="45.62976" lon="6.56144">
        <ele>1917.82</ele>
        <time>2024-03-25T19:21:03.430Z</time>
      </trkpt>
      <trkpt lat="45.62973" lon="6.56133">
        <ele>1920.99</ele>
        <time>2024-03-25T19:21:07.858Z</time>
      </trkpt>
      <trkpt lat="45.62969" lon="6.56125">
        <ele>1924.18</ele>
        <time>2024-03-25T19:21:12.289Z</time>
      </trkpt>
      <trkpt lat="45.62947" lon="6.56076">
        <ele>1927.93</ele>
        <time>2024-03-25T19:21:16.733Z</time>
      </trkpt>
      <trkpt lat="45.62927" lon="6.56055">
        <ele>1931.51</ele>
        <time>2024-03-25T19:21:21.186Z</time>
      </trkpt>
      <trkpt lat="45.6292" lon="6.56045">
        <ele>1934.99</ele>
        <time>2024-03-25T19:21:25.642Z</time>
      </trkpt>
      <trkpt lat="45.62919" lon="6.56037">
        <ele>1938.42</ele>
        <time>2024-03-25T19:21:30.100Z</time>
      </trkpt>
      <trkpt lat="45.62904" lon="6.5601">
        <ele>1942.21</ele>
        <time>2024-03-25T19:21:34.566Z</time>
      </trkpt>
      <trkpt lat="45.62892" lon="6.56006">
        <ele>1945.7</ele>
        <time>2024-03-25T19:21:39.036Z</time>
      </trkpt>
      <trkpt lat="45.62886" lon="6.56">
        <ele>1949.2</ele>
        <time>2024-03-25T19:21:43.508Z</time>
      </trkpt>
      <trkpt lat="45.62878" lon="6.55999">
        <ele>1952.69</ele>
        <time>2024-03-25T19:21:47.983Z</time>
      </trkpt>
      <trkpt lat="45.62873" lon="6.55988">
        <ele>1956.3</ele>
        <time>2024-03-25T19:21:52.461Z</time>
      </trkpt>
      <trkpt lat="45.62828" lon="6.55977">
        <ele>1960.38</ele>
        <time>2024-03-25T19:21:56.954Z</time>
      </trkpt>
      <trkpt lat="45.62823" lon="6.55972">
        <ele>1964.03</ele>
        <time>2024-03-25T19:22:01.449Z</time>
      </trkpt>
      <trkpt lat="45.62819" lon="6.55961">
        <ele>1967.75</ele>
        <time>2024-03-25T19:22:05.947Z</time>
      </trkpt>
      <trkpt lat="45.62796" lon="6.55951">
        <ele>1971.75</ele>
        <time>2024-03-25T19:22:10.453Z</time>
      </trkpt>
      <trkpt lat="45.62793" lon="6.55946">
        <ele>1975.58</ele>
        <time>2024-03-25T19:22:14.961Z</time>
      </trkpt>
      <trkpt lat="45.62788" lon="6.55948">
        <ele>1979.47</ele>
        <time>2024-03-25T19:22:19.470Z</time>
      </trkpt>
      <trkpt lat="45.62783" lon="6.55945">
        <ele>1983.54</ele>
        <time>2024-03-25T19:22:23.981Z</time>
      </trkpt>
      <trkpt lat="45.62779" lon="6.55936">
        <ele>1987.79</ele>
        <time>2024-03-25T19:22:28.495Z</time>
      </trkpt>
      <trkpt lat="45.62779" lon="6.55929">
        <ele>1992.11</ele>
        <time>2024-03-25T19:22:33.011Z</time>
      </trkpt>
      <trkpt lat="45.62775" lon="6.55901">
        <ele>1996.8</ele>
        <time>2024-03-25T19:22:37.533Z</time>
      </trkpt>
      <trkpt lat="45.62767" lon="6.55901">
        <ele>2001.63</ele>
        <time>2024-03-25T19:22:42.058Z</time>
      </trkpt>
      <trkpt lat="45.62751" lon="6.55887">
        <ele>2006.87</ele>
        <time>2024-03-25T19:22:46.589Z</time>
      </trkpt>
      <trkpt lat="45.62741" lon="6.55867">
        <ele>2012.07</ele>
        <time>2024-03-25T19:22:51.126Z</time>
      </trkpt>
      <trkpt lat="45.62728" lon="6.55826">
        <ele>2017.43</ele>
        <time>2024-03-25T19:22:55.674Z</time>
      </trkpt>
      <trkpt lat="45.62707" lon="6.55801">
        <ele>2023.17</ele>
        <time>2024-03-25T19:23:00.231Z</time>
      </trkpt>
      <trkpt lat="45.62692" lon="6.55786">
        <ele>2028.85</ele>
        <time>2024-03-25T19:23:04.794Z</time>
      </trkpt>
      <trkpt lat="45.62689" lon="6.55771">
        <ele>2034.5</ele>
        <time>2024-03-25T19:23:09.361Z</time>
      </trkpt>
      <trkpt lat="45.62683" lon="6.55758">
        <ele>2040.29</ele>
        <time>2024-03-25T19:23:13.931Z</time>
      </trkpt>
      <trkpt lat="45.62675" lon="6.55744">
        <ele>2046.21</ele>
        <time>2024-03-25T19:23:18.505Z</time>
      </trkpt>
      <trkpt lat="45.62667" lon="6.55738">
        <ele>2052.15</ele>
        <time>2024-03-25T19:23:23.082Z</time>
      </trkpt>
      <trkpt lat="45.62657" lon="6.55722">
        <ele>2058.34</ele>
        <time>2024-03-25T19:23:27.664Z</time>
      </trkpt>
      <trkpt lat="45.62634" lon="6.55664">
        <ele>2065.26</ele>
        <time>2024-03-25T19:23:32.262Z</time>
      </trkpt>
      <trkpt lat="45.62617" lon="6.55649">
        <ele>2071.49</ele>
        <time>2024-03-25T19:23:36.867Z</time>
      </trkpt>
      <trkpt lat="45.62595" lon="6.55635">
        <ele>2077.33</ele>
        <time>2024-03-25T19:23:41.480Z</time>
      </trkpt>
      <trkpt lat="45.62579" lon="6.55619">
        <ele>2083.19</ele>
        <time>2024-03-25T19:23:46.099Z</time>
      </trkpt>
      <trkpt lat="45.62548" lon="6.55581">
        <ele>2089.28</ele>
        <time>2024-03-25T19:23:50.732Z</time>
      </trkpt>
      <trkpt lat="45.62492" lon="6.55499">
        <ele>2095.93</ele>
        <time>2024-03-25T19:23:55.392Z</time>
      </trkpt>
      <trkpt lat="45.62434" lon="6.55442">
        <ele>2101.09</ele>
        <time>2024-03-25T19:24:00.075Z</time>
      </trkpt>
      <trkpt lat="45.62434" lon="6.55442">
        <ele>2105.48</ele>
        <time>2024-03-25T19:24:04.758Z</time>
      </trkpt>
      <trkpt lat="45.62429" lon="6.55421">
        <ele>2109.64</ele>
        <time>2024-03-25T19:24:09.446Z</time>
      </trkpt>
      <trkpt lat="45.62428" lon="6.55386">
        <ele>2113.51</ele>
        <time>2024-03-25T19:24:14.142Z</time>
      </trkpt>
      <trkpt lat="45.62417" lon="6.55338">
        <ele>2117.06</ele>
        <time>2024-03-25T19:24:18.850Z</time>
      </trkpt>
      <trkpt lat="45.6241" lon="6.55311">
        <ele>2120.13</ele>
        <time>2024-03-25T19:24:23.565Z</time>
      </trkpt>
      <trkpt lat="45.62405" lon="6.5528">
        <ele>2122.94</ele>
        <time>2024-03-25T19:24:28.287Z</time>
      </trkpt>
      <trkpt lat="45.62396" lon="6.5526">
        <ele>2125.25</ele>
        <time>2024-03-25T19:24:33.015Z</time>
      </trkpt>
      <trkpt lat="45.6239" lon="6.55235">
        <ele>2127.53</ele>
        <time>2024-03-25T19:24:37.749Z</time>
      </trkpt>
      <trkpt lat="45.6237" lon="6.55195">
        <ele>2129.93</ele>
        <time>2024-03-25T19:24:42.495Z</time>
      </trkpt>
      <trkpt lat="45.62353" lon="6.55167">
        <ele>2131.49</ele>
        <time>2024-03-25T19:24:47.249Z</time>
      </trkpt>
      <trkpt lat="45.62337" lon="6.55159">
        <ele>2132.63</ele>
        <time>2024-03-25T19:24:52.009Z</time>
      </trkpt>
      <trkpt lat="45.62332" lon="6.55135">
        <ele>2133.81</ele>
        <time>2024-03-25T19:24:56.775Z</time>
      </trkpt>
      <trkpt lat="45.62328" lon="6.55115">
        <ele>2134.81</ele>
        <time>2024-03-25T19:25:01.546Z</time>
      </trkpt>
      <trkpt lat="45.6232" lon="6.55103">
        <ele>2135.43</ele>
        <time>2024-03-25T19:25:06.321Z</time>
      </trkpt>
      <trkpt lat="45.6232" lon="6.55087">
        <ele>2136.13</ele>
        <time>2024-03-25T19:25:11.100Z</time>
      </trkpt>
      <trkpt lat="45.623" lon="6.55068">
        <ele>2136.37</ele>
        <time>2024-03-25T19:25:15.886Z</time>
      </trkpt>
      <trkpt lat="45.62297" lon="6.55044">
        <ele>2136.94</ele>
        <time>2024-03-25T19:25:20.678Z</time>
      </trkpt>
      <trkpt lat="45.62298" lon="6.55023">
        <ele>2137.66</ele>
        <time>2024-03-25T19:25:25.475Z</time>
      </trkpt>
      <trkpt lat="45.62287" lon="6.54988">
        <ele>2138.07</ele>
        <time>2024-03-25T19:25:30.281Z</time>
      </trkpt>
      <trkpt lat="45.6228" lon="6.5494">
        <ele>2139.3</ele>
        <time>2024-03-25T19:25:35.099Z</time>
      </trkpt>
      <trkpt lat="45.62272" lon="6.5492">
        <ele>2140.14</ele>
        <time>2024-03-25T19:25:39.922Z</time>
      </trkpt>
      <trkpt lat="45.62262" lon="6.54898">
        <ele>2140.82</ele>
        <time>2024-03-25T19:25:44.751Z</time>
      </trkpt>
      <trkpt lat="45.62261" lon="6.54875">
        <ele>2142.33</ele>
        <time>2024-03-25T19:25:49.585Z</time>
      </trkpt>
      <trkpt lat="45.62264" lon="6.54867">
        <ele>2143.74</ele>
        <time>2024-03-25T19:25:54.422Z</time>
      </trkpt>
      <trkpt lat="45.62251" lon="6.54843">
        <ele>2144.43</ele>
        <time>2024-03-25T19:25:59.266Z</time>
      </trkpt>
      <trkpt lat="45.62238" lon="6.5483">
        <ele>2145.48</ele>
        <time>2024-03-25T19:26:04.115Z</time>
      </trkpt>
      <trkpt lat="45.62223" lon="6.54795">
        <ele>2147.25</ele>
        <time>2024-03-25T19:26:08.974Z</time>
      </trkpt>
      <trkpt lat="45.62206" lon="6.54724">
        <ele>2150.24</ele>
        <time>2024-03-25T19:26:13.850Z</time>
      </trkpt>
      <trkpt lat="45.62205" lon="6.5469">
        <ele>2152.66</ele>
        <time>2024-03-25T19:26:18.734Z</time>
      </trkpt>
      <trkpt lat="45.62198" lon="6.54665">
        <ele>2154.18</ele>
        <time>2024-03-25T19:26:23.624Z</time>
      </trkpt>
      <trkpt lat="45.62197" lon="6.54645">
        <ele>2155.79</ele>
        <time>2024-03-25T19:26:28.519Z</time>
      </trkpt>
      <trkpt lat="45.62186" lon="6.54617">
        <ele>2157.07</ele>
        <time>2024-03-25T19:26:33.422Z</time>
      </trkpt>
      <trkpt lat="45.62198" lon="6.54604">
        <ele>2159.25</ele>
        <time>2024-03-25T19:26:38.329Z</time>
      </trkpt>
      <trkpt lat="45.62199" lon="6.54593">
        <ele>2160.52</ele>
        <time>2024-03-25T19:26:43.239Z</time>
      </trkpt>
      <trkpt lat="45.62194" lon="6.54573">
        <ele>2161.26</ele>
        <time>2024-03-25T19:26:48.154Z</time>
      </trkpt>
      <trkpt lat="45.62193" lon="6.54524">
        <ele>2161.93</ele>
        <time>2024-03-25T19:26:53.080Z</time>
      </trkpt>
      <trkpt lat="45.622" lon="6.5452">
        <ele>2162.38</ele>
        <time>2024-03-25T19:26:58.009Z</time>
      </trkpt>
      <trkpt lat="45.62203" lon="6.54515">
        <ele>2162.24</ele>
        <time>2024-03-25T19:27:02.940Z</time>
      </trkpt>
      <trkpt lat="45.62191" lon="6.54474">
        <ele>2161.19</ele>
        <time>2024-03-25T19:27:07.881Z</time>
      </trkpt>
      <trkpt lat="45.62185" lon="6.5446">
        <ele>2160.68</ele>
        <time>2024-03-25T19:27:12.826Z</time>
      </trkpt>
      <trkpt lat="45.62182" lon="6.5441">
        <ele>2159.95</ele>
        <time>2024-03-25T19:27:17.782Z</time>
      </trkpt>
      <trkpt lat="45.6218" lon="6.54381">
        <ele>2158.77</ele>
        <time>2024-03-25T19:27:22.745Z</time>
      </trkpt>
      <trkpt lat="45.62184" lon="6.54367">
        <ele>2157.91</ele>
        <time>2024-03-25T19:27:27.712Z</time>
      </trkpt>
      <trkpt lat="45.62183" lon="6.54332">
        <ele>2156.76</ele>
        <time>2024-03-25T19:27:32.687Z</time>
      </trkpt>
      <trkpt lat="45.62174" lon="6.54323">
        <ele>2155.59</ele>
        <time>2024-03-25T19:27:37.666Z</time>
      </trkpt>
      <trkpt lat="45.62166" lon="6.54296">
        <ele>2154.46</ele>
        <time>2024-03-25T19:27:42.652Z</time>
      </trkpt>
      <trkpt lat="45.62166" lon="6.54269">
        <ele>2153.4</ele>
        <time>2024-03-25T19:27:47.644Z</time>
      </trkpt>
      <trkpt lat="45.62166" lon="6.54259">
        <ele>2152.36</ele>
        <time>2024-03-25T19:27:52.638Z</time>
      </trkpt>
      <trkpt lat="45.6217" lon="6.54241">
        <ele>2151.31</ele>
        <time>2024-03-25T19:27:57.637Z</time>
      </trkpt>
      <trkpt lat="45.6217" lon="6.54212">
        <ele>2150.18</ele>
        <time>2024-03-25T19:28:02.642Z</time>
      </trkpt>
      <trkpt lat="45.62165" lon="6.542">
        <ele>2149.14</ele>
        <time>2024-03-25T19:28:07.651Z</time>
      </trkpt>
      <trkpt lat="45.62177" lon="6.54185">
        <ele>2148.31</ele>
        <time>2024-03-25T19:28:12.665Z</time>
      </trkpt>
      <trkpt lat="45.62177" lon="6.54175">
        <ele>2147.24</ele>
        <time>2024-03-25T19:28:17.681Z</time>
      </trkpt>
      <trkpt lat="45.62181" lon="6.54168">
        <ele>2146.3</ele>
        <time>2024-03-25T19:28:22.700Z</time>
      </trkpt>
      <trkpt lat="45.6218" lon="6.54155">
        <ele>2145.03</ele>
        <time>2024-03-25T19:28:27.722Z</time>
      </trkpt>
      <trkpt lat="45.62182" lon="6.5414">
        <ele>2143.82</ele>
        <time>2024-03-25T19:28:32.747Z</time>
      </trkpt>
      <trkpt lat="45.62179" lon="6.54131">
        <ele>2142.65</ele>
        <time>2024-03-25T19:28:37.775Z</time>
      </trkpt>
      <trkpt lat="45.62179" lon="6.54115">
        <ele>2141.65</ele>
        <time>2024-03-25T19:28:42.806Z</time>
      </trkpt>
      <trkpt lat="45.62179" lon="6.54115">
        <ele>2141.65</ele>
        <time>2024-03-25T19:28:47.837Z</time>
      </trkpt>
      <trkpt lat="45.62174" lon="6.54077">
        <ele>2136.62</ele>
        <time>2024-03-25T19:28:52.877Z</time>
      </trkpt>
      <trkpt lat="45.62168" lon="6.54068">
        <ele>2135.11</ele>
        <time>2024-03-25T19:28:57.920Z</time>
      </trkpt>
      <trkpt lat="45.62168" lon="6.54055">
        <ele>2133.53</ele>
        <time>2024-03-25T19:29:02.966Z</time>
      </trkpt>
      <trkpt lat="45.62162" lon="6.54048">
        <ele>2131.8</ele>
        <time>2024-03-25T19:29:08.015Z</time>
      </trkpt>
      <trkpt lat="45.62167" lon="6.54028">
        <ele>2129.78</ele>
        <time>2024-03-25T19:29:13.069Z</time>
      </trkpt>
      <trkpt lat="45.62165" lon="6.54017">
        <ele>2127.75</ele>
        <time>2024-03-25T19:29:18.126Z</time>
      </trkpt>
      <trkpt lat="45.62166" lon="6.54004">
        <ele>2125.61</ele>
        <time>2024-03-25T19:29:23.186Z</time>
      </trkpt>
      <trkpt lat="45.62156" lon="6.5399">
        <ele>2123.35</ele>
        <time>2024-03-25T19:29:28.250Z</time>
      </trkpt>
      <trkpt lat="45.62161" lon="6.53982">
        <ele>2121.31</ele>
        <time>2024-03-25T19:29:33.317Z</time>
      </trkpt>
      <trkpt lat="45.62164" lon="6.53972">
        <ele>2119.21</ele>
        <time>2024-03-25T19:29:38.386Z</time>
      </trkpt>
      <trkpt lat="45.62156" lon="6.53959">
        <ele>2116.95</ele>
        <time>2024-03-25T19:29:43.459Z</time>
      </trkpt>
      <trkpt lat="45.62156" lon="6.53943">
        <ele>2114.5</ele>
        <time>2024-03-25T19:29:48.536Z</time>
      </trkpt>
      <trkpt lat="45.62162" lon="6.53931">
        <ele>2112.61</ele>
        <time>2024-03-25T19:29:53.616Z</time>
      </trkpt>
      <trkpt lat="45.62162" lon="6.53931">
        <ele>2112.6</ele>
        <time>2024-03-25T19:29:58.696Z</time>
      </trkpt>
      <trkpt lat="45.62166" lon="6.53921">
        <ele>2101.19</ele>
        <time>2024-03-25T19:30:03.779Z</time>
      </trkpt>
      <trkpt lat="45.62196" lon="6.53918">
        <ele>2100.28</ele>
        <time>2024-03-25T19:30:08.872Z</time>
      </trkpt>
      <trkpt lat="45.62211" lon="6.53908">
        <ele>2099.43</ele>
        <time>2024-03-25T19:30:13.971Z</time>
      </trkpt>
      <trkpt lat="45.62224" lon="6.53886">
        <ele>2098.19</ele>
        <time>2024-03-25T19:30:19.076Z</time>
      </trkpt>
      <trkpt lat="45.62235" lon="6.53872">
        <ele>2097.33</ele>
        <time>2024-03-25T19:30:24.186Z</time>
      </trkpt>
      <trkpt lat="45.62242" lon="6.53877">
        <ele>2096.98</ele>
        <time>2024-03-25T19:30:29.299Z</time>
      </trkpt>
      <trkpt lat="45.62253" lon="6.53864">
        <ele>2096.4</ele>
        <time>2024-03-25T19:30:34.417Z</time>
      </trkpt>
      <trkpt lat="45.62261" lon="6.53827">
        <ele>2095.96</ele>
        <time>2024-03-25T19:30:39.544Z</time>
      </trkpt>
      <trkpt lat="45.62264" lon="6.53825">
        <ele>2095.97</ele>
        <time>2024-03-25T19:30:44.672Z</time>
      </trkpt>
      <trkpt lat="45.62259" lon="6.53773">
        <ele>2095.58</ele>
        <time>2024-03-25T19:30:49.812Z</time>
      </trkpt>
      <trkpt lat="45.62261" lon="6.53749">
        <ele>2095.79</ele>
        <time>2024-03-25T19:30:54.958Z</time>
      </trkpt>
      <trkpt lat="45.62264" lon="6.53743">
        <ele>2096.37</ele>
        <time>2024-03-25T19:31:00.105Z</time>
      </trkpt>
      <trkpt lat="45.62268" lon="6.53694">
        <ele>2097.68</ele>
        <time>2024-03-25T19:31:05.264Z</time>
      </trkpt>
      <trkpt lat="45.62265" lon="6.5368">
        <ele>2098.93</ele>
        <time>2024-03-25T19:31:10.426Z</time>
      </trkpt>
      <trkpt lat="45.62267" lon="6.53674">
        <ele>2100.5</ele>
        <time>2024-03-25T19:31:15.590Z</time>
      </trkpt>
      <trkpt lat="45.62277" lon="6.53666">
        <ele>2102.58</ele>
        <time>2024-03-25T19:31:20.758Z</time>
      </trkpt>
      <trkpt lat="45.62283" lon="6.53665">
        <ele>2104.85</ele>
        <time>2024-03-25T19:31:25.928Z</time>
      </trkpt>
      <trkpt lat="45.62285" lon="6.5367">
        <ele>2107.13</ele>
        <time>2024-03-25T19:31:31.099Z</time>
      </trkpt>
      <trkpt lat="45.62288" lon="6.53662">
        <ele>2109.62</ele>
        <time>2024-03-25T19:31:36.273Z</time>
      </trkpt>
      <trkpt lat="45.62294" lon="6.53659">
        <ele>2112.31</ele>
        <time>2024-03-25T19:31:41.448Z</time>
      </trkpt>
      <trkpt lat="45.62301" lon="6.53659">
        <ele>2115.19</ele>
        <time>2024-03-25T19:31:46.626Z</time>
      </trkpt>
      <trkpt lat="45.62309" lon="6.53669">
        <ele>2118.13</ele>
        <time>2024-03-25T19:31:51.808Z</time>
      </trkpt>
      <trkpt lat="45.62308" lon="6.53678">
        <ele>2120.83</ele>
        <time>2024-03-25T19:31:56.992Z</time>
      </trkpt>
      <trkpt lat="45.6231" lon="6.53687">
        <ele>2123.61</ele>
        <time>2024-03-25T19:32:02.178Z</time>
      </trkpt>
      <trkpt lat="45.62325" lon="6.53683">
        <ele>2126.81</ele>
        <time>2024-03-25T19:32:07.369Z</time>
      </trkpt>
      <trkpt lat="45.62335" lon="6.53703">
        <ele>2129.96</ele>
        <time>2024-03-25T19:32:12.565Z</time>
      </trkpt>
      <trkpt lat="45.62341" lon="6.53709">
        <ele>2133.17</ele>
        <time>2024-03-25T19:32:17.764Z</time>
      </trkpt>
      <trkpt lat="45.62343" lon="6.53719">
        <ele>2136.27</ele>
        <time>2024-03-25T19:32:22.965Z</time>
      </trkpt>
      <trkpt lat="45.6236" lon="6.53725">
        <ele>2140.02</ele>
        <time>2024-03-25T19:32:28.172Z</time>
      </trkpt>
      <trkpt lat="45.62364" lon="6.53715">
        <ele>2143.35</ele>
        <time>2024-03-25T19:32:33.382Z</time>
      </trkpt>
      <trkpt lat="45.62367" lon="6.53713">
        <ele>2146.62</ele>
        <time>2024-03-25T19:32:38.593Z</time>
      </trkpt>
      <trkpt lat="45.62376" lon="6.53709">
        <ele>2150.16</ele>
        <time>2024-03-25T19:32:43.807Z</time>
      </trkpt>
      <trkpt lat="45.62383" lon="6.53712">
        <ele>2153.53</ele>
        <time>2024-03-25T19:32:49.024Z</time>
      </trkpt>
      <trkpt lat="45.62387" lon="6.53721">
        <ele>2156.73</ele>
        <time>2024-03-25T19:32:54.243Z</time>
      </trkpt>
      <trkpt lat="45.62387" lon="6.53727">
        <ele>2159.62</ele>
        <time>2024-03-25T19:32:59.464Z</time>
      </trkpt>
      <trkpt lat="45.62398" lon="6.5374">
        <ele>2162.86</ele>
        <time>2024-03-25T19:33:04.689Z</time>
      </trkpt>
      <trkpt lat="45.62398" lon="6.53744">
        <ele>2165.63</ele>
        <time>2024-03-25T19:33:09.915Z</time>
      </trkpt>
      <trkpt lat="45.624" lon="6.53747">
        <ele>2168.41</ele>
        <time>2024-03-25T19:33:15.142Z</time>
      </trkpt>
      <trkpt lat="45.62403" lon="6.53744">
        <ele>2171.22</ele>
        <time>2024-03-25T19:33:20.370Z</time>
      </trkpt>
      <trkpt lat="45.6242" lon="6.53763">
        <ele>2174.8</ele>
        <time>2024-03-25T19:33:25.605Z</time>
      </trkpt>
      <trkpt lat="45.62421" lon="6.53765">
        <ele>2177.65</ele>
        <time>2024-03-25T19:33:30.841Z</time>
      </trkpt>
      <trkpt lat="45.62419" lon="6.53767">
        <ele>2180.29</ele>
        <time>2024-03-25T19:33:36.078Z</time>
      </trkpt>
      <trkpt lat="45.6242" lon="6.5377">
        <ele>2182.99</ele>
        <time>2024-03-25T19:33:41.316Z</time>
      </trkpt>
      <trkpt lat="45.62421" lon="6.53772">
        <ele>2185.65</ele>
        <time>2024-03-25T19:33:46.554Z</time>
      </trkpt>
      <trkpt lat="45.62428" lon="6.53773">
        <ele>2188.49</ele>
        <time>2024-03-25T19:33:51.795Z</time>
      </trkpt>
      <trkpt lat="45.6243" lon="6.53778">
        <ele>2191.24</ele>
        <time>2024-03-25T19:33:57.037Z</time>
      </trkpt>
      <trkpt lat="45.6243" lon="6.53783">
        <ele>2193.93</ele>
        <time>2024-03-25T19:34:02.280Z</time>
      </trkpt>
      <trkpt lat="45.62426" lon="6.53787">
        <ele>2196.48</ele>
        <time>2024-03-25T19:34:07.525Z</time>
      </trkpt>
      <trkpt lat="45.62428" lon="6.53797">
        <ele>2199.35</ele>
        <time>2024-03-25T19:34:12.772Z</time>
      </trkpt>
      <trkpt lat="45.62431" lon="6.53805">
        <ele>2202.32</ele>
        <time>2024-03-25T19:34:18.021Z</time>
      </trkpt>
      <trkpt lat="45.62431" lon="6.53811">
        <ele>2205.23</ele>
        <time>2024-03-25T19:34:23.272Z</time>
      </trkpt>
      <trkpt lat="45.62433" lon="6.53817">
        <ele>2208.25</ele>
        <time>2024-03-25T19:34:28.524Z</time>
      </trkpt>
      <trkpt lat="45.62443" lon="6.53827">
        <ele>2211.61</ele>
        <time>2024-03-25T19:34:33.780Z</time>
      </trkpt>
      <trkpt lat="45.62445" lon="6.53834">
        <ele>2214.85</ele>
        <time>2024-03-25T19:34:39.038Z</time>
      </trkpt>
      <trkpt lat="45.62447" lon="6.53844">
        <ele>2218.25</ele>
        <time>2024-03-25T19:34:44.299Z</time>
      </trkpt>
      <trkpt lat="45.62456" lon="6.53859">
        <ele>2221.97</ele>
        <time>2024-03-25T19:34:49.564Z</time>
      </trkpt>
      <trkpt lat="45.62467" lon="6.53866">
        <ele>2225.84</ele>
        <time>2024-03-25T19:34:54.833Z</time>
      </trkpt>
      <trkpt lat="45.62479" lon="6.5388">
        <ele>2230.01</ele>
        <time>2024-03-25T19:35:00.107Z</time>
      </trkpt>
      <trkpt lat="45.62491" lon="6.53899">
        <ele>2234.28</ele>
        <time>2024-03-25T19:35:05.387Z</time>
      </trkpt>
      <trkpt lat="45.62491" lon="6.53906">
        <ele>2238.18</ele>
        <time>2024-03-25T19:35:10.669Z</time>
      </trkpt>
      <trkpt lat="45.62495" lon="6.53914">
        <ele>2242.11</ele>
        <time>2024-03-25T19:35:15.953Z</time>
      </trkpt>
      <trkpt lat="45.62497" lon="6.5392">
        <ele>2245.92</ele>
        <time>2024-03-25T19:35:21.239Z</time>
      </trkpt>
      <trkpt lat="45.62502" lon="6.53926">
        <ele>2249.79</ele>
        <time>2024-03-25T19:35:26.527Z</time>
      </trkpt>
      <trkpt lat="45.62504" lon="6.53934">
        <ele>2253.58</ele>
        <time>2024-03-25T19:35:31.817Z</time>
      </trkpt>
      <trkpt lat="45.6251" lon="6.53941">
        <ele>2257.46</ele>
        <time>2024-03-25T19:35:37.110Z</time>
      </trkpt>
      <trkpt lat="45.62516" lon="6.53949">
        <ele>2261.26</ele>
        <time>2024-03-25T19:35:42.406Z</time>
      </trkpt>
      <trkpt lat="45.62522" lon="6.53952">
        <ele>2264.96</ele>
        <time>2024-03-25T19:35:47.704Z</time>
      </trkpt>
      <trkpt lat="45.62529" lon="6.53969">
        <ele>2268.71</ele>
        <time>2024-03-25T19:35:53.006Z</time>
      </trkpt>
      <trkpt lat="45.62535" lon="6.5397">
        <ele>2272.21</ele>
        <time>2024-03-25T19:35:58.310Z</time>
      </trkpt>
      <trkpt lat="45.62536" lon="6.53975">
        <ele>2275.49</ele>
        <time>2024-03-25T19:36:03.616Z</time>
      </trkpt>
      <trkpt lat="45.62538" lon="6.53975">
        <ele>2278.65</ele>
        <time>2024-03-25T19:36:08.923Z</time>
      </trkpt>
      <trkpt lat="45.62541" lon="6.53971">
        <ele>2281.68</ele>
        <time>2024-03-25T19:36:14.231Z</time>
      </trkpt>
      <trkpt lat="45.62546" lon="6.53974">
        <ele>2284.75</ele>
        <time>2024-03-25T19:36:19.541Z</time>
      </trkpt>
      <trkpt lat="45.62546" lon="6.53983">
        <ele>2287.69</ele>
        <time>2024-03-25T19:36:24.853Z</time>
      </trkpt>
      <trkpt lat="45.62549" lon="6.53985">
        <ele>2290.59</ele>
        <time>2024-03-25T19:36:30.166Z</time>
      </trkpt>
      <trkpt lat="45.62551" lon="6.53989">
        <ele>2293.44</ele>
        <time>2024-03-25T19:36:35.480Z</time>
      </trkpt>
      <trkpt lat="45.6255" lon="6.53993">
        <ele>2296.18</ele>
        <time>2024-03-25T19:36:40.795Z</time>
      </trkpt>
      <trkpt lat="45.62552" lon="6.54003">
        <ele>2298.98</ele>
        <time>2024-03-25T19:36:46.113Z</time>
      </trkpt>
      <trkpt lat="45.62557" lon="6.54005">
        <ele>2301.83</ele>
        <time>2024-03-25T19:36:51.432Z</time>
      </trkpt>
      <trkpt lat="45.62557" lon="6.54016">
        <ele>2304.65</ele>
        <time>2024-03-25T19:36:56.754Z</time>
      </trkpt>
      <trkpt lat="45.62564" lon="6.54015">
        <ele>2307.59</ele>
        <time>2024-03-25T19:37:02.078Z</time>
      </trkpt>
      <trkpt lat="45.62569" lon="6.54021">
        <ele>2310.58</ele>
        <time>2024-03-25T19:37:07.404Z</time>
      </trkpt>
      <trkpt lat="45.62574" lon="6.54047">
        <ele>2313.79</ele>
        <time>2024-03-25T19:37:12.737Z</time>
      </trkpt>
      <trkpt lat="45.62586" lon="6.54063">
        <ele>2317.13</ele>
        <time>2024-03-25T19:37:18.075Z</time>
      </trkpt>
      <trkpt lat="45.62589" lon="6.54061">
        <ele>2320.04</ele>
        <time>2024-03-25T19:37:23.414Z</time>
      </trkpt>
      <trkpt lat="45.62598" lon="6.54076">
        <ele>2323.34</ele>
        <time>2024-03-25T19:37:28.758Z</time>
      </trkpt>
      <trkpt lat="45.62608" lon="6.54088">
        <ele>2326.57</ele>
        <time>2024-03-25T19:37:34.106Z</time>
      </trkpt>
      <trkpt lat="45.6261" lon="6.54092">
        <ele>2329.5</ele>
        <time>2024-03-25T19:37:39.455Z</time>
      </trkpt>
      <trkpt lat="45.62612" lon="6.54094">
        <ele>2332.41</ele>
        <time>2024-03-25T19:37:44.805Z</time>
      </trkpt>
      <trkpt lat="45.62617" lon="6.5409">
        <ele>2335.37</ele>
        <time>2024-03-25T19:37:50.157Z</time>
      </trkpt>
      <trkpt lat="45.6262" lon="6.5409">
        <ele>2338.3</ele>
        <time>2024-03-25T19:37:55.510Z</time>
      </trkpt>
      <trkpt lat="45.62622" lon="6.54094">
        <ele>2341.18</ele>
        <time>2024-03-25T19:38:00.864Z</time>
      </trkpt>
      <trkpt lat="45.62626" lon="6.54092">
        <ele>2344.09</ele>
        <time>2024-03-25T19:38:06.220Z</time>
      </trkpt>
      <trkpt lat="45.6263" lon="6.54097">
        <ele>2347.01</ele>
        <time>2024-03-25T19:38:11.578Z</time>
      </trkpt>
      <trkpt lat="45.6263" lon="6.54104">
        <ele>2349.84</ele>
        <time>2024-03-25T19:38:16.937Z</time>
      </trkpt>
      <trkpt lat="45.62631" lon="6.54105">
        <ele>2352.69</ele>
        <time>2024-03-25T19:38:22.297Z</time>
      </trkpt>
      <trkpt lat="45.62636" lon="6.54105">
        <ele>2355.69</ele>
        <time>2024-03-25T19:38:27.658Z</time>
      </trkpt>
      <trkpt lat="45.62637" lon="6.5411">
        <ele>2358.59</ele>
        <time>2024-03-25T19:38:33.021Z</time>
      </trkpt>
      <trkpt lat="45.62648" lon="6.54122">
        <ele>2361.94</ele>
        <time>2024-03-25T19:38:38.388Z</time>
      </trkpt>
      <trkpt lat="45.62649" lon="6.54125">
        <ele>2364.95</ele>
        <time>2024-03-25T19:38:43.756Z</time>
      </trkpt>
      <trkpt lat="45.62654" lon="6.54135">
        <ele>2368.19</ele>
        <time>2024-03-25T19:38:49.127Z</time>
      </trkpt>
      <trkpt lat="45.62657" lon="6.54139">
        <ele>2371.32</ele>
        <time>2024-03-25T19:38:54.499Z</time>
      </trkpt>
      <trkpt lat="45.62663" lon="6.5414">
        <ele>2374.47</ele>
        <time>2024-03-25T19:38:59.873Z</time>
      </trkpt>
      <trkpt lat="45.62666" lon="6.54153">
        <ele>2377.88</ele>
        <time>2024-03-25T19:39:05.250Z</time>
      </trkpt>
      <trkpt lat="45.62674" lon="6.54169">
        <ele>2381.43</ele>
        <time>2024-03-25T19:39:10.632Z</time>
      </trkpt>
      <trkpt lat="45.62676" lon="6.5417">
        <ele>2384.48</ele>
        <time>2024-03-25T19:39:16.015Z</time>
      </trkpt>
      <trkpt lat="45.62678" lon="6.54176">
        <ele>2387.58</ele>
        <time>2024-03-25T19:39:21.399Z</time>
      </trkpt>
      <trkpt lat="45.62685" lon="6.54182">
        <ele>2390.71</ele>
        <time>2024-03-25T19:39:26.786Z</time>
      </trkpt>
      <trkpt lat="45.62685" lon="6.54198">
        <ele>2394.07</ele>
        <time>2024-03-25T19:39:32.177Z</time>
      </trkpt>
      <trkpt lat="45.62683" lon="6.54203">
        <ele>2397.12</ele>
        <time>2024-03-25T19:39:37.569Z</time>
      </trkpt>
      <trkpt lat="45.62686" lon="6.54204">
        <ele>2400.08</ele>
        <time>2024-03-25T19:39:42.962Z</time>
      </trkpt>
      <trkpt lat="45.62684" lon="6.54209">
        <ele>2403.12</ele>
        <time>2024-03-25T19:39:48.357Z</time>
      </trkpt>
      <trkpt lat="45.62689" lon="6.54225">
        <ele>2406.28</ele>
        <time>2024-03-25T19:39:53.756Z</time>
      </trkpt>
      <trkpt lat="45.62688" lon="6.54238">
        <ele>2409.34</ele>
        <time>2024-03-25T19:39:59.158Z</time>
      </trkpt>
      <trkpt lat="45.62685" lon="6.54244">
        <ele>2412.37</ele>
        <time>2024-03-25T19:40:04.561Z</time>
      </trkpt>
      <trkpt lat="45.62682" lon="6.54248">
        <ele>2415.38</ele>
        <time>2024-03-25T19:40:09.966Z</time>
      </trkpt>
      <trkpt lat="45.62686" lon="6.54258">
        <ele>2418.44</ele>
        <time>2024-03-25T19:40:15.373Z</time>
      </trkpt>
      <trkpt lat="45.62684" lon="6.54264">
        <ele>2421.49</ele>
        <time>2024-03-25T19:40:20.782Z</time>
      </trkpt>
      <trkpt lat="45.62685" lon="6.54268">
        <ele>2424.53</ele>
        <time>2024-03-25T19:40:26.192Z</time>
      </trkpt>
      <trkpt lat="45.62691" lon="6.54271">
        <ele>2427.54</ele>
        <time>2024-03-25T19:40:31.604Z</time>
      </trkpt>
      <trkpt lat="45.62692" lon="6.54276">
        <ele>2430.65</ele>
        <time>2024-03-25T19:40:37.017Z</time>
      </trkpt>
      <trkpt lat="45.62691" lon="6.54279">
        <ele>2433.81</ele>
        <time>2024-03-25T19:40:42.431Z</time>
      </trkpt>
      <trkpt lat="45.62698" lon="6.54308">
        <ele>2437.48</ele>
        <time>2024-03-25T19:40:47.852Z</time>
      </trkpt>
      <trkpt lat="45.62706" lon="6.54325">
        <ele>2441.24</ele>
        <time>2024-03-25T19:40:53.278Z</time>
      </trkpt>
      <trkpt lat="45.62709" lon="6.54328">
        <ele>2444.58</ele>
        <time>2024-03-25T19:40:58.705Z</time>
      </trkpt>
      <trkpt lat="45.6271" lon="6.54332">
        <ele>2447.96</ele>
        <time>2024-03-25T19:41:04.133Z</time>
      </trkpt>
      <trkpt lat="45.62724" lon="6.54346">
        <ele>2451.82</ele>
        <time>2024-03-25T19:41:09.567Z</time>
      </trkpt>
      <trkpt lat="45.62728" lon="6.5435">
        <ele>2455.26</ele>
        <time>2024-03-25T19:41:15.002Z</time>
      </trkpt>
      <trkpt lat="45.62728" lon="6.54347">
        <ele>2458.44</ele>
        <time>2024-03-25T19:41:20.438Z</time>
      </trkpt>
      <trkpt lat="45.62732" lon="6.5435">
        <ele>2461.81</ele>
        <time>2024-03-25T19:41:25.875Z</time>
      </trkpt>
      <trkpt lat="45.62734" lon="6.54353">
        <ele>2465.2</ele>
        <time>2024-03-25T19:41:31.313Z</time>
      </trkpt>
      <trkpt lat="45.62732" lon="6.54366">
        <ele>2468.85</ele>
        <time>2024-03-25T19:41:36.754Z</time>
      </trkpt>
      <trkpt lat="45.62727" lon="6.54369">
        <ele>2472.16</ele>
        <time>2024-03-25T19:41:42.197Z</time>
      </trkpt>
      <trkpt lat="45.62728" lon="6.54371">
        <ele>2475.43</ele>
        <time>2024-03-25T19:41:47.640Z</time>
      </trkpt>
      <trkpt lat="45.62733" lon="6.54375">
        <ele>2478.75</ele>
        <time>2024-03-25T19:41:53.085Z</time>
      </trkpt>
      <trkpt lat="45.62735" lon="6.54374">
        <ele>2481.85</ele>
        <time>2024-03-25T19:41:58.531Z</time>
      </trkpt>
      <trkpt lat="45.6274" lon="6.54377">
        <ele>2485.08</ele>
        <time>2024-03-25T19:42:03.979Z</time>
      </trkpt>
      <trkpt lat="45.6275" lon="6.54388">
        <ele>2488.55</ele>
        <time>2024-03-25T19:42:09.431Z</time>
      </trkpt>
      <trkpt lat="45.62757" lon="6.54392">
        <ele>2491.76</ele>
        <time>2024-03-25T19:42:14.886Z</time>
      </trkpt>
      <trkpt lat="45.62759" lon="6.54399">
        <ele>2494.97</ele>
        <time>2024-03-25T19:42:20.342Z</time>
      </trkpt>
      <trkpt lat="45.62759" lon="6.54402">
        <ele>2498.07</ele>
        <time>2024-03-25T19:42:25.799Z</time>
      </trkpt>
      <trkpt lat="45.6277" lon="6.54411">
        <ele>2501.29</ele>
        <time>2024-03-25T19:42:31.260Z</time>
      </trkpt>
      <trkpt lat="45.6278" lon="6.54425">
        <ele>2504.61</ele>
        <time>2024-03-25T19:42:36.726Z</time>
      </trkpt>
      <trkpt lat="45.62788" lon="6.5443">
        <ele>2507.7</ele>
        <time>2024-03-25T19:42:42.195Z</time>
      </trkpt>
      <trkpt lat="45.62786" lon="6.54438">
        <ele>2510.75</ele>
        <time>2024-03-25T19:42:47.666Z</time>
      </trkpt>
      <trkpt lat="45.62795" lon="6.54443">
        <ele>2513.76</ele>
        <time>2024-03-25T19:42:53.140Z</time>
      </trkpt>
      <trkpt lat="45.62794" lon="6.5445">
        <ele>2516.68</ele>
        <time>2024-03-25T19:42:58.616Z</time>
      </trkpt>
      <trkpt lat="45.62808" lon="6.54462">
        <ele>2519.7</ele>
        <time>2024-03-25T19:43:04.097Z</time>
      </trkpt>
      <trkpt lat="45.62813" lon="6.54472">
        <ele>2522.56</ele>
        <time>2024-03-25T19:43:09.581Z</time>
      </trkpt>
      <trkpt lat="45.62824" lon="6.54464">
        <ele>2525.06</ele>
        <time>2024-03-25T19:43:15.069Z</time>
      </trkpt>
      <trkpt lat="45.62833" lon="6.54464">
        <ele>2527.67</ele>
        <time>2024-03-25T19:43:20.560Z</time>
      </trkpt>
      <trkpt lat="45.62846" lon="6.54468">
        <ele>2530.31</ele>
        <time>2024-03-25T19:43:26.056Z</time>
      </trkpt>
      <trkpt lat="45.62862" lon="6.54477">
        <ele>2532.94</ele>
        <time>2024-03-25T19:43:31.557Z</time>
      </trkpt>
      <trkpt lat="45.62868" lon="6.54476">
        <ele>2535.42</ele>
        <time>2024-03-25T19:43:37.060Z</time>
      </trkpt>
      <trkpt lat="45.62881" lon="6.5448">
        <ele>2537.87</ele>
        <time>2024-03-25T19:43:42.568Z</time>
      </trkpt>
      <trkpt lat="45.62886" lon="6.54477">
        <ele>2540.35</ele>
        <time>2024-03-25T19:43:48.078Z</time>
      </trkpt>
      <trkpt lat="45.62889" lon="6.54472">
        <ele>2542.79</ele>
        <time>2024-03-25T19:43:53.589Z</time>
      </trkpt>
      <trkpt lat="45.62891" lon="6.54465">
        <ele>2545.21</ele>
        <time>2024-03-25T19:43:59.102Z</time>
      </trkpt>
      <trkpt lat="45.62905" lon="6.54461">
        <ele>2547.62</ele>
        <time>2024-03-25T19:44:04.620Z</time>
      </trkpt>
      <trkpt lat="45.62912" lon="6.54453">
        <ele>2550.11</ele>
        <time>2024-03-25T19:44:10.141Z</time>
      </trkpt>
      <trkpt lat="45.62911" lon="6.54447">
        <ele>2552.46</ele>
        <time>2024-03-25T19:44:15.663Z</time>
      </trkpt>
      <trkpt lat="45.62906" lon="6.5444">
        <ele>2554.67</ele>
        <time>2024-03-25T19:44:21.187Z</time>
      </trkpt>
      <trkpt lat="45.62915" lon="6.54433">
        <ele>2556.99</ele>
        <time>2024-03-25T19:44:26.714Z</time>
      </trkpt>
      <trkpt lat="45.62926" lon="6.54415">
        <ele>2559.37</ele>
        <time>2024-03-25T19:44:32.247Z</time>
      </trkpt>
      <trkpt lat="45.62951" lon="6.54385">
        <ele>2561.96</ele>
        <time>2024-03-25T19:44:37.791Z</time>
      </trkpt>
      <trkpt lat="45.6295" lon="6.54382">
        <ele>2563.88</ele>
        <time>2024-03-25T19:44:43.336Z</time>
      </trkpt>
      <trkpt lat="45.62953" lon="6.54379">
        <ele>2565.7</ele>
        <time>2024-03-25T19:44:48.882Z</time>
      </trkpt>
      <trkpt lat="45.62957" lon="6.54364">
        <ele>2567.45</ele>
        <time>2024-03-25T19:44:54.432Z</time>
      </trkpt>
      <trkpt lat="45.62964" lon="6.54364">
        <ele>2569.1</ele>
        <time>2024-03-25T19:44:59.984Z</time>
      </trkpt>
      <trkpt lat="45.62969" lon="6.5436">
        <ele>2570.52</ele>
        <time>2024-03-25T19:45:05.538Z</time>
      </trkpt>
      <trkpt lat="45.62968" lon="6.54355">
        <ele>2571.63</ele>
        <time>2024-03-25T19:45:11.093Z</time>
      </trkpt>
      <trkpt lat="45.6297" lon="6.54355">
        <ele>2572.64</ele>
        <time>2024-03-25T19:45:16.649Z</time>
      </trkpt>
      <trkpt lat="45.62969" lon="6.54351">
        <ele>2573.35</ele>
        <time>2024-03-25T19:45:22.206Z</time>
      </trkpt>
      <trkpt lat="45.62973" lon="6.54342">
        <ele>2573.93</ele>
        <time>2024-03-25T19:45:27.765Z</time>
      </trkpt>
      <trkpt lat="45.6298" lon="6.54338">
        <ele>2574.28</ele>
        <time>2024-03-25T19:45:33.327Z</time>
      </trkpt>
      <trkpt lat="45.62987" lon="6.54337">
        <ele>2574.39</ele>
        <time>2024-03-25T19:45:38.891Z</time>
      </trkpt>
      <trkpt lat="45.63002" lon="6.54315">
        <ele>2574.33</ele>
        <time>2024-03-25T19:45:44.462Z</time>
      </trkpt>
      <trkpt lat="45.6302" lon="6.54298">
        <ele>2574.03</ele>
        <time>2024-03-25T19:45:50.041Z</time>
      </trkpt>
      <trkpt lat="45.63032" lon="6.54291">
        <ele>2573.4</ele>
        <time>2024-03-25T19:45:55.624Z</time>
      </trkpt>
      <trkpt lat="45.6304" lon="6.54283">
        <ele>2572.35</ele>
        <time>2024-03-25T19:46:01.210Z</time>
      </trkpt>
      <trkpt lat="45.6304" lon="6.54301">
        <ele>2570.85</ele>
        <time>2024-03-25T19:46:06.801Z</time>
      </trkpt>
      <trkpt lat="45.6305" lon="6.54321">
        <ele>2569.02</ele>
        <time>2024-03-25T19:46:12.397Z</time>
      </trkpt>
      <trkpt lat="45.63067" lon="6.54338">
        <ele>2566.77</ele>
        <time>2024-03-25T19:46:18.000Z</time>
      </trkpt>
      <trkpt lat="45.63065" lon="6.54348">
        <ele>2564.2</ele>
        <time>2024-03-25T19:46:23.606Z</time>
      </trkpt>
      <trkpt lat="45.63065" lon="6.54368">
        <ele>2561.19</ele>
        <time>2024-03-25T19:46:29.216Z</time>
      </trkpt>
      <trkpt lat="45.63081" lon="6.5438">
        <ele>2557.97</ele>
        <time>2024-03-25T19:46:34.832Z</time>
      </trkpt>
      <trkpt lat="45.63069" lon="6.54449">
        <ele>2553.74</ele>
        <time>2024-03-25T19:46:40.465Z</time>
      </trkpt>
      <trkpt lat="45.63076" lon="6.54465">
        <ele>2550.17</ele>
        <time>2024-03-25T19:46:46.102Z</time>
      </trkpt>
      <trkpt lat="45.63076" lon="6.54488">
        <ele>2546.14</ele>
        <time>2024-03-25T19:46:51.745Z</time>
      </trkpt>
      <trkpt lat="45.63062" lon="6.545">
        <ele>2542.08</ele>
        <time>2024-03-25T19:46:57.393Z</time>
      </trkpt>
      <trkpt lat="45.63057" lon="6.5451">
        <ele>2538.01</ele>
        <time>2024-03-25T19:47:03.044Z</time>
      </trkpt>
      <trkpt lat="45.63063" lon="6.54514">
        <ele>2533.94</ele>
        <time>2024-03-25T19:47:08.697Z</time>
      </trkpt>
      <trkpt lat="45.63071" lon="6.54516">
        <ele>2529.9</ele>
        <time>2024-03-25T19:47:14.353Z</time>
      </trkpt>
      <trkpt lat="45.63075" lon="6.54521">
        <ele>2525.7</ele>
        <time>2024-03-25T19:47:20.011Z</time>
      </trkpt>
      <trkpt lat="45.63064" lon="6.54529">
        <ele>2521.34</ele>
        <time>2024-03-25T19:47:25.673Z</time>
      </trkpt>
      <trkpt lat="45.63062" lon="6.5453">
        <ele>2517.15</ele>
        <time>2024-03-25T19:47:31.336Z</time>
      </trkpt>
      <trkpt lat="45.63064" lon="6.54536">
        <ele>2512.88</ele>
        <time>2024-03-25T19:47:37.000Z</time>
      </trkpt>
      <trkpt lat="45.63064" lon="6.54536">
        <ele>2508.69</ele>
        <time>2024-03-25T19:47:42.664Z</time>
      </trkpt>
      <trkpt lat="45.63087" lon="6.54566">
        <ele>2504.18</ele>
        <time>2024-03-25T19:47:48.339Z</time>
      </trkpt>
      <trkpt lat="45.63089" lon="6.54591">
        <ele>2499.73</ele>
        <time>2024-03-25T19:47:54.019Z</time>
      </trkpt>
      <trkpt lat="45.63111" lon="6.54619">
        <ele>2495.3</ele>
        <time>2024-03-25T19:47:59.709Z</time>
      </trkpt>
      <trkpt lat="45.63121" lon="6.54641">
        <ele>2490.9</ele>
        <time>2024-03-25T19:48:05.406Z</time>
      </trkpt>
      <trkpt lat="45.63138" lon="6.5466">
        <ele>2486.5</ele>
        <time>2024-03-25T19:48:11.110Z</time>
      </trkpt>
      <trkpt lat="45.63169" lon="6.54689">
        <ele>2482.24</ele>
        <time>2024-03-25T19:48:16.826Z</time>
      </trkpt>
      <trkpt lat="45.63187" lon="6.54708">
        <ele>2478.1</ele>
        <time>2024-03-25T19:48:22.550Z</time>
      </trkpt>
      <trkpt lat="45.63206" lon="6.54722">
        <ele>2474.08</ele>
        <time>2024-03-25T19:48:28.281Z</time>
      </trkpt>
      <trkpt lat="45.63227" lon="6.54728">
        <ele>2470.19</ele>
        <time>2024-03-25T19:48:34.019Z</time>
      </trkpt>
      <trkpt lat="45.63243" lon="6.54749">
        <ele>2466.02</ele>
        <time>2024-03-25T19:48:39.764Z</time>
      </trkpt>
      <trkpt lat="45.63259" lon="6.54752">
        <ele>2462.09</ele>
        <time>2024-03-25T19:48:45.514Z</time>
      </trkpt>
      <trkpt lat="45.63281" lon="6.54772">
        <ele>2457.87</ele>
        <time>2024-03-25T19:48:51.273Z</time>
      </trkpt>
      <trkpt lat="45.63298" lon="6.54785">
        <ele>2454</ele>
        <time>2024-03-25T19:48:57.039Z</time>
      </trkpt>
      <trkpt lat="45.63314" lon="6.54801">
        <ele>2450.19</ele>
        <time>2024-03-25T19:49:02.811Z</time>
      </trkpt>
      <trkpt lat="45.63354" lon="6.54824">
        <ele>2446.28</ele>
        <time>2024-03-25T19:49:08.597Z</time>
      </trkpt>
      <trkpt lat="45.63365" lon="6.54844">
        <ele>2442.45</ele>
        <time>2024-03-25T19:49:14.389Z</time>
      </trkpt>
      <trkpt lat="45.63392" lon="6.54865">
        <ele>2438.63</ele>
        <time>2024-03-25T19:49:20.192Z</time>
      </trkpt>
      <trkpt lat="45.63401" lon="6.54874">
        <ele>2434.97</ele>
        <time>2024-03-25T19:49:25.998Z</time>
      </trkpt>
      <trkpt lat="45.63407" lon="6.54886">
        <ele>2431.3</ele>
        <time>2024-03-25T19:49:31.808Z</time>
      </trkpt>
      <trkpt lat="45.63415" lon="6.54912">
        <ele>2427.52</ele>
        <time>2024-03-25T19:49:37.624Z</time>
      </trkpt>
      <trkpt lat="45.63415" lon="6.54913">
        <ele>2423.92</ele>
        <time>2024-03-25T19:49:43.441Z</time>
      </trkpt>
      <trkpt lat="45.63432" lon="6.54924">
        <ele>2420.21</ele>
        <time>2024-03-25T19:49:49.264Z</time>
      </trkpt>
      <trkpt lat="45.63444" lon="6.54933">
        <ele>2416.46</ele>
        <time>2024-03-25T19:49:55.091Z</time>
      </trkpt>
      <trkpt lat="45.63455" lon="6.54953">
        <ele>2412.55</ele>
        <time>2024-03-25T19:50:00.924Z</time>
      </trkpt>
      <trkpt lat="45.63474" lon="6.54961">
        <ele>2408.68</ele>
        <time>2024-03-25T19:50:06.764Z</time>
      </trkpt>
      <trkpt lat="45.63505" lon="6.54983">
        <ele>2404.6</ele>
        <time>2024-03-25T19:50:12.615Z</time>
      </trkpt>
      <trkpt lat="45.63508" lon="6.54994">
        <ele>2400.4</ele>
        <time>2024-03-25T19:50:18.469Z</time>
      </trkpt>
      <trkpt lat="45.63536" lon="6.55004">
        <ele>2396.15</ele>
        <time>2024-03-25T19:50:24.333Z</time>
      </trkpt>
      <trkpt lat="45.63566" lon="6.55041">
        <ele>2391.31</ele>
        <time>2024-03-25T19:50:30.210Z</time>
      </trkpt>
      <trkpt lat="45.63633" lon="6.55053">
        <ele>2386.43</ele>
        <time>2024-03-25T19:50:36.110Z</time>
      </trkpt>
      <trkpt lat="45.6365" lon="6.55082">
        <ele>2381.62</ele>
        <time>2024-03-25T19:50:42.018Z</time>
      </trkpt>
      <trkpt lat="45.63664" lon="6.55082">
        <ele>2377.11</ele>
        <time>2024-03-25T19:50:47.931Z</time>
      </trkpt>
      <trkpt lat="45.63675" lon="6.55073">
        <ele>2372.47</ele>
        <time>2024-03-25T19:50:53.848Z</time>
      </trkpt>
      <trkpt lat="45.63695" lon="6.55071">
        <ele>2367.7</ele>
        <time>2024-03-25T19:50:59.772Z</time>
      </trkpt>
      <trkpt lat="45.63722" lon="6.55102">
        <ele>2363.32</ele>
        <time>2024-03-25T19:51:05.708Z</time>
      </trkpt>
      <trkpt lat="45.63733" lon="6.55107">
        <ele>2358.66</ele>
        <time>2024-03-25T19:51:11.647Z</time>
      </trkpt>
      <trkpt lat="45.63755" lon="6.5511">
        <ele>2353.77</ele>
        <time>2024-03-25T19:51:17.594Z</time>
      </trkpt>
      <trkpt lat="45.63771" lon="6.55093">
        <ele>2348.6</ele>
        <time>2024-03-25T19:51:23.548Z</time>
      </trkpt>
      <trkpt lat="45.63809" lon="6.5506">
        <ele>2343.11</ele>
        <time>2024-03-25T19:51:29.516Z</time>
      </trkpt>
      <trkpt lat="45.63827" lon="6.55037">
        <ele>2337.68</ele>
        <time>2024-03-25T19:51:35.492Z</time>
      </trkpt>
      <trkpt lat="45.63844" lon="6.55027">
        <ele>2332.43</ele>
        <time>2024-03-25T19:51:41.475Z</time>
      </trkpt>
      <trkpt lat="45.63824" lon="6.55008">
        <ele>2327.09</ele>
        <time>2024-03-25T19:51:47.466Z</time>
      </trkpt>
      <trkpt lat="45.6379" lon="6.54992">
        <ele>2321.76</ele>
        <time>2024-03-25T19:51:53.468Z</time>
      </trkpt>
      <trkpt lat="45.63785" lon="6.5498">
        <ele>2316.37</ele>
        <time>2024-03-25T19:51:59.474Z</time>
      </trkpt>
      <trkpt lat="45.63784" lon="6.54963">
        <ele>2310.8</ele>
        <time>2024-03-25T19:52:05.484Z</time>
      </trkpt>
      <trkpt lat="45.63785" lon="6.5495">
        <ele>2305.29</ele>
        <time>2024-03-25T19:52:11.497Z</time>
      </trkpt>
      <trkpt lat="45.63795" lon="6.54941">
        <ele>2299.71</ele>
        <time>2024-03-25T19:52:17.514Z</time>
      </trkpt>
      <trkpt lat="45.63801" lon="6.54939">
        <ele>2294.35</ele>
        <time>2024-03-25T19:52:23.533Z</time>
      </trkpt>
      <trkpt lat="45.63814" lon="6.54939">
        <ele>2289.06</ele>
        <time>2024-03-25T19:52:29.556Z</time>
      </trkpt>
      <trkpt lat="45.63825" lon="6.54935">
        <ele>2283.91</ele>
        <time>2024-03-25T19:52:35.583Z</time>
      </trkpt>
      <trkpt lat="45.63855" lon="6.54904">
        <ele>2278.04</ele>
        <time>2024-03-25T19:52:41.622Z</time>
      </trkpt>
      <trkpt lat="45.63863" lon="6.5489">
        <ele>2272.52</ele>
        <time>2024-03-25T19:52:47.666Z</time>
      </trkpt>
      <trkpt lat="45.63873" lon="6.54868">
        <ele>2266.86</ele>
        <time>2024-03-25T19:52:53.716Z</time>
      </trkpt>
      <trkpt lat="45.63873" lon="6.54868">
        <ele>2261.78</ele>
        <time>2024-03-25T19:52:59.766Z</time>
      </trkpt>
      <trkpt lat="45.63879" lon="6.54854">
        <ele>2256.42</ele>
        <time>2024-03-25T19:53:05.820Z</time>
      </trkpt>
      <trkpt lat="45.63862" lon="6.54825">
        <ele>2250.65</ele>
        <time>2024-03-25T19:53:11.883Z</time>
      </trkpt>
      <trkpt lat="45.6386" lon="6.54822">
        <ele>2245.72</ele>
        <time>2024-03-25T19:53:17.947Z</time>
      </trkpt>
      <trkpt lat="45.63866" lon="6.54812">
        <ele>2240.72</ele>
        <time>2024-03-25T19:53:24.014Z</time>
      </trkpt>
      <trkpt lat="45.63854" lon="6.54811">
        <ele>2236.04</ele>
        <time>2024-03-25T19:53:30.084Z</time>
      </trkpt>
      <trkpt lat="45.63855" lon="6.54799">
        <ele>2231.29</ele>
        <time>2024-03-25T19:53:36.157Z</time>
      </trkpt>
      <trkpt lat="45.63859" lon="6.54783">
        <ele>2226.59</ele>
        <time>2024-03-25T19:53:42.234Z</time>
      </trkpt>
      <trkpt lat="45.63866" lon="6.54767">
        <ele>2222.05</ele>
        <time>2024-03-25T19:53:48.316Z</time>
      </trkpt>
      <trkpt lat="45.63877" lon="6.5475">
        <ele>2217.56</ele>
        <time>2024-03-25T19:53:54.403Z</time>
      </trkpt>
      <trkpt lat="45.63888" lon="6.54748">
        <ele>2213.37</ele>
        <time>2024-03-25T19:54:00.494Z</time>
      </trkpt>
      <trkpt lat="45.63882" lon="6.54724">
        <ele>2209.08</ele>
        <time>2024-03-25T19:54:06.591Z</time>
      </trkpt>
      <trkpt lat="45.63884" lon="6.5471">
        <ele>2205.13</ele>
        <time>2024-03-25T19:54:12.691Z</time>
      </trkpt>
      <trkpt lat="45.63891" lon="6.54686">
        <ele>2201.09</ele>
        <time>2024-03-25T19:54:18.797Z</time>
      </trkpt>
      <trkpt lat="45.63905" lon="6.54674">
        <ele>2197.17</ele>
        <time>2024-03-25T19:54:24.909Z</time>
      </trkpt>
      <trkpt lat="45.63912" lon="6.54651">
        <ele>2193.42</ele>
        <time>2024-03-25T19:54:31.026Z</time>
      </trkpt>
      <trkpt lat="45.63931" lon="6.54629">
        <ele>2189.52</ele>
        <time>2024-03-25T19:54:37.152Z</time>
      </trkpt>
      <trkpt lat="45.63948" lon="6.54586">
        <ele>2185.95</ele>
        <time>2024-03-25T19:54:43.289Z</time>
      </trkpt>
      <trkpt lat="45.63956" lon="6.54572">
        <ele>2182.49</ele>
        <time>2024-03-25T19:54:49.430Z</time>
      </trkpt>
      <trkpt lat="45.63967" lon="6.54535">
        <ele>2178.75</ele>
        <time>2024-03-25T19:54:55.581Z</time>
      </trkpt>
      <trkpt lat="45.63966" lon="6.54519">
        <ele>2175.56</ele>
        <time>2024-03-25T19:55:01.736Z</time>
      </trkpt>
      <trkpt lat="45.63967" lon="6.54507">
        <ele>2172.4</ele>
        <time>2024-03-25T19:55:07.893Z</time>
      </trkpt>
      <trkpt lat="45.63967" lon="6.54499">
        <ele>2169.39</ele>
        <time>2024-03-25T19:55:14.052Z</time>
      </trkpt>
      <trkpt lat="45.63971" lon="6.54492">
        <ele>2166.41</ele>
        <time>2024-03-25T19:55:20.213Z</time>
      </trkpt>
      <trkpt lat="45.63971" lon="6.54486">
        <ele>2163.58</ele>
        <time>2024-03-25T19:55:26.376Z</time>
      </trkpt>
      <trkpt lat="45.63969" lon="6.54446">
        <ele>2160.58</ele>
        <time>2024-03-25T19:55:32.548Z</time>
      </trkpt>
      <trkpt lat="45.63965" lon="6.5443">
        <ele>2157.84</ele>
        <time>2024-03-25T19:55:38.724Z</time>
      </trkpt>
      <trkpt lat="45.6396" lon="6.54423">
        <ele>2155.22</ele>
        <time>2024-03-25T19:55:44.902Z</time>
      </trkpt>
      <trkpt lat="45.63963" lon="6.54415">
        <ele>2152.48</ele>
        <time>2024-03-25T19:55:51.082Z</time>
      </trkpt>
      <trkpt lat="45.63963" lon="6.54412">
        <ele>2149.78</ele>
        <time>2024-03-25T19:55:57.263Z</time>
      </trkpt>
      <trkpt lat="45.63967" lon="6.54406">
        <ele>2146.95</ele>
        <time>2024-03-25T19:56:03.446Z</time>
      </trkpt>
      <trkpt lat="45.63979" lon="6.544">
        <ele>2143.78</ele>
        <time>2024-03-25T19:56:09.633Z</time>
      </trkpt>
      <trkpt lat="45.6398" lon="6.54381">
        <ele>2140.74</ele>
        <time>2024-03-25T19:56:15.825Z</time>
      </trkpt>
      <trkpt lat="45.63982" lon="6.5438">
        <ele>2137.84</ele>
        <time>2024-03-25T19:56:22.018Z</time>
      </trkpt>
      <trkpt lat="45.63985" lon="6.54382">
        <ele>2134.92</ele>
        <time>2024-03-25T19:56:28.212Z</time>
      </trkpt>
      <trkpt lat="45.63985" lon="6.54379">
        <ele>2131.95</ele>
        <time>2024-03-25T19:56:34.406Z</time>
      </trkpt>
      <trkpt lat="45.63989" lon="6.54379">
        <ele>2128.81</ele>
        <time>2024-03-25T19:56:40.602Z</time>
      </trkpt>
      <trkpt lat="45.63995" lon="6.54389">
        <ele>2125.63</ele>
        <time>2024-03-25T19:56:46.801Z</time>
      </trkpt>
      <trkpt lat="45.64005" lon="6.54397">
        <ele>2122.27</ele>
        <time>2024-03-25T19:56:53.004Z</time>
      </trkpt>
      <trkpt lat="45.64007" lon="6.54389">
        <ele>2118.88</ele>
        <time>2024-03-25T19:56:59.209Z</time>
      </trkpt>
      <trkpt lat="45.64008" lon="6.54379">
        <ele>2115.37</ele>
        <time>2024-03-25T19:57:05.416Z</time>
      </trkpt>
      <trkpt lat="45.64025" lon="6.54383">
        <ele>2111.52</ele>
        <time>2024-03-25T19:57:11.629Z</time>
      </trkpt>
      <trkpt lat="45.64028" lon="6.54374">
        <ele>2107.93</ele>
        <time>2024-03-25T19:57:17.844Z</time>
      </trkpt>
      <trkpt lat="45.64033" lon="6.54375">
        <ele>2104.36</ele>
        <time>2024-03-25T19:57:24.061Z</time>
      </trkpt>
      <trkpt lat="45.64047" lon="6.54372">
        <ele>2100.55</ele>
        <time>2024-03-25T19:57:30.283Z</time>
      </trkpt>
      <trkpt lat="45.64053" lon="6.54362">
        <ele>2096.83</ele>
        <time>2024-03-25T19:57:36.508Z</time>
      </trkpt>
      <trkpt lat="45.64065" lon="6.54359">
        <ele>2093.11</ele>
        <time>2024-03-25T19:57:42.737Z</time>
      </trkpt>
      <trkpt lat="45.6407" lon="6.5436">
        <ele>2089.53</ele>
        <time>2024-03-25T19:57:48.967Z</time>
      </trkpt>
      <trkpt lat="45.64083" lon="6.54354">
        <ele>2085.82</ele>
        <time>2024-03-25T19:57:55.202Z</time>
      </trkpt>
      <trkpt lat="45.64097" lon="6.54332">
        <ele>2082.06</ele>
        <time>2024-03-25T19:58:01.444Z</time>
      </trkpt>
      <trkpt lat="45.64101" lon="6.54325">
        <ele>2078.48</ele>
        <time>2024-03-25T19:58:07.688Z</time>
      </trkpt>
      <trkpt lat="45.64106" lon="6.54301">
        <ele>2074.76</ele>
        <time>2024-03-25T19:58:13.938Z</time>
      </trkpt>
      <trkpt lat="45.64109" lon="6.54296">
        <ele>2071.27</ele>
        <time>2024-03-25T19:58:20.189Z</time>
      </trkpt>
      <trkpt lat="45.64125" lon="6.54293">
        <ele>2067.65</ele>
        <time>2024-03-25T19:58:26.446Z</time>
      </trkpt>
      <trkpt lat="45.64127" lon="6.54291">
        <ele>2064.3</ele>
        <time>2024-03-25T19:58:32.704Z</time>
      </trkpt>
      <trkpt lat="45.64134" lon="6.54292">
        <ele>2060.97</ele>
        <time>2024-03-25T19:58:38.964Z</time>
      </trkpt>
      <trkpt lat="45.64137" lon="6.54296">
        <ele>2057.75</ele>
        <time>2024-03-25T19:58:45.225Z</time>
      </trkpt>
      <trkpt lat="45.64142" lon="6.54293">
        <ele>2054.54</ele>
        <time>2024-03-25T19:58:51.488Z</time>
      </trkpt>
      <trkpt lat="45.64149" lon="6.54283">
        <ele>2051.31</ele>
        <time>2024-03-25T19:58:57.754Z</time>
      </trkpt>
      <trkpt lat="45.64152" lon="6.54287">
        <ele>2048.26</ele>
        <time>2024-03-25T19:59:04.022Z</time>
      </trkpt>
      <trkpt lat="45.64157" lon="6.54282">
        <ele>2045.12</ele>
        <time>2024-03-25T19:59:10.292Z</time>
      </trkpt>
      <trkpt lat="45.64169" lon="6.54285">
        <ele>2041.97</ele>
        <time>2024-03-25T19:59:16.566Z</time>
      </trkpt>
      <trkpt lat="45.64179" lon="6.54281">
        <ele>2038.93</ele>
        <time>2024-03-25T19:59:22.843Z</time>
      </trkpt>
      <trkpt lat="45.64188" lon="6.54283">
        <ele>2036.08</ele>
        <time>2024-03-25T19:59:29.124Z</time>
      </trkpt>
      <trkpt lat="45.64191" lon="6.54282">
        <ele>2033.52</ele>
        <time>2024-03-25T19:59:35.405Z</time>
      </trkpt>
      <trkpt lat="45.64198" lon="6.54287">
        <ele>2031.01</ele>
        <time>2024-03-25T19:59:41.689Z</time>
      </trkpt>
      <trkpt lat="45.642" lon="6.54286">
        <ele>2028.69</ele>
        <time>2024-03-25T19:59:47.974Z</time>
      </trkpt>
      <trkpt lat="45.64205" lon="6.54291">
        <ele>2026.51</ele>
        <time>2024-03-25T19:59:54.261Z</time>
      </trkpt>
      <trkpt lat="45.6421" lon="6.54292">
        <ele>2024.39</ele>
        <time>2024-03-25T20:00:00.550Z</time>
      </trkpt>
      <trkpt lat="45.64216" lon="6.54295">
        <ele>2022.39</ele>
        <time>2024-03-25T20:00:06.841Z</time>
      </trkpt>
      <trkpt lat="45.64221" lon="6.54295">
        <ele>2020.53</ele>
        <time>2024-03-25T20:00:13.133Z</time>
      </trkpt>
      <trkpt lat="45.64223" lon="6.54288">
        <ele>2018.78</ele>
        <time>2024-03-25T20:00:19.427Z</time>
      </trkpt>
      <trkpt lat="45.64223" lon="6.54265">
        <ele>2017.03</ele>
        <time>2024-03-25T20:00:25.726Z</time>
      </trkpt>
      <trkpt lat="45.64224" lon="6.54251">
        <ele>2015.49</ele>
        <time>2024-03-25T20:00:32.029Z</time>
      </trkpt>
      <trkpt lat="45.64229" lon="6.54243">
        <ele>2014.11</ele>
        <time>2024-03-25T20:00:38.334Z</time>
      </trkpt>
      <trkpt lat="45.64229" lon="6.54243">
        <ele>2012.9</ele>
        <time>2024-03-25T20:00:44.639Z</time>
      </trkpt>
      <trkpt lat="45.64234" lon="6.54238">
        <ele>2011.74</ele>
        <time>2024-03-25T20:00:50.946Z</time>
      </trkpt>
      <trkpt lat="45.64245" lon="6.54233">
        <ele>2010.62</ele>
        <time>2024-03-25T20:00:57.257Z</time>
      </trkpt>
      <trkpt lat="45.6426" lon="6.54234">
        <ele>2009.56</ele>
        <time>2024-03-25T20:01:03.573Z</time>
      </trkpt>
      <trkpt lat="45.64279" lon="6.5423">
        <ele>2008.55</ele>
        <time>2024-03-25T20:01:09.895Z</time>
      </trkpt>
      <trkpt lat="45.64296" lon="6.5423">
        <ele>2007.62</ele>
        <time>2024-03-25T20:01:16.223Z</time>
      </trkpt>
      <trkpt lat="45.64306" lon="6.54227">
        <ele>2006.79</ele>
        <time>2024-03-25T20:01:22.555Z</time>
      </trkpt>
      <trkpt lat="45.6431" lon="6.54225">
        <ele>2005.99</ele>
        <time>2024-03-25T20:01:28.888Z</time>
      </trkpt>
      <trkpt lat="45.64312" lon="6.54228">
        <ele>2005.18</ele>
        <time>2024-03-25T20:01:35.222Z</time>
      </trkpt>
      <trkpt lat="45.64318" lon="6.54227">
        <ele>2004.39</ele>
        <time>2024-03-25T20:01:41.558Z</time>
      </trkpt>
      <trkpt lat="45.64326" lon="6.54229">
        <ele>2003.57</ele>
        <time>2024-03-25T20:01:47.897Z</time>
      </trkpt>
      <trkpt lat="45.6433" lon="6.54239">
        <ele>2002.67</ele>
        <time>2024-03-25T20:01:54.238Z</time>
      </trkpt>
      <trkpt lat="45.64345" lon="6.54252">
        <ele>2001.73</ele>
        <time>2024-03-25T20:02:00.585Z</time>
      </trkpt>
      <trkpt lat="45.64355" lon="6.54248">
        <ele>2000.82</ele>
        <time>2024-03-25T20:02:06.936Z</time>
      </trkpt>
      <trkpt lat="45.64369" lon="6.54252">
        <ele>1999.81</ele>
        <time>2024-03-25T20:02:13.291Z</time>
      </trkpt>
      <trkpt lat="45.64385" lon="6.54251">
        <ele>1998.79</ele>
        <time>2024-03-25T20:02:19.652Z</time>
      </trkpt>
      <trkpt lat="45.64392" lon="6.54255">
        <ele>1997.62</ele>
        <time>2024-03-25T20:02:26.015Z</time>
      </trkpt>
      <trkpt lat="45.64421" lon="6.54239">
        <ele>1996.55</ele>
        <time>2024-03-25T20:02:32.389Z</time>
      </trkpt>
      <trkpt lat="45.64442" lon="6.54238">
        <ele>1995.25</ele>
        <time>2024-03-25T20:02:38.770Z</time>
      </trkpt>
      <trkpt lat="45.64461" lon="6.54229">
        <ele>1993.72</ele>
        <time>2024-03-25T20:02:45.157Z</time>
      </trkpt>
      <trkpt lat="45.64467" lon="6.5422">
        <ele>1992.04</ele>
        <time>2024-03-25T20:02:51.547Z</time>
      </trkpt>
      <trkpt lat="45.64472" lon="6.5421">
        <ele>1990.27</ele>
        <time>2024-03-25T20:02:57.940Z</time>
      </trkpt>
      <trkpt lat="45.64485" lon="6.54206">
        <ele>1988.38</ele>
        <time>2024-03-25T20:03:04.338Z</time>
      </trkpt>
      <trkpt lat="45.64506" lon="6.54158">
        <ele>1985.59</ele>
        <time>2024-03-25T20:03:10.749Z</time>
      </trkpt>
      <trkpt lat="45.64497" lon="6.54121">
        <ele>1983.81</ele>
        <time>2024-03-25T20:03:17.169Z</time>
      </trkpt>
      <trkpt lat="45.645" lon="6.54102">
        <ele>1982.16</ele>
        <time>2024-03-25T20:03:23.593Z</time>
      </trkpt>
      <trkpt lat="45.64496" lon="6.54053">
        <ele>1980.82</ele>
        <time>2024-03-25T20:03:30.029Z</time>
      </trkpt>
      <trkpt lat="45.64499" lon="6.54027">
        <ele>1979.46</ele>
        <time>2024-03-25T20:03:36.471Z</time>
      </trkpt>
      <trkpt lat="45.64496" lon="6.54009">
        <ele>1978.18</ele>
        <time>2024-03-25T20:03:42.917Z</time>
      </trkpt>
      <trkpt lat="45.64499" lon="6.54006">
        <ele>1976.91</ele>
        <time>2024-03-25T20:03:49.364Z</time>
      </trkpt>
      <trkpt lat="45.64499" lon="6.54001">
        <ele>1975.75</ele>
        <time>2024-03-25T20:03:55.813Z</time>
      </trkpt>
      <trkpt lat="45.64494" lon="6.53985">
        <ele>1974.74</ele>
        <time>2024-03-25T20:04:02.266Z</time>
      </trkpt>
      <trkpt lat="45.64503" lon="6.53967">
        <ele>1973.7</ele>
        <time>2024-03-25T20:04:08.724Z</time>
      </trkpt>
      <trkpt lat="45.64506" lon="6.53967">
        <ele>1972.75</ele>
        <time>2024-03-25T20:04:15.183Z</time>
      </trkpt>
      <trkpt lat="45.64516" lon="6.53959">
        <ele>1971.88</ele>
        <time>2024-03-25T20:04:21.645Z</time>
      </trkpt>
      <trkpt lat="45.6452" lon="6.53957">
        <ele>1971.13</ele>
        <time>2024-03-25T20:04:28.109Z</time>
      </trkpt>
      <trkpt lat="45.64524" lon="6.53953">
        <ele>1970.48</ele>
        <time>2024-03-25T20:04:34.575Z</time>
      </trkpt>
      <trkpt lat="45.64538" lon="6.53947">
        <ele>1969.87</ele>
        <time>2024-03-25T20:04:41.045Z</time>
      </trkpt>
      <trkpt lat="45.6454" lon="6.53944">
        <ele>1969.43</ele>
        <time>2024-03-25T20:04:47.517Z</time>
      </trkpt>
      <trkpt lat="45.6455" lon="6.53945">
        <ele>1969.02</ele>
        <time>2024-03-25T20:04:53.992Z</time>
      </trkpt>
      <trkpt lat="45.64552" lon="6.53944">
        <ele>1968.73</ele>
        <time>2024-03-25T20:05:00.468Z</time>
      </trkpt>
      <trkpt lat="45.64553" lon="6.53934">
        <ele>1968.59</ele>
        <time>2024-03-25T20:05:06.946Z</time>
      </trkpt>
      <trkpt lat="45.64556" lon="6.53934">
        <ele>1968.41</ele>
        <time>2024-03-25T20:05:13.425Z</time>
      </trkpt>
      <trkpt lat="45.64559" lon="6.53931">
        <ele>1968.3</ele>
        <time>2024-03-25T20:05:19.905Z</time>
      </trkpt>
      <trkpt lat="45.64564" lon="6.53931">
        <ele>1968.21</ele>
        <time>2024-03-25T20:05:26.387Z</time>
      </trkpt>
      <trkpt lat="45.64566" lon="6.53933">
        <ele>1968.13</ele>
        <time>2024-03-25T20:05:32.870Z</time>
      </trkpt>
      <trkpt lat="45.64573" lon="6.5393">
        <ele>1968.13</ele>
        <time>2024-03-25T20:05:39.355Z</time>
      </trkpt>
      <trkpt lat="45.64574" lon="6.53932">
        <ele>1968.06</ele>
        <time>2024-03-25T20:05:45.840Z</time>
      </trkpt>
      <trkpt lat="45.64581" lon="6.53933">
        <ele>1968</ele>
        <time>2024-03-25T20:05:52.328Z</time>
      </trkpt>
      <trkpt lat="45.64591" lon="6.5393">
        <ele>1967.94</ele>
        <time>2024-03-25T20:05:58.819Z</time>
      </trkpt>
      <trkpt lat="45.64597" lon="6.53934">
        <ele>1967.82</ele>
        <time>2024-03-25T20:06:05.313Z</time>
      </trkpt>
      <trkpt lat="45.64603" lon="6.53933">
        <ele>1967.7</ele>
        <time>2024-03-25T20:06:11.808Z</time>
      </trkpt>
      <trkpt lat="45.64608" lon="6.53937">
        <ele>1967.52</ele>
        <time>2024-03-25T20:06:18.305Z</time>
      </trkpt>
      <trkpt lat="45.64615" lon="6.53939">
        <ele>1967.3</ele>
        <time>2024-03-25T20:06:24.805Z</time>
      </trkpt>
      <trkpt lat="45.64628" lon="6.53939">
        <ele>1967.04</ele>
        <time>2024-03-25T20:06:31.309Z</time>
      </trkpt>
      <trkpt lat="45.6465" lon="6.53948">
        <ele>1966.57</ele>
        <time>2024-03-25T20:06:37.821Z</time>
      </trkpt>
      <trkpt lat="45.64661" lon="6.53943">
        <ele>1966.17</ele>
        <time>2024-03-25T20:06:44.337Z</time>
      </trkpt>
      <trkpt lat="45.64664" lon="6.53944">
        <ele>1965.73</ele>
        <time>2024-03-25T20:06:50.854Z</time>
      </trkpt>
      <trkpt lat="45.64667" lon="6.53939">
        <ele>1965.25</ele>
        <time>2024-03-25T20:06:57.372Z</time>
      </trkpt>
      <trkpt lat="45.64671" lon="6.53937">
        <ele>1964.68</ele>
        <time>2024-03-25T20:07:03.892Z</time>
      </trkpt>
      <trkpt lat="45.64682" lon="6.53944">
        <ele>1963.93</ele>
        <time>2024-03-25T20:07:10.416Z</time>
      </trkpt>
      <trkpt lat="45.64692" lon="6.53947">
        <ele>1963.16</ele>
        <time>2024-03-25T20:07:16.943Z</time>
      </trkpt>
      <trkpt lat="45.64702" lon="6.53949">
        <ele>1962.38</ele>
        <time>2024-03-25T20:07:23.474Z</time>
      </trkpt>
      <trkpt lat="45.64711" lon="6.53954">
        <ele>1961.6</ele>
        <time>2024-03-25T20:07:30.008Z</time>
      </trkpt>
      <trkpt lat="45.64712" lon="6.53952">
        <ele>1960.78</ele>
        <time>2024-03-25T20:07:36.542Z</time>
      </trkpt>
      <trkpt lat="45.64715" lon="6.53957">
        <ele>1959.9</ele>
        <time>2024-03-25T20:07:43.078Z</time>
      </trkpt>
      <trkpt lat="45.64716" lon="6.53957">
        <ele>1958.94</ele>
        <time>2024-03-25T20:07:49.614Z</time>
      </trkpt>
      <trkpt lat="45.64718" lon="6.53956">
        <ele>1957.87</ele>
        <time>2024-03-25T20:07:56.151Z</time>
      </trkpt>
      <trkpt lat="45.64718" lon="6.53953">
        <ele>1956.72</ele>
        <time>2024-03-25T20:08:02.689Z</time>
      </trkpt>
      <trkpt lat="45.64723" lon="6.53953">
        <ele>1955.45</ele>
        <time>2024-03-25T20:08:09.228Z</time>
      </trkpt>
      <trkpt lat="45.64736" lon="6.53962">
        <ele>1954.05</ele>
        <time>2024-03-25T20:08:15.772Z</time>
      </trkpt>
      <trkpt lat="45.6474" lon="6.53962">
        <ele>1952.59</ele>
        <time>2024-03-25T20:08:22.318Z</time>
      </trkpt>
      <trkpt lat="45.64747" lon="6.53971">
        <ele>1951.03</ele>
        <time>2024-03-25T20:08:28.867Z</time>
      </trkpt>
      <trkpt lat="45.64759" lon="6.53974">
        <ele>1949.25</ele>
        <time>2024-03-25T20:08:35.420Z</time>
      </trkpt>
      <trkpt lat="45.64762" lon="6.53973">
        <ele>1947.47</ele>
        <time>2024-03-25T20:08:41.974Z</time>
      </trkpt>
      <trkpt lat="45.64769" lon="6.53976">
        <ele>1945.56</ele>
        <time>2024-03-25T20:08:48.530Z</time>
      </trkpt>
      <trkpt lat="45.64774" lon="6.53984">
        <ele>1943.63</ele>
        <time>2024-03-25T20:08:55.089Z</time>
      </trkpt>
      <trkpt lat="45.64798" lon="6.53992">
        <ele>1941.25</ele>
        <time>2024-03-25T20:09:01.656Z</time>
      </trkpt>
      <trkpt lat="45.64806" lon="6.54003">
        <ele>1939.22</ele>
        <time>2024-03-25T20:09:08.227Z</time>
      </trkpt>
      <trkpt lat="45.64809" lon="6.54008">
        <ele>1937.25</ele>
        <time>2024-03-25T20:09:14.799Z</time>
      </trkpt>
      <trkpt lat="45.64819" lon="6.54021">
        <ele>1935.16</ele>
        <time>2024-03-25T20:09:21.376Z</time>
      </trkpt>
      <trkpt lat="45.64827" lon="6.54027">
        <ele>1933.05</ele>
        <time>2024-03-25T20:09:27.956Z</time>
      </trkpt>
      <trkpt lat="45.64837" lon="6.54041">
        <ele>1930.89</ele>
        <time>2024-03-25T20:09:34.540Z</time>
      </trkpt>
      <trkpt lat="45.64846" lon="6.54046">
        <ele>1928.74</ele>
        <time>2024-03-25T20:09:41.128Z</time>
      </trkpt>
      <trkpt lat="45.64855" lon="6.54057">
        <ele>1926.55</ele>
        <time>2024-03-25T20:09:47.719Z</time>
      </trkpt>
      <trkpt lat="45.64867" lon="6.54065">
        <ele>1924.29</ele>
        <time>2024-03-25T20:09:54.315Z</time>
      </trkpt>
      <trkpt lat="45.64893" lon="6.54094">
        <ele>1921.95</ele>
        <time>2024-03-25T20:10:00.922Z</time>
      </trkpt>
      <trkpt lat="45.64903" lon="6.54094">
        <ele>1919.57</ele>
        <time>2024-03-25T20:10:07.532Z</time>
      </trkpt>
      <trkpt lat="45.64906" lon="6.54097">
        <ele>1917.22</ele>
        <time>2024-03-25T20:10:14.144Z</time>
      </trkpt>
      <trkpt lat="45.64922" lon="6.54096">
        <ele>1914.69</ele>
        <time>2024-03-25T20:10:20.761Z</time>
      </trkpt>
      <trkpt lat="45.64939" lon="6.54077">
        <ele>1912.04</ele>
        <time>2024-03-25T20:10:27.385Z</time>
      </trkpt>
      <trkpt lat="45.64892" lon="6.54013">
        <ele>1909.68</ele>
        <time>2024-03-25T20:10:34.031Z</time>
      </trkpt>
      <trkpt lat="45.6489" lon="6.53989">
        <ele>1907.5</ele>
        <time>2024-03-25T20:10:40.683Z</time>
      </trkpt>
      <trkpt lat="45.64906" lon="6.5398">
        <ele>1905.59</ele>
        <time>2024-03-25T20:10:47.340Z</time>
      </trkpt>
      <trkpt lat="45.64933" lon="6.53987">
        <ele>1904.01</ele>
        <time>2024-03-25T20:10:54.006Z</time>
      </trkpt>
      <trkpt lat="45.64963" lon="6.53997">
        <ele>1902.69</ele>
        <time>2024-03-25T20:11:00.683Z</time>
      </trkpt>
      <trkpt lat="45.64963" lon="6.53997">
        <ele>1901.83</ele>
        <time>2024-03-25T20:11:07.360Z</time>
      </trkpt>
      <trkpt lat="45.6498" lon="6.53973">
        <ele>1901.02</ele>
        <time>2024-03-25T20:11:14.045Z</time>
      </trkpt>
      <trkpt lat="45.65032" lon="6.53979">
        <ele>1900.4</ele>
        <time>2024-03-25T20:11:20.747Z</time>
      </trkpt>
      <trkpt lat="45.65036" lon="6.53952">
        <ele>1900.6</ele>
        <time>2024-03-25T20:11:27.456Z</time>
      </trkpt>
      <trkpt lat="45.65052" lon="6.53935">
        <ele>1900.95</ele>
        <time>2024-03-25T20:11:34.171Z</time>
      </trkpt>
      <trkpt lat="45.65067" lon="6.5394">
        <ele>1900.94</ele>
        <time>2024-03-25T20:11:40.891Z</time>
      </trkpt>
      <trkpt lat="45.65093" lon="6.53924">
        <ele>1901.62</ele>
        <time>2024-03-25T20:11:47.621Z</time>
      </trkpt>
      <trkpt lat="45.65128" lon="6.53917">
        <ele>1901.55</ele>
        <time>2024-03-25T20:11:54.362Z</time>
      </trkpt>
      <trkpt lat="45.65155" lon="6.53896">
        <ele>1901.61</ele>
        <time>2024-03-25T20:12:01.114Z</time>
      </trkpt>
      <trkpt lat="45.65163" lon="6.53897">
        <ele>1901.32</ele>
        <time>2024-03-25T20:12:07.868Z</time>
      </trkpt>
      <trkpt lat="45.65172" lon="6.53889">
        <ele>1901.14</ele>
        <time>2024-03-25T20:12:14.626Z</time>
      </trkpt>
      <trkpt lat="45.6518" lon="6.53894">
        <ele>1900.62</ele>
        <time>2024-03-25T20:12:21.387Z</time>
      </trkpt>
      <trkpt lat="45.65189" lon="6.53897">
        <ele>1900.15</ele>
        <time>2024-03-25T20:12:28.151Z</time>
      </trkpt>
      <trkpt lat="45.65193" lon="6.53895">
        <ele>1900.04</ele>
        <time>2024-03-25T20:12:34.916Z</time>
      </trkpt>
      <trkpt lat="45.65196" lon="6.5388">
        <ele>1900.1</ele>
        <time>2024-03-25T20:12:41.685Z</time>
      </trkpt>
      <trkpt lat="45.65194" lon="6.53877">
        <ele>1899.83</ele>
        <time>2024-03-25T20:12:48.455Z</time>
      </trkpt>
      <trkpt lat="45.65195" lon="6.53871">
        <ele>1899.34</ele>
        <time>2024-03-25T20:12:55.226Z</time>
      </trkpt>
      <trkpt lat="45.65208" lon="6.53855">
        <ele>1898.29</ele>
        <time>2024-03-25T20:13:02.003Z</time>
      </trkpt>
      <trkpt lat="45.65214" lon="6.5384">
        <ele>1897.25</ele>
        <time>2024-03-25T20:13:08.784Z</time>
      </trkpt>
      <trkpt lat="45.65214" lon="6.53836">
        <ele>1896.08</ele>
        <time>2024-03-25T20:13:15.566Z</time>
      </trkpt>
      <trkpt lat="45.65216" lon="6.53836">
        <ele>1894.47</ele>
        <time>2024-03-25T20:13:22.349Z</time>
      </trkpt>
      <trkpt lat="45.65233" lon="6.5382">
        <ele>1892.52</ele>
        <time>2024-03-25T20:13:29.139Z</time>
      </trkpt>
      <trkpt lat="45.65243" lon="6.53831">
        <ele>1890.34</ele>
        <time>2024-03-25T20:13:35.933Z</time>
      </trkpt>
      <trkpt lat="45.65247" lon="6.53841">
        <ele>1888.73</ele>
        <time>2024-03-25T20:13:42.729Z</time>
      </trkpt>
      <trkpt lat="45.65261" lon="6.53839">
        <ele>1887.24</ele>
        <time>2024-03-25T20:13:49.530Z</time>
      </trkpt>
      <trkpt lat="45.65268" lon="6.53843">
        <ele>1886.08</ele>
        <time>2024-03-25T20:13:56.334Z</time>
      </trkpt>
      <trkpt lat="45.65272" lon="6.53843">
        <ele>1885.01</ele>
        <time>2024-03-25T20:14:03.139Z</time>
      </trkpt>
      <trkpt lat="45.65281" lon="6.5384">
        <ele>1883.96</ele>
        <time>2024-03-25T20:14:09.947Z</time>
      </trkpt>
      <trkpt lat="45.65283" lon="6.53842">
        <ele>1882.86</ele>
        <time>2024-03-25T20:14:16.756Z</time>
      </trkpt>
      <trkpt lat="45.65286" lon="6.53841">
        <ele>1881.82</ele>
        <time>2024-03-25T20:14:23.566Z</time>
      </trkpt>
      <trkpt lat="45.65295" lon="6.53844">
        <ele>1880.71</ele>
        <time>2024-03-25T20:14:30.379Z</time>
      </trkpt>
      <trkpt lat="45.65302" lon="6.53842">
        <ele>1879.82</ele>
        <time>2024-03-25T20:14:37.194Z</time>
      </trkpt>
      <trkpt lat="45.6531" lon="6.53836">
        <ele>1879.05</ele>
        <time>2024-03-25T20:14:44.012Z</time>
      </trkpt>
      <trkpt lat="45.65313" lon="6.53828">
        <ele>1878.36</ele>
        <time>2024-03-25T20:14:50.832Z</time>
      </trkpt>
      <trkpt lat="45.65321" lon="6.53825">
        <ele>1877.46</ele>
        <time>2024-03-25T20:14:57.655Z</time>
      </trkpt>
      <trkpt lat="45.65327" lon="6.53828">
        <ele>1876.61</ele>
        <time>2024-03-25T20:15:04.480Z</time>
      </trkpt>
      <trkpt lat="45.65327" lon="6.53828">
        <ele>1876.61</ele>
        <time>2024-03-25T20:15:11.305Z</time>
      </trkpt>
      <trkpt lat="45.6534" lon="6.53832">
        <ele>1872.64</ele>
        <time>2024-03-25T20:15:18.135Z</time>
      </trkpt>
      <trkpt lat="45.65341" lon="6.53839">
        <ele>1870.91</ele>
        <time>2024-03-25T20:15:24.966Z</time>
      </trkpt>
      <trkpt lat="45.65345" lon="6.53839">
        <ele>1869.2</ele>
        <time>2024-03-25T20:15:31.799Z</time>
      </trkpt>
      <trkpt lat="45.65348" lon="6.53839">
        <ele>1867.51</ele>
        <time>2024-03-25T20:15:38.633Z</time>
      </trkpt>
      <trkpt lat="45.65351" lon="6.53842">
        <ele>1865.72</ele>
        <time>2024-03-25T20:15:45.468Z</time>
      </trkpt>
      <trkpt lat="45.65364" lon="6.53846">
        <ele>1863.57</ele>
        <time>2024-03-25T20:15:52.307Z</time>
      </trkpt>
      <trkpt lat="45.65367" lon="6.5385">
        <ele>1861.6</ele>
        <time>2024-03-25T20:15:59.148Z</time>
      </trkpt>
      <trkpt lat="45.65374" lon="6.53852">
        <ele>1859.55</ele>
        <time>2024-03-25T20:16:05.991Z</time>
      </trkpt>
      <trkpt lat="45.65377" lon="6.53857">
        <ele>1857.5</ele>
        <time>2024-03-25T20:16:12.836Z</time>
      </trkpt>
      <trkpt lat="45.65382" lon="6.53856">
        <ele>1855.63</ele>
        <time>2024-03-25T20:16:19.682Z</time>
      </trkpt>
      <trkpt lat="45.65383" lon="6.5386">
        <ele>1853.75</ele>
        <time>2024-03-25T20:16:26.529Z</time>
      </trkpt>
      <trkpt lat="45.65387" lon="6.53861">
        <ele>1851.91</ele>
        <time>2024-03-25T20:16:33.378Z</time>
      </trkpt>
      <trkpt lat="45.65384" lon="6.53875">
        <ele>1849.77</ele>
        <time>2024-03-25T20:16:40.230Z</time>
      </trkpt>
      <trkpt lat="45.65388" lon="6.53877">
        <ele>1847.83</ele>
        <time>2024-03-25T20:16:47.084Z</time>
      </trkpt>
      <trkpt lat="45.65391" lon="6.53874">
        <ele>1846.15</ele>
        <time>2024-03-25T20:16:53.939Z</time>
      </trkpt>
      <trkpt lat="45.65391" lon="6.53884">
        <ele>1844.18</ele>
        <time>2024-03-25T20:17:00.796Z</time>
      </trkpt>
      <trkpt lat="45.65397" lon="6.53885">
        <ele>1842.35</ele>
        <time>2024-03-25T20:17:07.655Z</time>
      </trkpt>
      <trkpt lat="45.65399" lon="6.53887">
        <ele>1840.6</ele>
        <time>2024-03-25T20:17:14.515Z</time>
      </trkpt>
      <trkpt lat="45.65414" lon="6.5388">
        <ele>1838.9</ele>
        <time>2024-03-25T20:17:21.380Z</time>
      </trkpt>
      <trkpt lat="45.65415" lon="6.5387">
        <ele>1837.75</ele>
        <time>2024-03-25T20:17:28.247Z</time>
      </trkpt>
      <trkpt lat="45.65418" lon="6.53862">
        <ele>1836.63</ele>
        <time>2024-03-25T20:17:35.117Z</time>
      </trkpt>
      <trkpt lat="45.65433" lon="6.53858">
        <ele>1835.17</ele>
        <time>2024-03-25T20:17:41.992Z</time>
      </trkpt>
      <trkpt lat="45.65456" lon="6.53865">
        <ele>1833.13</ele>
        <time>2024-03-25T20:17:48.874Z</time>
      </trkpt>
      <trkpt lat="45.65461" lon="6.5386">
        <ele>1831.86</ele>
        <time>2024-03-25T20:17:55.758Z</time>
      </trkpt>
      <trkpt lat="45.65471" lon="6.53864">
        <ele>1830.28</ele>
        <time>2024-03-25T20:18:02.646Z</time>
      </trkpt>
      <trkpt lat="45.65483" lon="6.53851">
        <ele>1829.25</ele>
        <time>2024-03-25T20:18:09.539Z</time>
      </trkpt>
      <trkpt lat="45.65497" lon="6.53847">
        <ele>1827.86</ele>
        <time>2024-03-25T20:18:16.437Z</time>
      </trkpt>
      <trkpt lat="45.65505" lon="6.53839">
        <ele>1826.98</ele>
        <time>2024-03-25T20:18:23.338Z</time>
      </trkpt>
      <trkpt lat="45.65515" lon="6.53831">
        <ele>1825.74</ele>
        <time>2024-03-25T20:18:30.242Z</time>
      </trkpt>
      <trkpt lat="45.65525" lon="6.53816">
        <ele>1824.79</ele>
        <time>2024-03-25T20:18:37.152Z</time>
      </trkpt>
      <trkpt lat="45.65534" lon="6.53781">
        <ele>1824.71</ele>
        <time>2024-03-25T20:18:44.070Z</time>
      </trkpt>
      <trkpt lat="45.65531" lon="6.53752">
        <ele>1824.95</ele>
        <time>2024-03-25T20:18:50.995Z</time>
      </trkpt>
      <trkpt lat="45.65529" lon="6.53747">
        <ele>1825.19</ele>
        <time>2024-03-25T20:18:57.922Z</time>
      </trkpt>
      <trkpt lat="45.65524" lon="6.53741">
        <ele>1825.72</ele>
        <time>2024-03-25T20:19:04.850Z</time>
      </trkpt>
      <trkpt lat="45.65523" lon="6.53724">
        <ele>1826.17</ele>
        <time>2024-03-25T20:19:11.782Z</time>
      </trkpt>
      <trkpt lat="45.65516" lon="6.53696">
        <ele>1826.73</ele>
        <time>2024-03-25T20:19:18.721Z</time>
      </trkpt>
      <trkpt lat="45.65508" lon="6.5368">
        <ele>1827.75</ele>
        <time>2024-03-25T20:19:25.665Z</time>
      </trkpt>
      <trkpt lat="45.65503" lon="6.53653">
        <ele>1828.66</ele>
        <time>2024-03-25T20:19:32.616Z</time>
      </trkpt>
      <trkpt lat="45.65501" lon="6.53649">
        <ele>1829.62</ele>
        <time>2024-03-25T20:19:39.568Z</time>
      </trkpt>
      <trkpt lat="45.655" lon="6.5364">
        <ele>1830.58</ele>
        <time>2024-03-25T20:19:46.522Z</time>
      </trkpt>
      <trkpt lat="45.65497" lon="6.53632">
        <ele>1831.65</ele>
        <time>2024-03-25T20:19:53.478Z</time>
      </trkpt>
      <trkpt lat="45.65497" lon="6.53628">
        <ele>1832.67</ele>
        <time>2024-03-25T20:20:00.435Z</time>
      </trkpt>
      <trkpt lat="45.65494" lon="6.53622">
        <ele>1833.86</ele>
        <time>2024-03-25T20:20:07.394Z</time>
      </trkpt>
      <trkpt lat="45.65492" lon="6.53608">
        <ele>1835.03</ele>
        <time>2024-03-25T20:20:14.356Z</time>
      </trkpt>
      <trkpt lat="45.65487" lon="6.53593">
        <ele>1836.43</ele>
        <time>2024-03-25T20:20:21.322Z</time>
      </trkpt>
      <trkpt lat="45.65495" lon="6.53579">
        <ele>1837.29</ele>
        <time>2024-03-25T20:20:28.292Z</time>
      </trkpt>
      <trkpt lat="45.65497" lon="6.53567">
        <ele>1838.49</ele>
        <time>2024-03-25T20:20:35.265Z</time>
      </trkpt>
      <trkpt lat="45.655" lon="6.53553">
        <ele>1839.75</ele>
        <time>2024-03-25T20:20:42.241Z</time>
      </trkpt>
      <trkpt lat="45.65502" lon="6.53511">
        <ele>1841.48</ele>
        <time>2024-03-25T20:20:49.227Z</time>
      </trkpt>
      <trkpt lat="45.65505" lon="6.53503">
        <ele>1842.74</ele>
        <time>2024-03-25T20:20:56.216Z</time>
      </trkpt>
      <trkpt lat="45.65505" lon="6.53496">
        <ele>1844.07</ele>
        <time>2024-03-25T20:21:03.206Z</time>
      </trkpt>
      <trkpt lat="45.65504" lon="6.53489">
        <ele>1845.41</ele>
        <time>2024-03-25T20:21:10.198Z</time>
      </trkpt>
      <trkpt lat="45.65505" lon="6.53477">
        <ele>1846.72</ele>
        <time>2024-03-25T20:21:17.193Z</time>
      </trkpt>
      <trkpt lat="45.65511" lon="6.53452">
        <ele>1848.14</ele>
        <time>2024-03-25T20:21:24.194Z</time>
      </trkpt>
      <trkpt lat="45.65512" lon="6.53443">
        <ele>1849.49</ele>
        <time>2024-03-25T20:21:31.197Z</time>
      </trkpt>
      <trkpt lat="45.65523" lon="6.53418">
        <ele>1851.02</ele>
        <time>2024-03-25T20:21:38.207Z</time>
      </trkpt>
      <trkpt lat="45.65531" lon="6.53415">
        <ele>1852.19</ele>
        <time>2024-03-25T20:21:45.219Z</time>
      </trkpt>
      <trkpt lat="45.65549" lon="6.53418">
        <ele>1853.39</ele>
        <time>2024-03-25T20:21:52.238Z</time>
      </trkpt>
      <trkpt lat="45.65551" lon="6.53415">
        <ele>1854.48</ele>
        <time>2024-03-25T20:21:59.258Z</time>
      </trkpt>
      <trkpt lat="45.65539" lon="6.53398">
        <ele>1855.6</ele>
        <time>2024-03-25T20:22:06.283Z</time>
      </trkpt>
      <trkpt lat="45.6554" lon="6.53389">
        <ele>1856.57</ele>
        <time>2024-03-25T20:22:13.310Z</time>
      </trkpt>
      <trkpt lat="45.6554" lon="6.53389">
        <ele>1857.43</ele>
        <time>2024-03-25T20:22:20.337Z</time>
      </trkpt>
      <trkpt lat="45.65542" lon="6.53384">
        <ele>1858.32</ele>
        <time>2024-03-25T20:22:27.366Z</time>
      </trkpt>
      <trkpt lat="45.65549" lon="6.53378">
        <ele>1859.22</ele>
        <time>2024-03-25T20:22:34.397Z</time>
      </trkpt>
      <trkpt lat="45.65559" lon="6.53388">
        <ele>1860.03</ele>
        <time>2024-03-25T20:22:41.432Z</time>
      </trkpt>
      <trkpt lat="45.65574" lon="6.53399">
        <ele>1860.92</ele>
        <time>2024-03-25T20:22:48.473Z</time>
      </trkpt>
      <trkpt lat="45.65586" lon="6.53399">
        <ele>1862.05</ele>
        <time>2024-03-25T20:22:55.518Z</time>
      </trkpt>
      <trkpt lat="45.65613" lon="6.534">
        <ele>1863.52</ele>
        <time>2024-03-25T20:23:02.572Z</time>
      </trkpt>
      <trkpt lat="45.65614" lon="6.534">
        <ele>1864.65</ele>
        <time>2024-03-25T20:23:09.627Z</time>
      </trkpt>
      <trkpt lat="45.65615" lon="6.53396">
        <ele>1866</ele>
        <time>2024-03-25T20:23:16.683Z</time>
      </trkpt>
      <trkpt lat="45.65614" lon="6.53391">
        <ele>1867.45</ele>
        <time>2024-03-25T20:23:23.740Z</time>
      </trkpt>
      <trkpt lat="45.65612" lon="6.53386">
        <ele>1869.07</ele>
        <time>2024-03-25T20:23:30.798Z</time>
      </trkpt>
      <trkpt lat="45.65618" lon="6.53387">
        <ele>1870.94</ele>
        <time>2024-03-25T20:23:37.858Z</time>
      </trkpt>
      <trkpt lat="45.65618" lon="6.53382">
        <ele>1873.04</ele>
        <time>2024-03-25T20:23:44.919Z</time>
      </trkpt>
      <trkpt lat="45.65624" lon="6.53383">
        <ele>1875.34</ele>
        <time>2024-03-25T20:23:51.982Z</time>
      </trkpt>
      <trkpt lat="45.65629" lon="6.53381">
        <ele>1877.89</ele>
        <time>2024-03-25T20:23:59.047Z</time>
      </trkpt>
      <trkpt lat="45.65626" lon="6.53365">
        <ele>1880.75</ele>
        <time>2024-03-25T20:24:06.116Z</time>
      </trkpt>
      <trkpt lat="45.65615" lon="6.53304">
        <ele>1883.94</ele>
        <time>2024-03-25T20:24:13.200Z</time>
      </trkpt>
      <trkpt lat="45.65616" lon="6.533">
        <ele>1885.82</ele>
        <time>2024-03-25T20:24:20.285Z</time>
      </trkpt>
      <trkpt lat="45.65634" lon="6.5332">
        <ele>1887.7</ele>
        <time>2024-03-25T20:24:27.377Z</time>
      </trkpt>
      <trkpt lat="45.65635" lon="6.53323">
        <ele>1889.34</ele>
        <time>2024-03-25T20:24:34.470Z</time>
      </trkpt>
      <trkpt lat="45.6566" lon="6.5333">
        <ele>1891.14</ele>
        <time>2024-03-25T20:24:41.572Z</time>
      </trkpt>
      <trkpt lat="45.6567" lon="6.53326">
        <ele>1892.47</ele>
        <time>2024-03-25T20:24:48.677Z</time>
      </trkpt>
      <trkpt lat="45.65673" lon="6.53325">
        <ele>1893.44</ele>
        <time>2024-03-25T20:24:55.783Z</time>
      </trkpt>
      <trkpt lat="45.65678" lon="6.53337">
        <ele>1894.17</ele>
        <time>2024-03-25T20:25:02.892Z</time>
      </trkpt>
      <trkpt lat="45.65679" lon="6.53338">
        <ele>1894.9</ele>
        <time>2024-03-25T20:25:10.002Z</time>
      </trkpt>
    </trkseg>
  </trk>
</gpx>